Provisional Data: Little Mehoopany Creek near North Mehoopany, PA


Please select a monitoring station.
Please select start date.
Please select start date.

Toggle Unit: C/F Toggle Unit: C/F
Sample Time Temperature (C) Temperature (F) Specific Conductivity (mS/cm) pH   Turbidity (NTU+) DO (mg/L)
9/6/2021 12:00:00 AM 19.35 66.83 0.108 7.09 7.53 8.79
9/6/2021 12:15:00 AM 19.36 66.848 0.107 7.25 7.48 8.9
9/6/2021 12:30:00 AM 19.31 66.758 0.107 7.24 6.51 8.88
9/6/2021 12:45:00 AM 19.26 66.668 0.107 7.2 7.67 8.85
9/6/2021 1:00:00 AM 19.21 66.578 0.107 7.12 6.17 8.83
9/6/2021 1:15:00 AM 19.18 66.524 0.107 7.16 6.85 8.86
9/6/2021 1:30:00 AM 19.15 66.47 0.107 7.2 6.66 8.86
9/6/2021 1:45:00 AM 19.14 66.452 0.107 7.22 7.65 8.91
9/6/2021 2:00:00 AM 19.09 66.362 0.107 7.18 6.6 8.83
9/6/2021 2:15:00 AM 19.07 66.326 0.107 7.18 10.47 8.91
9/6/2021 2:30:00 AM 19.04 66.272 0.107 7.22 6.44 8.87
9/6/2021 2:45:00 AM 19.03 66.254 0.107 7.22 5.83 8.93
9/6/2021 3:00:00 AM 19 66.2 0.107 7.24 7.37 8.94
9/6/2021 3:15:00 AM 18.96 66.128 0.108 7.22 6.65 8.93
9/6/2021 3:30:00 AM 18.95 66.11 0.108 7.23 6.57 8.95
9/6/2021 3:45:00 AM 18.9 66.02 0.108 7.17 5.82 8.94
9/6/2021 4:00:00 AM 18.87 65.966 0.108 7.2 5.81 8.91
9/6/2021 4:15:00 AM 18.84 65.912 0.108 7.25 6.37 8.97
9/6/2021 4:30:00 AM 18.78 65.804 0.109 7.16 5.84 8.89
9/6/2021 4:45:00 AM 18.77 65.786 0.108 7.19 7.21 8.99
9/6/2021 5:00:00 AM 18.73 65.714 0.108 7.18 6.46 8.95
9/6/2021 5:15:00 AM 18.71 65.67799 0.107 7.27 6.36 9
9/6/2021 5:30:00 AM 18.67 65.606 0.107 7.23 5.9 9
9/6/2021 5:45:00 AM 18.63 65.534 0.108 7.28 6.3 9
9/6/2021 6:00:00 AM 18.58 65.444 0.108 7.24 6.67 8.96
9/6/2021 6:15:00 AM 18.55 65.39 0.108 7.26 7.84 9.03
9/6/2021 6:30:00 AM 18.48 65.264 0.107 7.2 7.1 9.05
9/6/2021 6:45:00 AM 18.43 65.174 0.107 7.21 5.76 9.06
9/6/2021 7:00:00 AM 18.35 65.03 0.108 7.22 6.01 9.03
9/6/2021 7:15:00 AM 18.28 64.904 0.108 7.23 6.49 9.06
9/6/2021 7:30:00 AM 18.24 64.832 0.109 7.24 5.82 9.13
9/6/2021 7:45:00 AM 18.22 64.796 0.108 7.23 6.32 9.15
9/6/2021 8:00:00 AM 18.22 64.796 0.107 7.28 5.91 9.17
9/6/2021 8:15:00 AM 18.19 64.742 0.108 7.3 6.12 9.19
9/6/2021 8:30:00 AM 18.19 64.742 0.107 7.32 6.05 9.21
9/6/2021 8:45:00 AM 18.16 64.688 0.108 7.29 5.98 9.21
9/6/2021 9:00:00 AM 18.17 64.706 0.108 7.24 5.8 9.18
9/6/2021 9:15:00 AM 18.18 64.724 0.107 7.27 6.03 9.22
9/6/2021 9:30:00 AM 18.19 64.742 0.108 7.31 6.09 9.2
9/6/2021 9:45:00 AM 18.24 64.832 0.107 7.33 5.8 9.21
9/6/2021 10:00:00 AM 18.31 64.958 0.108 7.32 5.91 9.21
9/6/2021 10:15:00 AM 18.39 65.102 0.108 7.31 5.91 9.25
9/6/2021 10:30:00 AM 18.51 65.318 0.107 7.38 6.03 9.26
9/6/2021 10:45:00 AM 18.61 65.498 0.107 7.39 5.97 9.26
9/6/2021 11:00:00 AM 18.69 65.642 0.107 7.4 6.12 9.23
9/6/2021 11:15:00 AM 18.8 65.84 0.107 7.39 5.93 9.2
9/6/2021 11:30:00 AM 18.91 66.038 0.107 7.41 5.65 9.2
9/6/2021 11:45:00 AM 18.99 66.182 0.108 7.36 5.91 9.16
9/6/2021 12:00:00 PM 19.13 66.434 0.107 7.41 6.39 9.16
9/6/2021 12:15:00 PM 19.2 66.56 0.108 7.39 41.64 9.13
9/6/2021 12:30:00 PM 19.21 66.578 0.108 7.42 6.39 9.11
9/6/2021 12:45:00 PM 19.27 66.686 0.108 7.41 7.26 9.13
9/6/2021 1:00:00 PM 19.39 66.902 0.108 7.43 6.7 9.15
9/6/2021 1:15:00 PM 19.43 66.974 0.108 7.44 6.49 9.1
9/6/2021 1:30:00 PM 19.42 66.956 0.108 7.43 5.8 9.1
9/6/2021 1:45:00 PM 19.49 67.082 0.108 7.42 5.95 9.09
9/6/2021 2:00:00 PM 19.58 67.244 0.108 7.41 5.86 9.07
9/6/2021 2:15:00 PM 19.58 67.244 0.108 7.43 6.39 9.05
9/6/2021 2:30:00 PM 19.7 67.46 0.108 7.43 18.1 9.07
9/6/2021 2:45:00 PM 19.7 67.46 0.108 7.42 7.45 9.04
9/6/2021 3:00:00 PM 19.72 67.496 0.108 7.38 6.15 9.03
9/6/2021 3:15:00 PM 19.77 67.586 0.109 7.4 5.6 9.02
9/6/2021 3:30:00 PM 19.88 67.784 0.108 7.44 6.38 9.01
9/6/2021 3:45:00 PM 19.84 67.712 0.108 7.43 5.85 8.99
9/6/2021 4:00:00 PM 19.86 67.748 0.108 7.43 5.91 8.99
9/6/2021 4:15:00 PM 19.86 67.748 0.108 7.39 5.77 8.98
9/6/2021 4:30:00 PM 19.87 67.766 0.108 7.42 5.81 8.96
9/6/2021 4:45:00 PM 19.86 67.748 0.108 7.38 6.01 8.95
9/6/2021 5:00:00 PM 19.9 67.82 0.107 7.4 5.67 8.92
9/6/2021 5:15:00 PM 19.87 67.766 0.108 7.36 6.16 8.88
9/6/2021 5:30:00 PM 19.85 67.73 0.108 7.36 5.75 8.87
9/6/2021 5:45:00 PM 19.84 67.712 0.108 7.36 5.68 8.86
9/6/2021 6:00:00 PM 19.83 67.694 0.108 7.34 5.65 8.87
9/6/2021 6:15:00 PM 19.82 67.676 0.108 7.36 5.69 8.87
9/6/2021 6:30:00 PM 19.81 67.658 0.108 7.36 6.78 8.85
9/6/2021 6:45:00 PM 19.75 67.55 0.108 7.35 5.85 8.87
9/6/2021 7:00:00 PM 19.71 67.478 0.108 7.37 7.19 8.87
9/6/2021 7:15:00 PM 19.63 67.334 0.108 7.34 9.95 8.86
9/6/2021 7:30:00 PM 19.56 67.208 0.108 7.33 7.18 8.87
9/6/2021 7:45:00 PM 19.48 67.064 0.108 7.33 6.49 8.86
9/6/2021 8:00:00 PM 19.39 66.902 0.108 7.32 7.87 8.87
9/6/2021 8:15:00 PM 19.32 66.776 0.108 7.29 7.99 8.87
9/6/2021 8:30:00 PM 19.26 66.668 0.108 7.31 6.71 8.88
9/6/2021 8:45:00 PM 19.2 66.56 0.108 7.33 6.23 8.91
9/6/2021 9:00:00 PM 19.12 66.416 0.108 7.32 6.26 8.92
9/6/2021 9:15:00 PM 19.05 66.29 0.074 7.33 69.85 8.95
9/6/2021 9:30:00 PM 18.97 66.146 0.109 7.31 5.77 8.95
9/6/2021 9:45:00 PM 18.9 66.02 0.109 7.32 6.44 8.97
9/6/2021 10:00:00 PM 18.81 65.858 0.109 7.3 5.96 8.99
9/6/2021 10:15:00 PM 18.75 65.75 0.109 7.32 5.59 9.01
9/6/2021 10:30:00 PM 18.69 65.642 0.109 7.33 5.66 9.01
9/6/2021 10:45:00 PM 18.61 65.498 0.109 7.29 5.8 9.04
9/6/2021 11:00:00 PM 18.56 65.408 0.109 7.3 5.64 9.06
9/6/2021 11:15:00 PM 18.49 65.282 0.109 7.29 5.91 9.05
9/6/2021 11:30:00 PM 18.44 65.192 0.109 7.32 8.48 9.09
9/6/2021 11:45:00 PM 18.35 65.03 0.109 7.27 6.37 9.09
9/7/2021 12:00:00 AM 18.3 64.94 0.109 7.31 7.15 9.09
9/7/2021 12:15:00 AM 18.22 64.796 0.109 7.26 5.77 9.11
9/7/2021 12:30:00 AM 18.17 64.706 0.11 7.27 6.17 9.13
9/7/2021 12:45:00 AM 18.09 64.562 0.11 7.28 5.46 9.14
9/7/2021 1:00:00 AM 18.03 64.454 0.11 7.29 5.54 9.14
9/7/2021 1:15:00 AM 17.97 64.346 0.11 7.28 6.16 9.16
9/7/2021 1:30:00 AM 17.91 64.238 0.11 7.27 5.52 9.17
9/7/2021 1:45:00 AM 17.86 64.148 0.11 7.27 5.54 9.19
9/7/2021 2:00:00 AM 17.81 64.058 0.11 7.28 5.42 9.22
9/7/2021 2:15:00 AM 17.75 63.95 0.11 7.29 5.59 9.22
9/7/2021 2:30:00 AM 17.67 63.806 0.11 7.24 5.67 9.24
9/7/2021 2:45:00 AM 17.6 63.68 0.11 7.25 7.54 9.27
9/7/2021 3:00:00 AM 17.55 63.59 0.11 7.27 5.48 9.25
9/7/2021 3:15:00 AM 17.49 63.482 0.11 7.24 5.57 9.24
9/7/2021 3:30:00 AM 17.43 63.374 0.11 7.26 5.71 9.29
9/7/2021 3:45:00 AM 17.38 63.284 0.11 7.28 5.71 9.3
9/7/2021 4:00:00 AM 17.32 63.176 0.11 7.27 5.46 9.32
9/7/2021 4:15:00 AM 17.25 63.05 0.112 7.22 5.47 9.28
9/7/2021 4:30:00 AM 17.18 62.924 0.11 7.25 5.46 9.31
9/7/2021 4:45:00 AM 17.15 62.87 0.11 7.26 5.41 9.35
9/7/2021 5:00:00 AM 17.07 62.726 0.111 7.26 5.53 9.34
9/7/2021 5:15:00 AM 17.02 62.636 0.111 7.28 5.4 9.37
9/7/2021 5:30:00 AM 16.97 62.546 0.11 7.28 5.49 9.39
9/7/2021 5:45:00 AM 16.89 62.402 0.111 7.22 7.82 9.38
9/7/2021 6:00:00 AM 16.87 62.366 0.113 7.27 5.7 9.4
9/7/2021 6:15:00 AM 16.83 62.294 0.111 7.29 5.51 9.42
9/7/2021 6:30:00 AM 16.79 62.222 0.111 7.24 5.7 9.43
9/7/2021 6:45:00 AM 16.74 62.132 0.111 7.26 6.76 9.45
9/7/2021 7:00:00 AM 16.71 62.078 0.111 7.27 5.5 9.47
9/7/2021 7:15:00 AM 16.66 61.988 0.111 7.25 5.53 9.48
9/7/2021 7:30:00 AM 16.64 61.952 0.111 7.28 5.24 9.52
9/7/2021 7:45:00 AM 16.61 61.898 0.111 7.27 5.34 9.53
9/7/2021 8:00:00 AM 16.57 61.826 0.111 7.26 5.53 9.53
9/7/2021 8:15:00 AM 16.55 61.79 0.111 7.29 14.32 9.59
9/7/2021 8:30:00 AM 16.58 61.844 0.111 7.33 5.45 9.63
9/7/2021 8:45:00 AM 16.58 61.844 0.111 7.29 5.85 9.61
9/7/2021 9:00:00 AM 16.58 61.844 0.111 7.32 5.5 9.65
9/7/2021 9:15:00 AM 16.6 61.88 0.111 7.33 5.46 9.63
9/7/2021 9:30:00 AM 16.61 61.898 0.111 7.3 5.63 9.59
9/7/2021 9:45:00 AM 16.64 61.952 0.111 7.28 5.39 9.52
9/7/2021 10:00:00 AM 16.74 62.132 0.111 7.33 5.4 9.61
9/7/2021 10:15:00 AM 16.86 62.348 0.111 7.32 5.56 9.58
9/7/2021 10:30:00 AM 16.98 62.564 0.111 7.29 5.79 9.56
9/7/2021 10:45:00 AM 17.12 62.816 0.111 7.33 5.89 9.56
9/7/2021 11:00:00 AM 17.3 63.14 0.111 7.34 5.35 9.56
9/7/2021 11:15:00 AM 17.46 63.428 0.111 7.29 5.44 9.55
9/7/2021 11:30:00 AM 17.64 63.752 0.111 7.36 5.26 9.51
9/7/2021 11:45:00 AM 17.81 64.058 0.111 7.29 5.15 9.5
9/7/2021 12:00:00 PM 18 64.4 0.111 7.35 5.27 9.5
9/7/2021 12:15:00 PM 18.17 64.706 0.112 7.36 5.19 9.49
9/7/2021 12:30:00 PM 18.23 64.814 0.112 7.32 5.26 9.45
9/7/2021 12:45:00 PM 18.35 65.03 0.112 7.36 5.39 9.44
9/7/2021 1:00:00 PM 18.44 65.192 0.112 7.35 5.23 9.4
9/7/2021 1:15:00 PM 18.66 65.588 0.113 7.37 5.19 9.43
9/7/2021 1:30:00 PM 18.68 65.624 0.115 7.34 5.1 9.33
9/7/2021 1:45:00 PM 18.76 65.768 0.113 7.41 5.23 9.4
9/7/2021 2:00:00 PM 18.84 65.912 0.113 7.37 5.22 9.32
9/7/2021 2:15:00 PM 18.94 66.092 0.113 7.37 5.57 9.3
9/7/2021 2:30:00 PM 19.02 66.236 0.113 7.35 5.4 9.27
9/7/2021 2:45:00 PM 19.14 66.452 0.113 7.36 5.26 9.28
9/7/2021 3:00:00 PM 19.23 66.614 0.112 7.43 5.25 9.3
9/7/2021 3:15:00 PM 19.28 66.704 0.113 7.38 5.06 9.25
9/7/2021 3:30:00 PM 19.25 66.65 0.114 7.25 5.22 9.21
9/7/2021 3:45:00 PM 19.28 66.704 0.113 7.41 5.32 9.22
9/7/2021 4:00:00 PM 19.5 67.1 0.113 7.38 5.03 9.22
9/7/2021 4:15:00 PM 19.5 67.1 0.113 7.42 5.2 9.16
9/7/2021 4:30:00 PM 19.5 67.1 0.113 7.36 5 9.13
9/7/2021 4:45:00 PM 19.45 67.01 0.113 7.21 5.2 9.08
9/7/2021 5:00:00 PM 19.5 67.1 0.113 7.42 5.05 9.07
9/7/2021 5:15:00 PM 19.44 66.992 0.113 7.24 5.26 8.97
9/7/2021 5:30:00 PM 19.4 66.92 0.114 7.22 5.1 8.93
9/7/2021 5:45:00 PM 19.42 66.956 0.114 7.26 5.17 8.93
9/7/2021 6:00:00 PM 19.41 66.938 0.113 7.28 5.31 8.95
9/7/2021 6:15:00 PM 19.4 66.92 0.113 7.32 5.24 8.95
9/7/2021 6:30:00 PM 19.34 66.812 0.114 7.28 5.76 8.9
9/7/2021 6:45:00 PM 19.32 66.776 0.114 7.34 5.29 8.91
9/7/2021 7:00:00 PM 19.2 66.56 0.114 7.22 5.13 8.86
9/7/2021 7:15:00 PM 19.17 66.506 0.114 7.3 5.16 8.89
9/7/2021 7:30:00 PM 19.08 66.344 0.114 7.26 5.22 8.84
9/7/2021 7:45:00 PM 19.03 66.254 0.114 7.28 5.22 8.88
9/7/2021 8:00:00 PM 18.95 66.11 0.114 7.27 7.56 8.77
9/7/2021 8:15:00 PM 18.89 66.002 0.114 7.21 5.63 8.88
9/7/2021 8:30:00 PM 18.84 65.912 0.114 7.2 5.56 8.91
9/7/2021 8:45:00 PM 18.77 65.786 0.114 7.2 5.3 8.91
9/7/2021 9:00:00 PM 18.71 65.67799 0.114 7.18 6.48 8.9
9/7/2021 9:15:00 PM 18.68 65.624 0.114 7.27 6.76 8.95
9/7/2021 9:30:00 PM 18.63 65.534 0.114 7.25 6.15 8.92
9/7/2021 9:45:00 PM 18.58 65.444 0.114 7.28 5.39 8.92
9/7/2021 10:00:00 PM 18.52 65.336 0.114 7.15 5.99 8.94
9/7/2021 10:15:00 PM 18.47 65.246 0.114 7.16 5.46 8.92
9/7/2021 10:30:00 PM 18.42 65.156 0.115 7.2 5.31 8.93
9/7/2021 10:45:00 PM 18.37 65.066 0.115 7.2 5.2 8.9
9/7/2021 11:00:00 PM 18.36 65.048 0.114 7.24 5.05 8.96
9/7/2021 11:15:00 PM 18.34 65.012 0.114 7.23 5.74 9.02
9/7/2021 11:30:00 PM 18.28 64.904 0.114 7.24 5.55 8.98
9/7/2021 11:45:00 PM 18.27 64.886 0.114 7.26 5.16 9.01
9/8/2021 12:00:00 AM 18.23 64.814 0.115 7.17 5.28 9.02
9/8/2021 12:15:00 AM 18.2 64.76 0.114 7.22 5.22 9.01
9/8/2021 12:30:00 AM 18.18 64.724 0.114 7.26 12.21 9.05
9/8/2021 12:45:00 AM 18.13 64.634 0.115 7.21 5.26 8.95
9/8/2021 1:00:00 AM 18.13 64.634 0.115 7.28 5.69 9.02
9/8/2021 1:15:00 AM 18.08 64.544 0.115 7.21 5.49 8.96
9/8/2021 1:30:00 AM 18.07 64.526 0.115 7.23 5.27 9.02
9/8/2021 1:45:00 AM 18.05 64.49 0.115 7.2 4.88 9.03
9/8/2021 2:00:00 AM 18.02 64.436 0.115 7.2 5.3 9.05
9/8/2021 2:15:00 AM 17.99 64.382 0.115 7.22 5.46 9.08
9/8/2021 2:30:00 AM 17.99 64.382 0.115 7.23 5.21 9.04
9/8/2021 2:45:00 AM 17.95 64.31 0.115 7.25 5.01 9.06
9/8/2021 3:00:00 AM 17.86 64.148 0.116 7.08 5.15 8.94
9/8/2021 3:15:00 AM 17.91 64.238 0.115 7.28 5.08 9.08
9/8/2021 3:30:00 AM 17.88 64.184 0.115 7.24 4.89 9.06
9/8/2021 3:45:00 AM 17.87 64.166 0.116 7.15 4.89 9.01
9/8/2021 4:00:00 AM 17.84 64.112 0.115 7.24 5.21 9.08
9/8/2021 4:15:00 AM 17.83 64.094 0.115 7.19 5.79 9.08
9/8/2021 4:30:00 AM 17.8 64.04 0.116 7.21 4.84 9.06
9/8/2021 4:45:00 AM 17.78 64.004 0.115 7.25 5.55 9.08
9/8/2021 5:00:00 AM 17.77 63.986 0.115 7.24 5.06 9.08
9/8/2021 5:15:00 AM 17.75 63.95 0.116 7.22 6.45 9.06
9/8/2021 5:30:00 AM 17.73 63.914 0.116 7.24 5.47 9.07
9/8/2021 5:45:00 AM 17.71 63.878 0.115 7.21 5.15 9.09
9/8/2021 6:00:00 AM 17.68 63.824 0.116 7.26 5.99 9.09
9/8/2021 6:15:00 AM 17.68 63.824 0.115 7.25 5.65 9.09
9/8/2021 6:30:00 AM 17.67 63.806 0.116 7.25 5.06 9.07
9/8/2021 6:45:00 AM 17.67 63.806 0.116 7.3 5.14 9.11
9/8/2021 7:00:00 AM 17.65 63.77 0.115 7.28 5 9.15
9/8/2021 7:15:00 AM 17.66 63.788 0.115 7.29 6.55 9.17
9/8/2021 7:30:00 AM 17.63 63.734 0.116 7.24 5.54 9.08
9/8/2021 7:45:00 AM 17.66 63.788 0.115 7.24 5.35 9.23
9/8/2021 8:00:00 AM 17.67 63.806 0.116 7.3 5.04 9.2
9/8/2021 8:15:00 AM 17.73 63.914 0.115 7.3 4.88 9.32
9/8/2021 8:30:00 AM 17.77 63.986 0.115 7.35 5.24 9.32
9/8/2021 8:45:00 AM 17.79 64.022 0.116 7.33 4.97 9.34
9/8/2021 9:00:00 AM 17.88 64.184 0.115 7.35 4.88 9.39
9/8/2021 9:15:00 AM 17.95 64.31 0.115 7.35 5.11 9.38
9/8/2021 9:30:00 AM 18.02 64.436 0.115 7.4 4.81 9.39
9/8/2021 9:45:00 AM 18.11 64.598 0.115 7.4 4.91 9.36
9/8/2021 10:00:00 AM 18.22 64.796 0.115 7.4 4.99 9.37
9/8/2021 10:15:00 AM 18.33 64.994 0.115 7.4 5.86 9.32
9/8/2021 10:30:00 AM 18.42 65.156 0.115 7.38 5.25 9.33
9/8/2021 10:45:00 AM 18.61 65.498 0.115 7.41 5.01 9.34
9/8/2021 11:00:00 AM 18.73 65.714 0.115 7.4 4.82 9.31
9/8/2021 11:15:00 AM 18.85 65.93 0.116 7.38 4.97 9.27
9/8/2021 11:30:00 AM 19 66.2 0.115 7.42 4.91 9.22
9/8/2021 11:45:00 AM 19.15 66.47 0.116 7.41 5.06 9.24
9/8/2021 12:00:00 PM 19.34 66.812 0.115 7.47 4.87 9.26
9/8/2021 12:15:00 PM 19.32 66.776 0.116 7.39 12.78 9.19
9/8/2021 12:30:00 PM 19.37 66.866 0.115 7.47 5.44 9.19
9/8/2021 12:45:00 PM 19.58 67.244 0.116 7.49 5.02 9.21
9/8/2021 1:00:00 PM 19.66 67.388 0.116 7.47 5.43 9.18
9/8/2021 1:15:00 PM 19.72 67.496 0.115 7.47 5.14 9.15
9/8/2021 1:30:00 PM 19.83 67.694 0.115 7.49 4.95 9.13
9/8/2021 1:45:00 PM 19.9 67.82 0.116 7.49 4.94 9.13
9/8/2021 2:00:00 PM 20 68 0.116 7.47 4.94 9.08
9/8/2021 2:15:00 PM 20.08 68.144 0.116 7.48 4.88 9.12
9/8/2021 2:30:00 PM 20.15 68.27 0.116 7.5 5.36 9.07
9/8/2021 2:45:00 PM 20.17 68.306 0.116 7.48 4.96 9.04
9/8/2021 3:00:00 PM 20.3 68.54 0.116 7.5 4.87 9.05
9/8/2021 3:15:00 PM 20.32 68.576 0.116 7.5 4.91 9.02
9/8/2021 3:30:00 PM 20.32 68.576 0.116 7.51 4.83 8.98
9/8/2021 3:45:00 PM 20.3 68.54 0.116 7.48 4.68 8.96
9/8/2021 4:00:00 PM 20.28 68.504 0.116 7.42 4.75 8.91
9/8/2021 4:15:00 PM 20.27 68.486 0.116 7.44 4.77 8.79
9/8/2021 4:30:00 PM 20.2 68.36 0.117 7.39 4.9 8.68
9/8/2021 4:45:00 PM 20.15 68.27 0.117 7.4 4.86 8.7
9/8/2021 5:00:00 PM 20.07 68.126 0.117 7.38 5.08 8.66
9/8/2021 5:15:00 PM 20 68 0.116 7.39 5.59 8.73
9/8/2021 5:30:00 PM 19.91 67.838 0.116 7.41 5.18 8.72
9/8/2021 5:45:00 PM 19.76 67.568 0.11 7.31 7.36 8.67
9/8/2021 6:00:00 PM 19.7 67.46 0.108 7.32 7.48 8.68
9/8/2021 6:15:00 PM 19.58 67.244 0.109 7.32 7.6 8.66
9/8/2021 6:30:00 PM 19.48 67.064 0.108 7.32 10.69 8.74
9/8/2021 6:45:00 PM 19.44 66.992 0.104 7.34 17.39 8.81
9/8/2021 7:00:00 PM 19.34 66.812 0.104 7.3 13.87 8.81
9/8/2021 7:15:00 PM 19.28 66.704 0.104 7.29 17.92 8.84
9/8/2021 7:30:00 PM 19.24 66.632 0.104 7.3 21.5 8.87
9/8/2021 7:45:00 PM 19.19 66.542 0.101 7.28 27.85 8.88
9/8/2021 8:00:00 PM 19.15 66.47 0.097 7.25 38.43 8.89
9/8/2021 8:15:00 PM 19.17 66.506 0.093 7.25 41.39 8.89
9/8/2021 8:30:00 PM 19.2 66.56 0.084 7.26 46.46 8.89
9/8/2021 8:45:00 PM 19.17 66.506 0.084 7.28 43.36 8.92
9/8/2021 9:00:00 PM 19.1 66.38 0.083 7.25 44.5 8.92
9/8/2021 9:15:00 PM 19.04 66.272 0.083 7.25 45.64 8.94
9/8/2021 9:30:00 PM 18.96 66.128 0.083 7.22 41.26 8.9
9/8/2021 9:45:00 PM 18.93 66.074 0.084 7.23 34.74 8.95
9/8/2021 10:00:00 PM 18.9 66.02 0.085 7.24 33 8.94
9/8/2021 10:15:00 PM 18.88 65.984 0.092 7.24 25.27 8.92
9/8/2021 10:30:00 PM 18.88 65.984 0.094 7.26 19.87 8.96
9/8/2021 10:45:00 PM 18.87 65.966 0.097 7.27 15.86 8.92
9/8/2021 11:00:00 PM 18.89 66.002 0.098 7.28 14.25 8.95
9/8/2021 11:15:00 PM 18.92 66.056 0.1 7.31 13.19 8.96
9/8/2021 11:30:00 PM 18.95 66.11 0.1 7.31 13.18 8.97
9/8/2021 11:45:00 PM 18.98 66.164 0.101 7.3 9.75 8.96
9/9/2021 12:00:00 AM 19.01 66.218 0.102 7.31 10.96 8.95
9/9/2021 12:15:00 AM 19.06 66.308 0.102 7.32 10.12 8.97
9/9/2021 12:30:00 AM 19.09 66.362 0.102 7.3 9.9 8.94
9/9/2021 12:45:00 AM 19.14 66.452 0.102 7.33 9.56 8.95
9/9/2021 1:00:00 AM 19.18 66.524 0.102 7.32 12.79 8.94
9/9/2021 1:15:00 AM 19.21 66.578 0.102 7.34 9.55 8.93
9/9/2021 1:30:00 AM 19.24 66.632 0.102 7.32 9.26 8.92
9/9/2021 1:45:00 AM 19.27 66.686 0.102 7.34 9.38 8.93
9/9/2021 2:00:00 AM 19.27 66.686 0.101 7.34 9.29 8.91
9/9/2021 2:15:00 AM 19.27 66.686 0.101 7.34 9.06 8.92
9/9/2021 2:30:00 AM 19.27 66.686 0.101 7.34 11.77 8.93
9/9/2021 2:45:00 AM 19.27 66.686 0.101 7.33 8.83 8.93
9/9/2021 3:00:00 AM 19.27 66.686 0.101 7.33 20.06 8.9
9/9/2021 3:15:00 AM 19.27 66.686 0.101 7.34 9.27 8.92
9/9/2021 3:30:00 AM 19.27 66.686 0.101 7.31 9.82 8.88
9/9/2021 3:45:00 AM 19.27 66.686 0.101 7.31 8.98 8.88
9/9/2021 4:00:00 AM 19.28 66.704 0.101 7.34 8.79 8.91
9/9/2021 4:15:00 AM 19.26 66.668 0.102 7.29 7.9 8.86
9/9/2021 4:30:00 AM 19.28 66.704 0.101 7.32 8.46 8.91
9/9/2021 4:45:00 AM 19.26 66.668 0.101 7.33 7.81 8.91
9/9/2021 5:00:00 AM 19.22 66.596 0.102 7.3 8.81 8.89
9/9/2021 5:15:00 AM 19.22 66.596 0.102 7.34 9.04 8.89
9/9/2021 5:30:00 AM 19.16 66.488 0.103 7.28 7.72 8.88
9/9/2021 5:45:00 AM 19.15 66.47 0.102 7.33 7.92 8.91
9/9/2021 6:00:00 AM 19.13 66.434 0.102 7.32 7.64 8.91
9/9/2021 6:15:00 AM 19.09 66.362 0.102 7.27 8.13 8.87
9/9/2021 6:30:00 AM 19.1 66.38 0.102 7.35 7.47 8.92
9/9/2021 6:45:00 AM 19.09 66.362 0.102 7.33 7.75 8.93
9/9/2021 7:00:00 AM 19.07 66.326 0.102 7.29 7.8 8.91
9/9/2021 7:15:00 AM 19.05 66.29 0.102 7.29 7.65 8.94
9/9/2021 7:30:00 AM 19.05 66.29 0.101 7.32 7.65 8.95
9/9/2021 7:45:00 AM 19.05 66.29 0.102 7.33 7.81 8.95
9/9/2021 8:00:00 AM 19.05 66.29 0.101 7.36 7.37 8.99
9/9/2021 8:15:00 AM 19.03 66.254 0.102 7.29 14.65 8.98
9/9/2021 8:30:00 AM 19.05 66.29 0.102 7.34 8.42 9.02
9/9/2021 8:45:00 AM 19.07 66.326 0.102 7.36 7.68 9.05
9/9/2021 9:00:00 AM 19.08 66.344 0.102 7.32 7.35 9.02
9/9/2021 9:15:00 AM 19.09 66.362 0.102 7.34 8.13 8.99
9/9/2021 9:30:00 AM 19.1 66.38 0.103 7.29 7.46 8.99
9/9/2021 9:45:00 AM 19.09 66.362 0.103 7.29 7.16 8.97
9/9/2021 10:00:00 AM 19.15 66.47 0.102 7.36 7.08 9.02
9/9/2021 10:15:00 AM 19.17 66.506 0.102 7.29 6.97 9.07
9/9/2021 10:30:00 AM 19.18 66.524 0.103 7.36 7.16 8.99
9/9/2021 10:45:00 AM 19.2 66.56 0.103 7.35 6.97 9
9/9/2021 11:00:00 AM 19.21 66.578 0.102 7.34 7.04 9.02
9/9/2021 11:15:00 AM 19.26 66.668 0.103 7.38 7.2 9.07
9/9/2021 11:30:00 AM 19.32 66.776 0.102 7.39 7.26 9.1
9/9/2021 11:45:00 AM 19.32 66.776 0.103 7.34 6.83 9.1
9/9/2021 12:00:00 PM 19.37 66.866 0.103 7.43 6.81 9.09
9/9/2021 12:15:00 PM 19.37 66.866 0.103 7.34 7.01 9.07
9/9/2021 12:30:00 PM 19.39 66.902 0.103 7.3 6.7 9.06
9/9/2021 12:45:00 PM 19.46 67.028 0.103 7.33 7.28 9.05
9/9/2021 1:00:00 PM 19.55 67.19 0.103 7.41 7.17 9.04
9/9/2021 1:15:00 PM 19.6 67.28 0.103 7.41 6.66 9.05
9/9/2021 1:30:00 PM 19.64 67.352 0.103 7.44 6.73 9.07
9/9/2021 1:45:00 PM 19.68 67.424 0.104 7.38 7.23 9.05
9/9/2021 2:00:00 PM 19.79 67.622 0.103 7.41 6.9 9.12
9/9/2021 2:15:00 PM 19.8 67.64 0.103 7.4 6.9 9.07
9/9/2021 2:30:00 PM 19.78 67.604 0.103 7.35 10.69 8.98
9/9/2021 2:45:00 PM 19.78 67.604 0.104 7.31 7.2 8.9
9/9/2021 3:00:00 PM 19.8 67.64 0.104 7.29 7.18 8.86
9/9/2021 3:15:00 PM 19.8 67.64 0.104 7.29 7.02 8.83
9/9/2021 3:30:00 PM 19.79 67.622 0.104 7.34 14.25 8.84
9/9/2021 3:45:00 PM 19.75 67.55 0.104 7.34 10.58 8.87
9/9/2021 4:00:00 PM 19.72 67.496 0.105 7.27 7.42 8.94
9/9/2021 4:15:00 PM 19.76 67.568 0.104 7.34 7.36 8.95
9/9/2021 4:30:00 PM 19.76 67.568 0.104 7.29 7.45 8.92
9/9/2021 4:45:00 PM 19.79 67.622 0.104 7.39 7.14 8.99
9/9/2021 5:00:00 PM 19.79 67.622 0.104 7.33 7.2 8.96
9/9/2021 5:15:00 PM 19.82 67.676 0.104 7.29 8.53 8.92
9/9/2021 5:30:00 PM 19.75 67.55 0.105 7.16 6.92 8.74
9/9/2021 5:45:00 PM 19.76 67.568 0.104 7.26 9.36 8.83
9/9/2021 6:00:00 PM 19.69 67.442 0.105 7.27 11.69 8.79
9/9/2021 6:15:00 PM 19.63 67.334 0.105 7.14 7.76 8.81
9/9/2021 6:30:00 PM 19.58 67.244 0.105 7.18 8.67 8.73
9/9/2021 6:45:00 PM 19.57 67.226 0.105 7.25 9.12 8.84
9/9/2021 7:00:00 PM 19.52 67.136 0.104 7.23 8.17 8.8
9/9/2021 7:15:00 PM 19.46 67.028 0.105 7.19 7.52 8.78
9/9/2021 7:30:00 PM 19.39 66.902 0.105 7.16 8.16 8.74
9/9/2021 7:45:00 PM 19.33 66.794 0.106 7.16 7.79 8.79
9/9/2021 8:00:00 PM 19.28 66.704 0.106 7.09 7.18 8.78
9/9/2021 8:15:00 PM 19.26 66.668 0.105 7.11 7.47 8.83
9/9/2021 8:30:00 PM 19.22 66.596 0.105 7.24 8.35 8.83
9/9/2021 8:45:00 PM 19.18 66.524 0.106 7.23 7.27 8.79
9/9/2021 9:00:00 PM 19.14 66.452 0.105 7.21 7.13 8.82
9/9/2021 9:15:00 PM 19.08 66.344 0.105 7.13 97.96 8.81
9/9/2021 9:30:00 PM 19.07 66.326 0.105 7.19 8.46 8.86
9/9/2021 9:45:00 PM 19 66.2 0.105 7.12 7.23 8.82
9/9/2021 10:00:00 PM 18.99 66.182 0.105 7.23 7.59 8.9
9/9/2021 10:15:00 PM 18.93 66.074 0.106 7.18 7.67 8.85
9/9/2021 10:30:00 PM 18.9 66.02 0.106 7.19 7.92 8.87
9/9/2021 10:45:00 PM 18.87 65.966 0.106 7.21 7.03 8.91
9/9/2021 11:00:00 PM 18.8 65.84 0.107 7.1 6.46 8.9
9/9/2021 11:15:00 PM 18.78 65.804 0.106 7.12 7 8.92
9/9/2021 11:30:00 PM 18.74 65.732 0.106 7.13 7.09 8.87
9/9/2021 11:45:00 PM 18.76 65.768 0.105 7.2 6.44 8.97
9/10/2021 12:00:00 AM 18.68 65.624 0.106 7.09 6.83 8.9
9/10/2021 12:15:00 AM 18.68 65.624 0.106 7.13 6.99 8.92
9/10/2021 12:30:00 AM 18.68 65.624 0.106 7.11 6.36 8.87
9/10/2021 12:45:00 AM 18.69 65.642 0.105 7.22 6.7 8.97
9/10/2021 1:00:00 AM 18.67 65.606 0.105 7.23 6.71 8.95
9/10/2021 1:15:00 AM 18.58 65.444 0.107 7.06 6.55 8.8
9/10/2021 1:30:00 AM 18.59 65.462 0.106 7.13 6.71 8.94
9/10/2021 1:45:00 AM 18.56 65.408 0.106 7.15 6.55 8.99
9/10/2021 2:00:00 AM 18.52 65.336 0.107 7.14 6.51 8.92
9/10/2021 2:15:00 AM 18.47 65.246 0.107 7.14 7.08 8.92
9/10/2021 2:30:00 AM 18.45 65.21 0.106 7.15 6.31 8.94
9/10/2021 2:45:00 AM 18.39 65.102 0.107 7.1 6.57 8.91
9/10/2021 3:00:00 AM 18.36 65.048 0.107 7.13 6.71 9
9/10/2021 3:15:00 AM 18.37 65.066 0.106 7.22 6.27 9.05
9/10/2021 3:30:00 AM 18.3 64.94 0.106 7.08 6.27 9.04
9/10/2021 3:45:00 AM 18.25 64.85 0.108 7.09 6.91 8.98
9/10/2021 4:00:00 AM 18.23 64.814 0.108 7.12 6.73 9.03
9/10/2021 4:15:00 AM 18.21 64.778 0.107 7.16 6.49 9.05
9/10/2021 4:30:00 AM 18.18 64.724 0.106 7.2 6.91 9.01
9/10/2021 4:45:00 AM 18.12 64.616 0.106 7.13 6.76 9.08
9/10/2021 5:00:00 AM 18.1 64.58 0.107 7.15 6.63 9.04
9/10/2021 5:15:00 AM 18.05 64.49 0.107 7.15 6.54 9.1
9/10/2021 5:30:00 AM 18 64.4 0.108 7.07 6.74 9.06
9/10/2021 5:45:00 AM 17.99 64.382 0.106 7.21 6.41 9.08
9/10/2021 6:00:00 AM 17.94 64.292 0.106 7.13 6.87 9.13
9/10/2021 6:15:00 AM 17.88 64.184 0.106 7.1 6.82 9.14
9/10/2021 6:30:00 AM 17.87 64.166 0.106 7.21 6.52 9.16
9/10/2021 6:45:00 AM 17.8 64.04 0.107 7.05 6.74 9.11
9/10/2021 7:00:00 AM 17.8 64.04 0.106 7.22 6.51 9.18
9/10/2021 7:15:00 AM 17.77 63.986 0.106 7.18 6.58 9.22
9/10/2021 7:30:00 AM 17.76 63.968 0.107 7.21 6.37 9.16
9/10/2021 7:45:00 AM 17.75 63.95 0.106 7.19 6.4 9.23
9/10/2021 8:00:00 AM 17.75 63.95 0.106 7.23 6.56 9.28
9/10/2021 8:15:00 AM 17.74 63.932 0.107 7.23 6.48 9.24
9/10/2021 8:30:00 AM 17.71 63.878 0.107 7.1 6.54 9.17
9/10/2021 8:45:00 AM 17.75 63.95 0.107 7.2 6.61 9.26
9/10/2021 9:00:00 AM 17.78 64.004 0.107 7.26 6.47 9.27
9/10/2021 9:15:00 AM 17.81 64.058 0.107 7.25 6.89 9.34
9/10/2021 9:30:00 AM 17.84 64.112 0.107 7.34 6.42 9.34
9/10/2021 9:45:00 AM 17.83 64.094 0.107 7.28 6.93 9.25
9/10/2021 10:00:00 AM 17.9 64.22 0.107 7.33 8.97 9.35
9/10/2021 10:15:00 AM 17.91 64.238 0.107 7.18 6.09 9.34
9/10/2021 10:30:00 AM 17.99 64.382 0.106 7.29 6.59 9.38
9/10/2021 10:45:00 AM 18.08 64.544 0.107 7.28 6.33 9.26
9/10/2021 11:00:00 AM 18.21 64.778 0.107 7.35 6.24 9.33
9/10/2021 11:15:00 AM 18.27 64.886 0.107 7.39 6.58 9.32
9/10/2021 11:30:00 AM 18.33 64.994 0.107 7.35 6.31 9.37
9/10/2021 11:45:00 AM 18.28 64.904 0.107 7.38 6.45 9.3
9/10/2021 12:00:00 PM 18.44 65.192 0.107 7.36 6.39 9.32
9/10/2021 12:15:00 PM 18.45 65.21 0.107 7.27 6.27 9.31
9/10/2021 12:30:00 PM 18.61 65.498 0.107 7.41 7.63 9.33
9/10/2021 12:45:00 PM 18.63 65.534 0.107 7.42 6.14 9.33
9/10/2021 1:00:00 PM 18.67 65.606 0.107 7.38 8.53 9.3
9/10/2021 1:15:00 PM 18.69 65.642 0.107 7.38 8.87 9.29
9/10/2021 1:30:00 PM 18.74 65.732 0.107 7.38 6.13 9.26
9/10/2021 1:45:00 PM 18.72 65.696 0.107 7.37 6.88 9.25
9/10/2021 2:00:00 PM 18.76 65.768 0.108 7.37 7.24 9.25
9/10/2021 2:15:00 PM 18.83 65.894 0.108 7.41 6.91 9.26
9/10/2021 2:30:00 PM 18.81 65.858 0.108 7.4 5.4 9.23
9/10/2021 2:45:00 PM 18.86 65.948 0.108 7.44 5.28 9.23
9/10/2021 3:00:00 PM 18.89 66.002 0.108 7.38 6.82 9.23
9/10/2021 3:15:00 PM 18.88 65.984 0.108 7.41 6.2 9.17
9/10/2021 3:30:00 PM 18.97 66.146 0.108 7.4 6.2 9.25
9/10/2021 3:45:00 PM 18.99 66.182 0.108 7.4 6.05 9.18
9/10/2021 4:00:00 PM 19.01 66.218 0.109 7.3 5.91 9.16
9/10/2021 4:15:00 PM 18.95 66.11 0.108 7.39 5.95 9.15
9/10/2021 4:30:00 PM 19.02 66.236 0.108 7.35 5.15 9.24
9/10/2021 4:45:00 PM 19.05 66.29 0.108 7.41 226.96 9.14
9/10/2021 5:00:00 PM 19.07 66.326 0.109 7.34 7.9 9.13
9/10/2021 5:15:00 PM 19.11 66.398 0.108 7.43 5.47 9.1
9/10/2021 5:30:00 PM 19.05 66.29 0.109 7.37 5.16 9.04
9/10/2021 5:45:00 PM 19.01 66.218 0.109 7.34 7.67 9.11
9/10/2021 6:00:00 PM 19.01 66.218 0.108 7.38 29.03 9.11
9/10/2021 6:15:00 PM 18.94 66.092 0.109 7.34 5.6 9.03
9/10/2021 6:30:00 PM 18.92 66.056 0.109 7.39 22.45 9.05
9/10/2021 6:45:00 PM 18.85 65.93 0.109 7.34 8.72 9.04
9/10/2021 7:00:00 PM 18.8 65.84 0.109 7.32 6.53 9.02
9/10/2021 7:15:00 PM 18.73 65.714 0.109 7.34 10.61 9.04
9/10/2021 7:30:00 PM 18.64 65.552 0.109 7.3 6.98 9.06
9/10/2021 7:45:00 PM 18.56 65.408 0.109 7.32 6.56 9.03
9/10/2021 8:00:00 PM 18.49 65.282 0.109 7.31 6.55 9.05
9/10/2021 8:15:00 PM 18.39 65.102 0.11 7.22 5.94 9.07
9/10/2021 8:30:00 PM 18.33 64.994 0.11 7.26 7.37 9.08
9/10/2021 8:45:00 PM 18.25 64.85 0.11 7.3 6.05 9.12
9/10/2021 9:00:00 PM 18.18 64.724 0.11 7.29 5.87 9.1
9/10/2021 9:15:00 PM 18.12 64.616 0.11 7.3 5.85 9.15
9/10/2021 9:30:00 PM 18.03 64.454 0.11 7.28 5.79 9.15
9/10/2021 9:45:00 PM 17.97 64.346 0.11 7.28 5.7 9.16
9/10/2021 10:00:00 PM 17.91 64.238 0.11 7.28 6.44 9.16
9/10/2021 10:15:00 PM 17.84 64.112 0.11 7.28 6.24 9.18
9/10/2021 10:30:00 PM 17.78 64.004 0.11 7.29 6.17 9.19
9/10/2021 10:45:00 PM 17.71 63.878 0.11 7.29 6.11 9.21
9/10/2021 11:00:00 PM 17.65 63.77 0.11 7.27 6.18 9.24
9/10/2021 11:15:00 PM 17.57 63.626 0.11 7.26 6.05 9.22
9/10/2021 11:30:00 PM 17.51 63.518 0.11 7.26 6.2 9.25
9/10/2021 11:45:00 PM 17.45 63.41 0.11 7.25 6.05 9.29
9/11/2021 12:00:00 AM 17.4 63.32 0.11 7.25 6 9.28
9/11/2021 12:15:00 AM 17.31 63.158 0.11 7.2 6.26 9.29
9/11/2021 12:30:00 AM 17.27 63.086 0.11 7.27 6.41 9.29
9/11/2021 12:45:00 AM 17.18 62.924 0.111 7.23 6.18 9.3
9/11/2021 1:00:00 AM 17.14 62.852 0.11 7.26 6.12 9.35
9/11/2021 1:15:00 AM 17.04 62.672 0.111 7.22 5.96 9.3
9/11/2021 1:30:00 AM 17.03 62.654 0.11 7.27 6.15 9.4
9/11/2021 1:45:00 AM 16.97 62.546 0.11 7.23 6.12 9.4
9/11/2021 2:00:00 AM 16.93 62.474 0.11 7.24 6.1 9.4
9/11/2021 2:15:00 AM 16.88 62.384 0.111 7.25 7.13 9.37
9/11/2021 2:30:00 AM 16.84 62.312 0.111 7.19 5.88 9.4
9/11/2021 2:45:00 AM 16.78 62.204 0.111 7.25 6 9.41
9/11/2021 3:00:00 AM 16.74 62.132 0.111 7.24 9.44 9.48
9/11/2021 3:15:00 AM 16.69 62.042 0.111 7.21 5.71 9.45
9/11/2021 3:30:00 AM 16.64 61.952 0.111 7.26 6.16 9.48
9/11/2021 3:45:00 AM 16.6 61.88 0.111 7.26 6.02 9.5
9/11/2021 4:00:00 AM 16.54 61.772 0.111 7.26 6.38 9.46
9/11/2021 4:15:00 AM 16.48 61.664 0.111 7.25 5.86 9.49
9/11/2021 4:30:00 AM 16.44 61.592 0.111 7.25 6.28 9.5
9/11/2021 4:45:00 AM 16.39 61.502 0.111 7.25 5.69 9.52
9/11/2021 5:00:00 AM 16.35 61.43 0.111 7.22 5.36 9.53
9/11/2021 5:15:00 AM 16.3 61.34 0.111 7.19 5.47 9.59
9/11/2021 5:30:00 AM 16.27 61.286 0.112 7.23 5.41 9.52
9/11/2021 5:45:00 AM 16.25 61.25 0.111 7.24 5.4 9.55
9/11/2021 6:00:00 AM 16.24 61.232 0.111 7.24 5.33 9.59
9/11/2021 6:15:00 AM 16.22 61.196 0.111 7.22 5.42 9.58
9/11/2021 6:30:00 AM 16.2 61.16 0.111 7.22 5.36 9.59
9/11/2021 6:45:00 AM 16.17 61.106 0.111 7.24 5.39 9.61
9/11/2021 7:00:00 AM 16.13 61.034 0.111 7.14 5.36 9.59
9/11/2021 7:15:00 AM 16.1 60.98 0.112 7.19 5.47 9.63
9/11/2021 7:30:00 AM 16.08 60.944 0.112 7.23 7.05 9.65
9/11/2021 7:45:00 AM 16.09 60.962 0.112 7.26 5.53 9.65
9/11/2021 8:00:00 AM 16.09 60.962 0.111 7.28 5.33 9.72
9/11/2021 8:15:00 AM 16.08 60.944 0.112 7.26 5.41 9.74
9/11/2021 8:30:00 AM 16.09 60.962 0.112 7.28 5.38 9.68
9/11/2021 8:45:00 AM 16.08 60.944 0.112 7.24 5.35 9.76
9/11/2021 9:00:00 AM 16.1 60.98 0.111 7.21 5.65 9.82
9/11/2021 9:15:00 AM 16.12 61.016 0.112 7.28 5.22 9.87
9/11/2021 9:30:00 AM 16.14 61.052 0.112 7.25 5.54 9.85
9/11/2021 9:45:00 AM 16.16 61.088 0.111 7.29 5.58 9.88
9/11/2021 10:00:00 AM 16.18 61.124 0.113 7.19 5.39 9.81
9/11/2021 10:15:00 AM 16.26 61.268 0.112 7.21 5.18 9.81
9/11/2021 10:30:00 AM 16.35 61.43 0.112 7.34 9.92 9.88
9/11/2021 10:45:00 AM 16.44 61.592 0.112 7.32 5.5 9.83
9/11/2021 11:00:00 AM 16.61 61.898 0.111 7.3 5.45 9.85
9/11/2021 11:15:00 AM 16.73 62.114 0.112 7.24 5.29 9.74
9/11/2021 11:30:00 AM 16.93 62.474 0.111 7.37 5.37 9.77
9/11/2021 11:45:00 AM 17.13 62.834 0.112 7.38 5.44 9.78
9/11/2021 12:00:00 PM 17.26 63.068 0.112 7.33 5.39 9.75
9/11/2021 12:15:00 PM 17.43 63.374 0.112 7.33 5.33 9.73
9/11/2021 12:30:00 PM 17.57 63.626 0.112 7.38 5.36 9.72
9/11/2021 12:45:00 PM 17.67 63.806 0.112 7.3 5.29 9.72
9/11/2021 1:00:00 PM 17.73 63.914 0.112 7.25 5.25 9.54
9/11/2021 1:15:00 PM 17.7 63.86 0.112 7.35 5.36 9.61
9/11/2021 1:30:00 PM 17.78 64.004 0.112 7.31 5.32 9.65
9/11/2021 1:45:00 PM 17.82 64.076 0.112 7.31 5.37 9.58
9/11/2021 2:00:00 PM 17.78 64.004 0.112 7.27 5.37 9.72
9/11/2021 2:15:00 PM 18.03 64.454 0.112 7.32 5.25 9.63
9/11/2021 2:30:00 PM 18.24 64.832 0.112 7.38 5.35 9.62
9/11/2021 2:45:00 PM 18.24 64.832 0.113 7.3 5.4 9.57
9/11/2021 3:00:00 PM 18.35 65.03 0.112 7.42 5.34 9.56
9/11/2021 3:15:00 PM 18.48 65.264 0.112 7.34 5.24 9.61
9/11/2021 3:30:00 PM 18.54 65.372 0.112 7.37 5.19 9.58
9/11/2021 3:45:00 PM 18.61 65.498 0.112 7.33 5.16 9.68
9/11/2021 4:00:00 PM 18.7 65.66 0.113 7.4 5.24 9.45
9/11/2021 4:15:00 PM 18.59 65.462 0.113 7.3 5.12 9.35
9/11/2021 4:30:00 PM 18.64 65.552 0.113 7.29 4.81 9.39
9/11/2021 4:45:00 PM 18.68 65.624 0.113 7.33 5 9.37
9/11/2021 5:00:00 PM 18.67 65.606 0.113 7.35 4.89 9.35
9/11/2021 5:15:00 PM 18.66 65.588 0.113 7.3 4.78 9.28
9/11/2021 5:30:00 PM 18.66 65.588 0.113 7.29 4.88 9.24
9/11/2021 5:45:00 PM 18.61 65.498 0.113 7.2 4.95 9.24
9/11/2021 6:00:00 PM 18.62 65.516 0.113 7.24 4.74 9.19
9/11/2021 6:15:00 PM 18.61 65.498 0.113 7.33 4.99 9.17
9/11/2021 6:30:00 PM 18.56 65.408 0.113 7.31 4.82 9.13
9/11/2021 6:45:00 PM 18.5 65.3 0.113 7.25 5.01 9.13
9/11/2021 7:00:00 PM 18.44 65.192 0.113 7.31 8.75 9.12
9/11/2021 7:15:00 PM 18.37 65.066 0.113 7.28 5.17 9.03
9/11/2021 7:30:00 PM 18.29 64.922 0.114 7.2 4.82 8.98
9/11/2021 7:45:00 PM 18.22 64.796 0.114 7.11 4.63 8.96
9/11/2021 8:00:00 PM 18.16 64.688 0.114 7.2 4.97 9.01
9/11/2021 8:15:00 PM 18.11 64.598 0.114 7.23 4.48 9.03
9/11/2021 8:30:00 PM 18.02 64.436 0.114 7.12 4.53 9.05
9/11/2021 8:45:00 PM 17.99 64.382 0.114 7.24 4.68 9.12
9/11/2021 9:00:00 PM 17.91 64.238 0.114 7.19 4.6 9.09
9/11/2021 9:15:00 PM 17.87 64.166 0.114 7.21 4.63 9.08
9/11/2021 9:30:00 PM 17.8 64.04 0.114 7.11 4.43 9.12
9/11/2021 9:45:00 PM 17.77 63.986 0.114 7.24 4.56 9.1
9/11/2021 10:00:00 PM 17.72 63.896 0.114 7.22 4.5 9.14
9/11/2021 10:15:00 PM 17.68 63.824 0.114 7.18 4.47 9.13
9/11/2021 10:30:00 PM 17.63 63.734 0.114 7.25 4.49 9.15
9/11/2021 10:45:00 PM 17.58 63.644 0.114 7.24 4.49 9.14
9/11/2021 11:00:00 PM 17.53 63.554 0.114 7.23 4.53 9.19
9/11/2021 11:15:00 PM 17.5 63.5 0.114 7.18 4.69 9.22
9/11/2021 11:30:00 PM 17.45 63.41 0.114 7.2 4.6 9.18
9/11/2021 11:45:00 PM 17.42 63.356 0.114 7.25 4.74 9.22
9/12/2021 12:00:00 AM 17.39 63.302 0.114 7.22 4.68 9.22
9/12/2021 12:15:00 AM 17.39 63.302 0.114 7.13 4.56 9.15
9/12/2021 12:30:00 AM 17.39 63.302 0.114 7.18 4.56 9.17
9/12/2021 12:45:00 AM 17.43 63.374 0.114 7.25 4.61 9.23
9/12/2021 1:00:00 AM 17.42 63.356 0.114 7.19 4.64 9.19
9/12/2021 1:15:00 AM 17.44 63.392 0.114 7.22 4.57 9.24
9/12/2021 1:30:00 AM 17.42 63.356 0.114 7.23 4.63 9.21
9/12/2021 1:45:00 AM 17.43 63.374 0.114 7.17 4.67 9.24
9/12/2021 2:00:00 AM 17.41 63.338 0.115 7.19 4.49 9.18
9/12/2021 2:15:00 AM 17.42 63.356 0.114 7.22 4.55 9.21
9/12/2021 2:30:00 AM 17.4 63.32 0.114 7.24 4.6 9.23
9/12/2021 2:45:00 AM 17.39 63.302 0.114 7.19 4.54 9.22
9/12/2021 3:00:00 AM 17.4 63.32 0.115 7.22 4.56 9.14
9/12/2021 3:15:00 AM 17.41 63.338 0.114 7.21 4.46 9.2
9/12/2021 3:30:00 AM 17.41 63.338 0.114 7.21 4.48 9.22
9/12/2021 3:45:00 AM 17.35 63.23 0.116 7.18 4.49 9.2
9/12/2021 4:00:00 AM 17.37 63.266 0.115 7.2 4.45 9.19
9/12/2021 4:15:00 AM 17.38 63.284 0.115 7.21 4.53 9.21
9/12/2021 4:30:00 AM 17.36 63.248 0.115 7.25 4.48 9.17
9/12/2021 4:45:00 AM 17.34 63.212 0.115 7.23 4.49 9.17
9/12/2021 5:00:00 AM 17.35 63.23 0.115 7.25 4.56 9.22
9/12/2021 5:15:00 AM 17.35 63.23 0.115 7.19 4.45 9.25
9/12/2021 5:30:00 AM 17.32 63.176 0.116 7.19 4.41 9.11
9/12/2021 5:45:00 AM 17.34 63.212 0.115 7.26 4.56 9.2
9/12/2021 6:00:00 AM 17.31 63.158 0.116 7.15 4.47 9.19
9/12/2021 6:15:00 AM 17.32 63.176 0.115 7.23 4.47 9.25
9/12/2021 6:30:00 AM 17.33 63.194 0.115 7.27 4.53 9.19
9/12/2021 6:45:00 AM 17.32 63.176 0.115 7.24 4.47 9.24
9/12/2021 7:00:00 AM 17.31 63.158 0.115 7.2 5.23 9.17
9/12/2021 7:15:00 AM 17.31 63.158 0.115 7.19 4.39 9.21
9/12/2021 7:30:00 AM 17.34 63.212 0.115 7.19 4.65 9.24
9/12/2021 7:45:00 AM 17.37 63.266 0.115 7.22 4.62 9.31
9/12/2021 8:00:00 AM 17.39 63.302 0.115 7.25 4.36 9.38
9/12/2021 8:15:00 AM 17.44 63.392 0.115 7.27 4.48 9.39
9/12/2021 8:30:00 AM 17.45 63.41 0.115 7.26 4.49 9.39
9/12/2021 8:45:00 AM 17.49 63.482 0.115 7.27 4.47 9.43
9/12/2021 9:00:00 AM 17.54 63.572 0.115 7.31 4.45 9.58
9/12/2021 9:15:00 AM 17.61 63.698 0.115 7.31 4.37 9.54
9/12/2021 9:30:00 AM 17.69 63.842 0.115 7.36 4.42 9.62
9/12/2021 9:45:00 AM 17.75 63.95 0.115 7.36 4.44 9.56
9/12/2021 10:00:00 AM 17.82 64.076 0.115 7.38 4.35 9.64
9/12/2021 10:15:00 AM 17.9 64.22 0.115 7.4 4.42 9.63
9/12/2021 10:30:00 AM 17.94 64.292 0.115 7.38 4.39 9.58
9/12/2021 10:45:00 AM 18.08 64.544 0.115 7.42 4.45 9.6
9/12/2021 11:00:00 AM 18.18 64.724 0.115 7.4 4.44 9.66
9/12/2021 11:15:00 AM 18.3 64.94 0.115 7.43 4.34 9.65
9/12/2021 11:30:00 AM 18.44 65.192 0.115 7.41 4.33 9.72
9/12/2021 11:45:00 AM 18.51 65.318 0.115 7.4 4.43 9.5
9/12/2021 12:00:00 PM 18.47 65.246 0.115 7.4 4.39 9.44
9/12/2021 12:15:00 PM 18.46 65.228 0.115 7.41 4.33 9.39
9/12/2021 12:30:00 PM 18.49 65.282 0.115 7.35 4.45 9.42
9/12/2021 12:45:00 PM 18.57 65.426 0.115 7.43 4.4 9.49
9/12/2021 1:00:00 PM 18.68 65.624 0.115 7.47 4.31 9.58
9/12/2021 1:15:00 PM 18.7 65.66 0.115 7.42 4.33 9.55
9/12/2021 1:30:00 PM 18.71 65.67799 0.115 7.37 4.4 9.53
9/12/2021 1:45:00 PM 18.71 65.67799 0.116 7.37 4.46 9.37
9/12/2021 2:00:00 PM 18.79 65.82201 0.115 7.34 4.35 9.49
9/12/2021 2:15:00 PM 18.86 65.948 0.115 7.39 4.3 9.47
9/12/2021 2:30:00 PM 18.89 66.002 0.115 7.44 4.33 9.41
9/12/2021 2:45:00 PM 18.86 65.948 0.116 7.38 4.29 9.29
9/12/2021 3:00:00 PM 18.92 66.056 0.115 7.36 4.43 9.27
9/12/2021 3:15:00 PM 18.97 66.146 0.115 7.38 4.38 9.31
9/12/2021 3:30:00 PM 19.03 66.254 0.116 7.35 4.45 9.37
9/12/2021 3:45:00 PM 19.14 66.452 0.115 7.43 4.4 9.42
9/12/2021 4:00:00 PM 19.27 66.686 0.115 7.45 4.4 9.43
9/12/2021 4:15:00 PM 19.32 66.776 0.115 7.45 4.37 9.46
9/12/2021 4:30:00 PM 19.32 66.776 0.115 7.44 4.4 9.29
9/12/2021 4:45:00 PM 19.4 66.92 0.116 7.42 4.22 9.4
9/12/2021 5:00:00 PM 19.38 66.884 0.116 7.35 4.36 9.27
9/12/2021 5:15:00 PM 19.46 67.028 0.116 7.41 4.45 9.31
9/12/2021 5:30:00 PM 19.45 67.01 0.116 7.37 4.58 9.22
9/12/2021 5:45:00 PM 19.46 67.028 0.116 7.36 4.31 9.07
9/12/2021 6:00:00 PM 19.46 67.028 0.116 7.38 4.34 9.08
9/12/2021 6:15:00 PM 19.47 67.046 0.116 7.34 4.33 9.05
9/12/2021 6:30:00 PM 19.43 66.974 0.116 7.36 4.37 8.98
9/12/2021 6:45:00 PM 19.39 66.902 0.116 7.33 4.34 8.96
9/12/2021 7:00:00 PM 19.35 66.83 0.116 7.32 4.34 8.92
9/12/2021 7:15:00 PM 19.29 66.722 0.117 7.27 4.45 8.88
9/12/2021 7:30:00 PM 19.24 66.632 0.117 7.23 4.32 8.86
9/12/2021 7:45:00 PM 19.18 66.524 0.117 7.25 4.44 8.82
9/12/2021 8:00:00 PM 19.12 66.416 0.117 7.23 4.42 8.84
9/12/2021 8:15:00 PM 19.07 66.326 0.117 7.23 4.48 8.83
9/12/2021 8:30:00 PM 19.07 66.326 0.117 7.26 4.55 8.83
9/12/2021 8:45:00 PM 19.03 66.254 0.117 7.23 4.98 8.83
9/12/2021 9:00:00 PM 18.99 66.182 0.117 7.23 4.96 8.85
9/12/2021 9:15:00 PM 18.95 66.11 0.117 7.22 6.08 8.87
9/12/2021 9:30:00 PM 18.94 66.092 0.118 7.26 9.11 8.87
9/12/2021 9:45:00 PM 18.92 66.056 0.118 7.26 8.95 8.89
9/12/2021 10:00:00 PM 18.85 65.93 0.118 7.13 12.11 8.83
9/12/2021 10:15:00 PM 18.84 65.912 0.118 7.17 13.15 8.88
9/12/2021 10:30:00 PM 18.85 65.93 0.118 7.22 12.95 8.89
9/12/2021 10:45:00 PM 18.83 65.894 0.118 7.22 13.24 8.88
9/12/2021 11:00:00 PM 18.82 65.876 0.118 7.21 10.72 8.86
9/12/2021 11:15:00 PM 18.79 65.82201 0.118 7.19 12.85 8.89
9/12/2021 11:30:00 PM 18.78 65.804 0.118 7.21 15.11 8.9
9/12/2021 11:45:00 PM 18.77 65.786 0.118 7.23 20.36 8.87
9/13/2021 12:00:00 AM 18.75 65.75 0.118 7.22 21.38 8.84
9/13/2021 12:15:00 AM 18.7 65.66 0.118 7.2 24.25 8.77
9/13/2021 12:30:00 AM 18.72 65.696 0.118 7.23 25.73 8.94
9/13/2021 12:45:00 AM 18.66 65.588 0.118 7.2 27.26 8.92
9/13/2021 1:00:00 AM 18.68 65.624 0.118 7.24 26.65 8.9
9/13/2021 1:15:00 AM 18.64 65.552 0.118 7.19 27.97 8.88
9/13/2021 1:30:00 AM 18.66 65.588 0.118 7.25 22.7 8.91
9/13/2021 1:45:00 AM 18.65 65.57 0.118 7.24 28.73 8.92
9/13/2021 2:00:00 AM 18.64 65.552 0.118 7.22 47.67 8.89
9/13/2021 2:15:00 AM 18.64 65.552 0.118 7.22 39.22 8.93
9/13/2021 2:30:00 AM 18.64 65.552 0.118 7.24 12.67 8.96
9/13/2021 2:45:00 AM 18.61 65.498 0.118 7.2 22.09 8.79
9/13/2021 3:00:00 AM 18.61 65.498 0.118 7.22 22.29 8.9
9/13/2021 3:15:00 AM 18.62 65.516 0.118 7.23 36.31 8.94
9/13/2021 3:30:00 AM 18.63 65.534 0.118 7.25 27.08 8.93
9/13/2021 3:45:00 AM 18.62 65.516 0.118 7.25 15.92 8.86
9/13/2021 4:00:00 AM 18.62 65.516 0.118 7.22 19.06 8.96
9/13/2021 4:15:00 AM 18.59 65.462 0.119 7.24 19.86 8.87
9/13/2021 4:30:00 AM 18.61 65.498 0.118 7.25 21 8.87
9/13/2021 4:45:00 AM 18.58 65.444 0.118 7.23 57.27 8.98
9/13/2021 5:00:00 AM 18.57 65.426 0.118 7.24 18.33 8.91
9/13/2021 5:15:00 AM 18.56 65.408 0.118 7.24 34.13 8.9
9/13/2021 5:30:00 AM 18.55 65.39 0.118 7.25 42.48 8.98
9/13/2021 5:45:00 AM 18.52 65.336 0.119 7.22 39.94 8.94
9/13/2021 6:00:00 AM 18.54 65.372 0.118 7.26 50.46 8.97
9/13/2021 6:15:00 AM 18.51 65.318 0.118 7.26 41.92 8.92
9/13/2021 6:30:00 AM 18.5 65.3 0.118 7.24 43.16 8.94
9/13/2021 6:45:00 AM 18.52 65.336 0.118 7.25 55.12 8.99
9/13/2021 7:00:00 AM 18.51 65.318 0.118 7.22 50.97 8.99
9/13/2021 7:15:00 AM 18.53 65.354 0.118 7.29 72.56 9.04
9/13/2021 7:30:00 AM 18.5 65.3 0.119 7.29 44.32 9.03
9/13/2021 7:45:00 AM 18.51 65.318 0.118 7.32 56.26 9.06
9/13/2021 8:00:00 AM 18.51 65.318 0.118 7.32 50.52 9.09
9/13/2021 8:15:00 AM 18.54 65.372 0.118 7.33 57.45 9.12
9/13/2021 8:30:00 AM 18.56 65.408 0.118 7.33 54.87 9.18
9/13/2021 8:45:00 AM 18.59 65.462 0.118 7.35 56.12 9.23
9/13/2021 9:00:00 AM 18.59 65.462 0.118 7.33 52.81 9.25
9/13/2021 9:15:00 AM 18.62 65.516 0.118 7.35 57.04 9.24
9/13/2021 9:30:00 AM 18.67 65.606 0.118 7.39 86.7 9.3
9/13/2021 9:45:00 AM 18.7 65.66 0.118 7.38 80.92 9.34
9/13/2021 10:00:00 AM 18.7 65.66 0.118 7.38 65.84 9.26
9/13/2021 10:15:00 AM 18.72 65.696 0.118 7.38 73.11 9.26
9/13/2021 10:30:00 AM 18.76 65.768 0.118 7.41 69.49 9.32
9/13/2021 10:45:00 AM 18.76 65.768 0.118 7.38 74.12 9.29
9/13/2021 11:00:00 AM 18.83 65.894 0.118 7.42 63.68 9.38
9/13/2021 11:15:00 AM 18.85 65.93 0.118 7.41 56.04 9.33
9/13/2021 11:30:00 AM 18.9 66.02 0.118 7.45 78.54 9.38
9/13/2021 11:45:00 AM 18.95 66.11 0.118 7.45 89.5 9.44
9/13/2021 12:00:00 PM 19.02 66.236 0.118 7.5 91.32 9.47
9/13/2021 12:15:00 PM 19.06 66.308 0.118 7.52 99.43 9.44
9/13/2021 12:30:00 PM 19.06 66.308 0.118 7.48 51.91 9.38
9/13/2021 12:45:00 PM 19.16 66.488 0.117 7.48 101.89 9.48
9/13/2021 1:00:00 PM 19.27 66.686 0.118 7.53 80.62 9.47
9/13/2021 1:15:00 PM 19.36 66.848 0.117 7.5 84.91 9.46
9/13/2021 1:30:00 PM 19.42 66.956 0.118 7.56 121.18 9.4
9/13/2021 1:45:00 PM 19.52 67.136 0.118 7.56 68.75 9.41
9/13/2021 2:00:00 PM 19.56 67.208 0.118 7.53 87.91 9.41
9/13/2021 2:15:00 PM 19.59 67.262 0.118 7.55 83.12 9.39
9/13/2021 2:30:00 PM 19.61 67.298 0.118 7.56 124.37 9.41
9/13/2021 2:45:00 PM 19.64 67.352 0.118 7.58 97.49 9.36
9/13/2021 3:00:00 PM 19.67 67.406 0.118 7.54 132.14 9.31
9/13/2021 3:15:00 PM 19.72 67.496 0.118 7.57 131.33 9.35
9/13/2021 3:30:00 PM 19.73 67.514 0.118 7.53 98.95 9.32
9/13/2021 3:45:00 PM 19.76 67.568 0.118 7.55 78.26 9.3
9/13/2021 4:00:00 PM 19.76 67.568 0.118 7.51 106.19 9.23
9/13/2021 4:15:00 PM 19.83 67.694 0.118 7.5 104.4 9.27
9/13/2021 4:30:00 PM 19.87 67.766 0.118 7.51 82.98 9.14
9/13/2021 4:45:00 PM 19.87 67.766 0.118 7.48 83.56 9.16
9/13/2021 5:00:00 PM 19.9 67.82 0.118 7.48 97.38 9.15
9/13/2021 5:15:00 PM 19.92 67.856 0.118 7.47 67.9 9.15
9/13/2021 5:30:00 PM 19.87 67.766 0.118 7.45 130.62 9.06
9/13/2021 5:45:00 PM 19.86 67.748 0.119 7.44 72.67 9.06
9/13/2021 6:00:00 PM 19.82 67.676 0.119 7.4 122.11 8.99
9/13/2021 6:15:00 PM 19.78 67.604 0.119 7.41 81.11 8.97
9/13/2021 6:30:00 PM 19.73 67.514 0.119 7.38 86.08 8.89
9/13/2021 6:45:00 PM 19.7 67.46 0.119 7.37 115.23 8.86
9/13/2021 7:00:00 PM 19.69 67.442 0.119 7.35 97.77 8.83
9/13/2021 7:15:00 PM 19.63 67.334 0.119 7.32 125.39 8.78
9/13/2021 7:30:00 PM 19.56 67.208 0.12 7.31 109.95 8.75
9/13/2021 7:45:00 PM 19.54 67.172 0.12 7.33 81.23 8.78
9/13/2021 8:00:00 PM 19.49 67.082 0.12 7.32 127.77 8.79
9/13/2021 8:15:00 PM 19.41 66.938 0.12 7.25 132.24 8.76
9/13/2021 8:30:00 PM 19.38 66.884 0.12 7.25 86.12 8.67
9/13/2021 8:45:00 PM 19.33 66.794 0.12 7.29 118.37 8.74
9/13/2021 9:00:00 PM 19.28 66.704 0.12 7.27 88.41 8.76
9/13/2021 9:15:00 PM 19.24 66.632 0.12 7.28 129.41 8.77
9/13/2021 9:30:00 PM 19.21 66.578 0.12 7.31 120.77 8.82
9/13/2021 9:45:00 PM 19.16 66.488 0.12 7.3 85.66 8.8
9/13/2021 10:00:00 PM 19.12 66.416 0.12 7.29 86.29 8.82
9/13/2021 10:15:00 PM 19.08 66.344 0.12 7.25 61.51 8.79
9/13/2021 10:30:00 PM 19.06 66.308 0.12 7.3 78.83 8.87
9/13/2021 10:45:00 PM 19 66.2 0.12 7.26 100.64 8.79
9/13/2021 11:00:00 PM 18.97 66.146 0.12 7.27 64.95 8.87
9/13/2021 11:15:00 PM 18.92 66.056 0.12 7.28 67.92 8.86
9/13/2021 11:30:00 PM 18.88 65.984 0.12 7.27 101.91 8.86
9/13/2021 11:45:00 PM 18.83 65.894 0.12 7.28 82.31 8.91
9/14/2021 12:00:00 AM 18.77 65.786 0.12 7.26 66.96 8.91
9/14/2021 12:15:00 AM 18.76 65.768 0.12 7.29 78.16 8.92
9/14/2021 12:30:00 AM 18.72 65.696 0.12 7.29 75.5 8.92
9/14/2021 12:45:00 AM 18.68 65.624 0.12 7.26 76.99 8.89
9/14/2021 1:00:00 AM 18.67 65.606 0.12 7.29 119.01 8.96
9/14/2021 1:15:00 AM 18.64 65.552 0.12 7.27 94.69 8.93
9/14/2021 1:30:00 AM 18.61 65.498 0.12 7.24 78.83 8.97
9/14/2021 1:45:00 AM 18.61 65.498 0.12 7.28 83.73 8.93
9/14/2021 2:00:00 AM 18.6 65.48 0.119 7.3 107.27 8.93
9/14/2021 2:15:00 AM 18.58 65.444 0.119 7.29 66.38 8.9
9/14/2021 2:30:00 AM 18.56 65.408 0.119 7.24 79.81 8.97
9/14/2021 2:45:00 AM 18.56 65.408 0.119 7.27 79.01 8.88
9/14/2021 3:00:00 AM 18.55 65.39 0.119 7.27 102.56 8.96
9/14/2021 3:15:00 AM 18.55 65.39 0.119 7.28 81.75 8.97
9/14/2021 3:30:00 AM 18.52 65.336 0.12 7.26 99.47 8.93
9/14/2021 3:45:00 AM 18.52 65.336 0.12 7.28 78.12 8.91
9/14/2021 4:00:00 AM 18.5 65.3 0.12 7.28 90.73 8.97
9/14/2021 4:15:00 AM 18.48 65.264 0.12 7.27 94.19 8.94
9/14/2021 4:30:00 AM 18.46 65.228 0.12 7.26 92.27 8.99
9/14/2021 4:45:00 AM 18.43 65.174 0.12 7.27 81.61 8.92
9/14/2021 5:00:00 AM 18.4 65.12 0.12 7.26 81.8 8.97
9/14/2021 5:15:00 AM 18.38 65.084 0.12 7.26 122.4 9.01
9/14/2021 5:30:00 AM 18.35 65.03 0.12 7.26 89.72 8.94
9/14/2021 5:45:00 AM 18.34 65.012 0.12 7.27 105.88 8.96
9/14/2021 6:00:00 AM 18.3 64.94 0.12 7.26 81.3 8.95
9/14/2021 6:15:00 AM 18.27 64.886 0.12 7.25 94.8 8.95
9/14/2021 6:30:00 AM 18.26 64.868 0.12 7.27 94.63 9.01
9/14/2021 6:45:00 AM 18.21 64.778 0.121 7.26 117.09 8.93
9/14/2021 7:00:00 AM 18.2 64.76 0.12 7.28 92.52 8.97
9/14/2021 7:15:00 AM 18.17 64.706 0.12 7.26 109.53 9
9/14/2021 7:30:00 AM 18.18 64.724 0.12 7.29 129.03 9.07
9/14/2021 7:45:00 AM 18.16 64.688 0.12 7.23 108.94 9.06
9/14/2021 8:00:00 AM 18.17 64.706 0.12 7.28 92.48 9.11
9/14/2021 8:15:00 AM 18.18 64.724 0.12 7.31 104.66 9.12
9/14/2021 8:30:00 AM 18.18 64.724 0.12 7.28 110.76 9.16
9/14/2021 8:45:00 AM 18.2 64.76 0.12 7.3 105.8 9.21
9/14/2021 9:00:00 AM 18.23 64.814 0.12 7.34 88.07 9.3
9/14/2021 9:15:00 AM 18.26 64.868 0.12 7.34 99.47 9.33
9/14/2021 9:30:00 AM 18.27 64.886 0.12 7.34 88.45 9.31
9/14/2021 9:45:00 AM 18.31 64.958 0.12 7.36 99.42 9.32
9/14/2021 10:00:00 AM 18.34 65.012 0.12 7.38 97.73 9.34
9/14/2021 10:15:00 AM 18.38 65.084 0.12 7.4 107.28 9.47
9/14/2021 10:30:00 AM 18.49 65.282 0.119 7.42 106.93 9.56
9/14/2021 10:45:00 AM 18.62 65.516 0.119 7.45 103.17 9.59
9/14/2021 11:00:00 AM 18.75 65.75 0.119 7.47 98.7 9.59
9/14/2021 11:15:00 AM 18.8 65.84 0.119 7.5 119.84 9.61
9/14/2021 11:30:00 AM 18.93 66.074 0.119 7.51 89.64 9.61
9/14/2021 11:45:00 AM 19.12 66.416 0.119 7.54 109.78 9.57
9/14/2021 12:00:00 PM 19.22 66.596 0.119 7.55 124.27 9.55
9/14/2021 12:15:00 PM 19.23 66.614 0.119 7.51 180.08 9.49
9/14/2021 12:30:00 PM 19.26 66.668 0.119 7.54 141.14 9.5
9/14/2021 12:45:00 PM 19.26 66.668 0.119 7.52 110.23 9.43
9/14/2021 1:00:00 PM 19.31 66.758 0.119 7.52 100.88 9.49
9/14/2021 1:15:00 PM 19.45 67.01 0.119 7.48 132.11 9.49
9/14/2021 1:30:00 PM 19.52 67.136 0.119 7.55 101.67 9.44
9/14/2021 1:45:00 PM 19.55 67.19 0.119 7.55 114.65 9.35
9/14/2021 2:00:00 PM 19.66 67.388 0.119 7.54 117.82 9.5
9/14/2021 2:15:00 PM 19.76 67.568 0.119 7.58 105.3 9.47
9/14/2021 2:30:00 PM 19.79 67.622 0.119 7.54 111.12 9.36
9/14/2021 2:45:00 PM 19.85 67.73 0.119 7.54 111.15 9.43
9/14/2021 3:00:00 PM 19.92 67.856 0.119 7.53 100.61 9.41
9/14/2021 3:15:00 PM 19.96 67.92799 0.119 7.54 100.14 9.37
9/14/2021 3:30:00 PM 20 68 0.119 7.51 109.11 9.38
9/14/2021 3:45:00 PM 20.06 68.108 0.119 7.56 124 9.34
9/14/2021 4:00:00 PM 20.1 68.18 0.119 7.54 102.37 9.28
9/14/2021 4:15:00 PM 20.1 68.18 0.119 7.53 105.88 9.2
9/14/2021 4:30:00 PM 20.14 68.252 0.12 7.5 99.69 9.21
9/14/2021 4:45:00 PM 20.16 68.288 0.12 7.49 102.3 9.15
9/14/2021 5:00:00 PM 20.19 68.342 0.12 7.49 110.51 9.09
9/14/2021 5:15:00 PM 20.2 68.36 0.12 7.47 103.35 9.02
9/14/2021 5:30:00 PM 20.19 68.342 0.121 7.44 118.12 8.89
9/14/2021 5:45:00 PM 20.2 68.36 0.121 7.43 107.43 8.92
9/14/2021 6:00:00 PM 20.18 68.324 0.121 7.41 109.8 8.6
9/14/2021 6:15:00 PM 20.15 68.27 0.121 7.36 103 8.84
9/14/2021 6:30:00 PM 20.11 68.198 0.121 7.35 124.46 8.8
9/14/2021 6:45:00 PM 20.08 68.144 0.121 7.34 129.05 8.76
9/14/2021 7:00:00 PM 20.04 68.07201 0.122 7.36 113.02 8.76
9/14/2021 7:15:00 PM 19.96 67.92799 0.122 7.31 100.57 8.7
9/14/2021 7:30:00 PM 19.9 67.82 0.122 7.31 121.63 8.67
9/14/2021 7:45:00 PM 19.79 67.622 0.122 7.28 105.74 8.66
9/14/2021 8:00:00 PM 19.76 67.568 0.122 7.29 124.11 8.68
9/14/2021 8:15:00 PM 19.71 67.478 0.122 7.27 136.45 8.65
9/14/2021 8:30:00 PM 19.64 67.352 0.122 7.26 136.14 8.69
9/14/2021 8:45:00 PM 19.6 67.28 0.122 7.26 135.88 8.68
9/14/2021 9:00:00 PM 19.55 67.19 0.122 7.27 144.75 8.67
9/14/2021 9:15:00 PM 19.48 67.064 0.122 7.25 112.75 8.66
9/14/2021 9:30:00 PM 19.43 66.974 0.122 7.25 117.73 8.57
9/14/2021 9:45:00 PM 19.4 66.92 0.122 7.26 130.64 8.63
9/14/2021 10:00:00 PM 19.38 66.884 0.122 7.29 103.84 8.74
9/14/2021 10:15:00 PM 19.33 66.794 0.122 7.28 114.02 8.75
9/14/2021 10:30:00 PM 19.27 66.686 0.122 7.27 108 8.72
9/14/2021 10:45:00 PM 19.23 66.614 0.122 7.25 106.3 8.76
9/14/2021 11:00:00 PM 19.19 66.542 0.122 7.24 134.5 8.75
9/14/2021 11:15:00 PM 19.16 66.488 0.122 7.27 114.21 8.74
9/14/2021 11:30:00 PM 19.12 66.416 0.122 7.22 103.65 8.77
9/14/2021 11:45:00 PM 19.08 66.344 0.123 7.26 129.77 8.68
9/15/2021 12:00:00 AM 19.03 66.254 0.123 7.24 101.26 8.72
9/15/2021 12:15:00 AM 19.01 66.218 0.122 7.22 104.21 8.76
9/15/2021 12:30:00 AM 18.99 66.182 0.122 7.27 94.76 8.74
9/15/2021 12:45:00 AM 18.96 66.128 0.123 7.26 109.84 8.74
9/15/2021 1:00:00 AM 18.91 66.038 0.123 7.26 126.35 8.77
9/15/2021 1:15:00 AM 18.89 66.002 0.123 7.25 100.7 8.81
9/15/2021 1:30:00 AM 18.88 65.984 0.122 7.25 133.03 8.79
9/15/2021 1:45:00 AM 18.83 65.894 0.123 7.23 166.63 8.73
9/15/2021 2:00:00 AM 18.83 65.894 0.123 7.25 127.33 8.8
9/15/2021 2:15:00 AM 18.8 65.84 0.123 7.23 151.79 8.8
9/15/2021 2:30:00 AM 18.79 65.82201 0.123 7.25 159.77 8.83
9/15/2021 2:45:00 AM 18.79 65.82201 0.123 7.27 119.73 8.86
9/15/2021 3:00:00 AM 18.77 65.786 0.123 7.27 85.04 8.82
9/15/2021 3:15:00 AM 18.77 65.786 0.123 7.27 75.85 8.8
9/15/2021 3:30:00 AM 18.72 65.696 0.123 7.21 111.83 8.86
9/15/2021 3:45:00 AM 18.75 65.75 0.123 7.26 85.69 8.81
9/15/2021 4:00:00 AM 18.7 65.66 0.123 7.23 106.11 8.83
9/15/2021 4:15:00 AM 18.72 65.696 0.123 7.25 90.32 8.84
9/15/2021 4:30:00 AM 18.71 65.67799 0.123 7.25 96.56 8.84
9/15/2021 4:45:00 AM 18.71 65.67799 0.123 7.27 97.67 8.84
9/15/2021 5:00:00 AM 18.7 65.66 0.123 7.24 92.99 8.86
9/15/2021 5:15:00 AM 18.7 65.66 0.123 7.25 92.06 8.83
9/15/2021 5:30:00 AM 18.69 65.642 0.123 7.24 93.82 8.87
9/15/2021 5:45:00 AM 18.75 65.75 0.121 7.23 96.26 8.82
9/15/2021 6:00:00 AM 18.76 65.768 0.121 7.24 102.22 8.78
9/15/2021 6:15:00 AM 18.73 65.714 0.121 7.2 107.3 8.84
9/15/2021 6:30:00 AM 18.72 65.696 0.121 7.19 116.75 8.81
9/15/2021 6:45:00 AM 18.73 65.714 0.12 7.22 114.62 8.81
9/15/2021 7:00:00 AM 18.72 65.696 0.121 7.2 111.39 8.86
9/15/2021 7:15:00 AM 18.73 65.714 0.121 7.2 122.8 8.78
9/15/2021 7:30:00 AM 18.77 65.786 0.121 7.24 119.22 8.91
9/15/2021 7:45:00 AM 18.74 65.732 0.121 7.22 134.32 8.84
9/15/2021 8:00:00 AM 18.78 65.804 0.121 7.23 136.48 8.94
9/15/2021 8:15:00 AM 18.8 65.84 0.12 7.25 133.08 8.96
9/15/2021 8:30:00 AM 18.85 65.93 0.12 7.28 136.15 8.94
9/15/2021 8:45:00 AM 18.9 66.02 0.12 7.31 191.05 9.07
9/15/2021 9:00:00 AM 18.94 66.092 0.12 7.3 153.88 9.08
9/15/2021 9:15:00 AM 18.99 66.182 0.12 7.32 145.69 9.12
9/15/2021 9:30:00 AM 19.05 66.29 0.12 7.29 145.61 9.14
9/15/2021 9:45:00 AM 19.14 66.452 0.12 7.37 151.81 9.13
9/15/2021 10:00:00 AM 19.21 66.578 0.12 7.35 178.97 9.15
9/15/2021 10:15:00 AM 19.32 66.776 0.119 7.37 216.06 9.22
9/15/2021 10:30:00 AM 19.43 66.974 0.119 7.37 184.76 9.26
9/15/2021 10:45:00 AM 19.58 67.244 0.119 7.42 179.84 9.24
9/15/2021 11:00:00 AM 19.76 67.568 0.118 7.4 153.68 9.34
9/15/2021 11:15:00 AM 19.89 67.802 0.118 7.45 166.34 9.35
9/15/2021 11:30:00 AM 19.97 67.946 0.118 7.47 178.03 9.33
9/15/2021 11:45:00 AM 20.08 68.144 0.118 7.39 169.58 9.33
9/15/2021 12:00:00 PM 20.2 68.36 0.117 7.46 197.49 9.34
9/15/2021 12:15:00 PM 20.29 68.522 0.118 7.49 153.51 9.24
9/15/2021 12:30:00 PM 20.46 68.828 0.118 7.5 158.78 9.36
9/15/2021 12:45:00 PM 20.58 69.044 0.118 7.53 155.65 9.36
9/15/2021 1:00:00 PM 20.65 69.17 0.118 7.56 168.04 9.38
9/15/2021 1:15:00 PM 20.67 69.206 0.118 7.49 162.64 9.3
9/15/2021 1:30:00 PM 20.76 69.368 0.118 7.51 173.98 9.23
9/15/2021 1:45:00 PM 20.8 69.44 0.118 7.49 210.81 9.14
9/15/2021 2:00:00 PM 20.74 69.332 0.118 7.47 203.98 8.93
9/15/2021 2:15:00 PM 20.66 69.188 0.118 7.42 195.67 8.8
9/15/2021 2:30:00 PM 20.62 69.116 0.118 7.4 217.95 8.72
9/15/2021 2:45:00 PM 20.6 69.08 0.118 7.36 174.19 8.6
9/15/2021 3:00:00 PM 20.59 69.062 0.118 7.31 214.2 8.65
9/15/2021 3:15:00 PM 20.54 68.972 0.118 7.36 195.72 8.6
9/15/2021 3:30:00 PM 20.48 68.864 0.118 7.33 186.35 8.66
9/15/2021 3:45:00 PM 20.43 68.774 0.118 7.32 207.56 8.65
9/15/2021 4:00:00 PM 20.33 68.594 0.118 7.32 240.71 8.6
9/15/2021 4:15:00 PM 20.24 68.432 0.118 7.32 233.42 8.57
9/15/2021 4:30:00 PM 20.17 68.306 0.118 7.33 211.16 8.62
9/15/2021 4:45:00 PM 20.08 68.144 0.118 7.31 173.6 8.57
9/15/2021 5:00:00 PM 20.03 68.054 0.118 7.29 243.14 8.61
9/15/2021 5:15:00 PM 19.96 67.92799 0.118 7.29 238.36 8.6
9/15/2021 5:30:00 PM 19.93 67.874 0.117 7.3 219.76 8.65
9/15/2021 5:45:00 PM 19.88 67.784 0.117 7.29 247.63 8.66
9/15/2021 6:00:00 PM 19.83 67.694 0.117 7.3 230.24 8.68
9/15/2021 6:15:00 PM 19.78 67.604 0.117 7.28 232.75 8.65
9/15/2021 6:30:00 PM 19.74 67.532 0.117 7.26 258.93 8.71
9/15/2021 6:45:00 PM 19.72 67.496 0.117 7.31 218.79 8.73
9/15/2021 7:00:00 PM 19.66 67.388 0.116 7.28 269.43 8.73
9/15/2021 7:15:00 PM 19.64 67.352 0.116 7.29 261.75 8.7
9/15/2021 7:30:00 PM 19.59 67.262 0.116 7.27 297.21 8.7
9/15/2021 7:45:00 PM 19.56 67.208 0.116 7.23 333.05 8.69
9/15/2021 8:00:00 PM 19.54 67.172 0.116 7.25 244.54 8.7
9/15/2021 8:15:00 PM 19.51 67.118 0.116 7.27 300.83 8.78
9/15/2021 8:30:00 PM 19.49 67.082 0.116 7.27 302.03 8.73
9/15/2021 8:45:00 PM 19.48 67.064 0.116 7.28 299.75 8.7
9/15/2021 9:00:00 PM 19.45 67.01 0.116 7.27 286.44 8.74
9/15/2021 9:15:00 PM 19.44 66.992 0.115 7.29 334.84 8.76
9/15/2021 9:30:00 PM 19.45 67.01 0.114 7.31 339.74 8.73
9/15/2021 9:45:00 PM 19.42 66.956 0.114 7.27 358.3 8.76
9/15/2021 10:00:00 PM 19.38 66.884 0.112 7.24 343.48 8.77
9/15/2021 10:15:00 PM 19.36 66.848 0.112 7.24 324.82 8.77
9/15/2021 10:30:00 PM 19.35 66.83 0.111 7.2 522.8 8.74
9/15/2021 10:45:00 PM 19.33 66.794 0.112 7.22 393.66 8.77
9/15/2021 11:00:00 PM 19.33 66.794 0.112 7.22 403.48 8.77
9/15/2021 11:15:00 PM 19.32 66.776 0.113 7.22 284.12 8.82
9/15/2021 11:30:00 PM 19.33 66.794 0.113 7.26 357.63 8.83
9/15/2021 11:45:00 PM 19.31 66.758 0.112 7.25 281.38 8.83
9/16/2021 12:00:00 AM 19.31 66.758 0.112 7.25 494.32 8.86
9/16/2021 12:15:00 AM 19.32 66.776 0.111 7.29 274.79 8.87
9/16/2021 12:30:00 AM 19.34 66.812 0.111 7.3 330.55 8.88
9/16/2021 12:45:00 AM 19.37 66.866 0.11 7.28 459.83 8.9
9/16/2021 1:00:00 AM 19.4 66.92 0.11 7.3 349.3 8.83
9/16/2021 1:15:00 AM 19.42 66.956 0.109 7.26 912.84 8.86
9/16/2021 1:30:00 AM 19.44 66.992 0.108 7.24 465.49 8.85
9/16/2021 1:45:00 AM 19.45 67.01 0.107 7.28 279.17 8.89
9/16/2021 2:00:00 AM 19.47 67.046 0.105 7.3 496.15 8.91
9/16/2021 2:15:00 AM 19.45 67.01 0.105 7.31 408.77 8.91
9/16/2021 2:30:00 AM 19.44 66.992 0.104 7.34 443.55 8.93
9/16/2021 2:45:00 AM 19.43 66.974 0.104 7.34 254.52 8.92
9/16/2021 3:00:00 AM 19.43 66.974 0.103 7.35 521.24 8.91
9/16/2021 3:15:00 AM 19.43 66.974 0.103 7.33 321.22 8.93
9/16/2021 3:30:00 AM 19.43 66.974 0.102 7.35 234.45 8.95
9/16/2021 3:45:00 AM 19.44 66.992 0.102 7.36 423.1 8.95
9/16/2021 4:00:00 AM 19.43 66.974 0.101 7.36 210 8.95
9/16/2021 4:15:00 AM 19.43 66.974 0.101 7.35 392.97 8.95
9/16/2021 4:30:00 AM 19.43 66.974 0.1 7.34 454.68 8.96
9/16/2021 4:45:00 AM 19.44 66.992 0.1 7.33 321.86 8.95
9/16/2021 5:00:00 AM 19.46 67.028 0.1 7.34 393.79 8.96
9/16/2021 5:15:00 AM 19.48 67.064 0.1 7.35 296.56 8.97
9/16/2021 5:30:00 AM 19.5 67.1 0.1 7.35 323.24 8.95
9/16/2021 5:45:00 AM 19.53 67.154 0.101 7.35 387.05 8.95
9/16/2021 6:00:00 AM 19.57 67.226 0.1 7.36 284.64 8.94
9/16/2021 6:15:00 AM 19.61 67.298 0.101 7.36 422.8 8.95
9/16/2021 6:30:00 AM 19.66 67.388 0.1 7.37 305.03 8.95
9/16/2021 6:45:00 AM 19.69 67.442 0.101 7.35 258.5 8.93
9/16/2021 7:00:00 AM 19.74 67.532 0.1 7.36 356.06 8.94
9/16/2021 7:15:00 AM 19.77 67.586 0.1 7.34 269.65 8.92
9/16/2021 7:30:00 AM 19.8 67.64 0.1 7.35 340.8 8.91
9/16/2021 7:45:00 AM 19.83 67.694 0.1 7.35 126.56 8.93
9/16/2021 8:00:00 AM 19.85 67.73 0.1 7.32 332.75 8.91
9/16/2021 8:15:00 AM 19.89 67.802 0.1 7.33 280.78 8.93
9/16/2021 8:30:00 AM 19.91 67.838 0.1 7.33 196.7 8.93
9/16/2021 8:45:00 AM 19.94 67.892 0.1 7.33 354.94 8.94
9/16/2021 9:00:00 AM 19.96 67.92799 0.1 7.3 328.49 8.95
9/16/2021 9:15:00 AM 20 68 0.1 7.33 346.69 8.95
9/16/2021 9:30:00 AM 20.03 68.054 0.1 7.35 231.11 8.96
9/16/2021 9:45:00 AM 20.05 68.09 0.1 7.3 320.98 8.97
9/16/2021 10:00:00 AM 20.07 68.126 0.1 7.31 115.79 8.97
9/16/2021 10:15:00 AM 20.1 68.18 0.1 7.33 258.07 8.97
9/16/2021 10:30:00 AM 20.13 68.234 0.1 7.34 181.7 8.97
9/16/2021 10:45:00 AM 20.16 68.288 0.1 7.33 293.59 9.01
9/16/2021 11:00:00 AM 20.22 68.396 0.099 7.35 289.14 9.01
9/16/2021 11:15:00 AM 20.26 68.468 0.1 7.37 369.78 9.01
9/16/2021 11:30:00 AM 20.3 68.54 0.099 7.37 196.74 9
9/16/2021 11:45:00 AM 20.32 68.576 0.099 7.37 353.76 8.97
9/16/2021 12:00:00 PM 20.33 68.594 0.1 7.36 310.55 8.94
9/16/2021 12:15:00 PM 20.34 68.612 0.1 7.34 201.33 8.95
9/16/2021 12:30:00 PM 20.36 68.648 0.1 7.36 340.46 8.93
9/16/2021 12:45:00 PM 20.41 68.738 0.1 7.38 212.83 8.99
9/16/2021 1:00:00 PM 20.47 68.846 0.101 7.38 361.61 8.99
9/16/2021 1:15:00 PM 20.5 68.9 0.101 7.38 352.39 8.98
9/16/2021 1:30:00 PM 20.57 69.026 0.101 7.38 292.24 8.96
9/16/2021 1:45:00 PM 20.6 69.08 0.101 7.37 390.59 8.93
9/16/2021 2:00:00 PM 20.67 69.206 0.101 7.38 355.73 8.97
9/16/2021 2:15:00 PM 20.7 69.26 0.101 7.37 348.23 8.95
9/16/2021 2:30:00 PM 20.73 69.314 0.101 7.4 367.98 8.9
9/16/2021 2:45:00 PM 20.76 69.368 0.101 7.38 409.74 8.89
9/16/2021 3:00:00 PM 20.77 69.386 0.101 7.36 449.83 8.88
9/16/2021 3:15:00 PM 20.78 69.404 0.101 7.36 191.68 8.88
9/16/2021 3:30:00 PM 20.81 69.458 0.101 7.35 437.56 8.89
9/16/2021 3:45:00 PM 20.85 69.53 0.102 7.36 347.51 8.89
9/16/2021 4:00:00 PM 20.85 69.53 0.101 7.32 467.99 8.86
9/16/2021 4:15:00 PM 20.91 69.638 0.101 7.34 253.72 8.83
9/16/2021 4:30:00 PM 20.92 69.656 0.101 7.32 422.86 8.78
9/16/2021 4:45:00 PM 20.95 69.71 0.101 7.36 294.96 8.8
9/16/2021 5:00:00 PM 20.93 69.674 0.102 7.33 288.01 8.8
9/16/2021 5:15:00 PM 20.94 69.692 0.101 7.31 448.66 8.74
9/16/2021 5:30:00 PM 20.97 69.746 0.101 7.32 259.39 8.77
9/16/2021 5:45:00 PM 20.97 69.746 0.102 7.31 332.47 8.75
9/16/2021 6:00:00 PM 20.96 69.728 0.102 7.31 501.65 8.73
9/16/2021 6:15:00 PM 20.95 69.71 0.102 7.29 311.91 8.7
9/16/2021 6:30:00 PM 20.98 69.764 0.102 7.32 454.13 8.71
9/16/2021 6:45:00 PM 20.97 69.746 0.102 7.31 229.51 8.69
9/16/2021 7:00:00 PM 20.94 69.692 0.103 7.27 277.11 8.69
9/16/2021 7:15:00 PM 20.92 69.656 0.103 7.3 432.5 8.7
9/16/2021 7:30:00 PM 20.91 69.638 0.103 7.29 288.45 8.7
9/16/2021 7:45:00 PM 20.87 69.566 0.103 7.29 207.69 8.68
9/16/2021 8:00:00 PM 20.85 69.53 0.103 7.27 286.88 8.7
9/16/2021 8:15:00 PM 20.83 69.494 0.103 7.27 255.22 8.69
9/16/2021 8:30:00 PM 20.81 69.458 0.103 7.29 232.67 8.71
9/16/2021 8:45:00 PM 20.78 69.404 0.103 7.28 241.46 8.68
9/16/2021 9:00:00 PM 20.79 69.422 0.103 7.3 255.37 8.74
9/16/2021 9:15:00 PM 20.76 69.368 0.103 7.27 317.12 8.72
9/16/2021 9:30:00 PM 20.78 69.404 0.103 7.32 280.38 8.76
9/16/2021 9:45:00 PM 20.75 69.35 0.103 7.3 470.65 8.74
9/16/2021 10:00:00 PM 20.73 69.314 0.103 7.3 252.42 8.72
9/16/2021 10:15:00 PM 20.72 69.296 0.103 7.31 319.95 8.74
9/16/2021 10:30:00 PM 20.72 69.296 0.103 7.31 303.21 8.73
9/16/2021 10:45:00 PM 20.7 69.26 0.103 7.28 289.28 8.73
9/16/2021 11:00:00 PM 20.71 69.278 0.103 7.29 211.15 8.74
9/16/2021 11:15:00 PM 20.7 69.26 0.103 7.28 342.27 8.74
9/16/2021 11:30:00 PM 20.7 69.26 0.103 7.28 410.24 8.73
9/16/2021 11:45:00 PM 20.69 69.242 0.103 7.29 266.34 8.75
9/17/2021 12:00:00 AM 20.68 69.224 0.103 7.28 269.08 8.74
9/17/2021 12:15:00 AM 20.65 69.17 0.103 7.29 228.4 8.76
9/17/2021 12:30:00 AM 20.64 69.152 0.103 7.3 229.96 8.73
9/17/2021 12:45:00 AM 20.61 69.098 0.103 7.27 384.32 8.76
9/17/2021 1:00:00 AM 20.59 69.062 0.103 7.26 321.96 8.72
9/17/2021 1:15:00 AM 20.58 69.044 0.103 7.27 384.34 8.75
9/17/2021 1:30:00 AM 20.56 69.008 0.103 7.3 263.95 8.78
9/17/2021 1:45:00 AM 20.53 68.954 0.103 7.28 394.05 8.76
9/17/2021 2:00:00 AM 20.53 68.954 0.103 7.3 280.76 8.77
9/17/2021 2:15:00 AM 20.5 68.9 0.103 7.29 307.15 8.77
9/17/2021 2:30:00 AM 20.5 68.9 0.103 7.31 346.69 8.76
9/17/2021 2:45:00 AM 20.48 68.864 0.103 7.29 323.25 8.77
9/17/2021 3:00:00 AM 20.5 68.9 0.103 7.31 403.87 8.78
9/17/2021 3:15:00 AM 20.48 68.864 0.103 7.32 60.97 8.78
9/17/2021 3:30:00 AM 20.49 68.882 0.103 7.31 131.45 8.8
9/17/2021 3:45:00 AM 20.48 68.864 0.103 7.32 106.96 8.78
9/17/2021 4:00:00 AM 20.46 68.828 0.103 7.32 98.27 8.75
9/17/2021 4:15:00 AM 20.48 68.864 0.103 7.33 135.3 8.8
9/17/2021 4:30:00 AM 20.46 68.828 0.103 7.33 116.59 8.78
9/17/2021 4:45:00 AM 20.47 68.846 0.103 7.34 154.22 8.8
9/17/2021 5:00:00 AM 20.46 68.828 0.103 7.33 171.33 8.81
9/17/2021 5:15:00 AM 20.45 68.81 0.103 7.31 166.09 8.79
9/17/2021 5:30:00 AM 20.46 68.828 0.103 7.33 186.74 8.8
9/17/2021 5:45:00 AM 20.45 68.81 0.103 7.33 164 8.8
9/17/2021 6:00:00 AM 20.45 68.81 0.103 7.33 207.88 8.8
9/17/2021 6:15:00 AM 20.43 68.774 0.103 7.33 321.89 8.78
9/17/2021 6:30:00 AM 20.44 68.792 0.103 7.32 246.3 8.82
9/17/2021 6:45:00 AM 20.42 68.756 0.103 7.33 194.09 8.79
9/17/2021 7:00:00 AM 20.42 68.756 0.103 7.32 243.08 8.79
9/17/2021 7:15:00 AM 20.42 68.756 0.103 7.3 619.53 8.8
9/17/2021 7:30:00 AM 20.42 68.756 0.103 7.31 303.16 8.82
9/17/2021 7:45:00 AM 20.43 68.774 0.103 7.31 279.48 8.83
9/17/2021 8:00:00 AM 20.43 68.774 0.103 7.31 270.65 8.8
9/17/2021 8:15:00 AM 20.44 68.792 0.103 7.32 257.73 8.82
9/17/2021 8:30:00 AM 20.44 68.792 0.103 7.31 272.08 8.82
9/17/2021 8:45:00 AM 20.44 68.792 0.103 7.31 273.52 8.83
9/17/2021 9:00:00 AM 20.47 68.846 0.103 7.32 405.05 8.87
9/17/2021 9:15:00 AM 20.46 68.828 0.103 7.32 310.74 8.83
9/17/2021 9:30:00 AM 20.48 68.864 0.103 7.34 312.31 8.87
9/17/2021 9:45:00 AM 20.5 68.9 0.103 7.34 361.51 8.88
9/17/2021 10:00:00 AM 20.51 68.918 0.103 7.35 404.04 8.9
9/17/2021 10:15:00 AM 20.55 68.99 0.103 7.36 324.59 8.91
9/17/2021 10:30:00 AM 20.58 69.044 0.103 7.36 532.93 8.93
9/17/2021 10:45:00 AM 20.59 69.062 0.103 7.38 336.2 8.89
9/17/2021 11:00:00 AM 20.63 69.134 0.103 7.36 341.54 8.93
9/17/2021 11:15:00 AM 20.65 69.17 0.103 7.34 355.45 8.92
9/17/2021 11:30:00 AM 20.67 69.206 0.103 7.38 350.91 8.89
9/17/2021 11:45:00 AM 20.7 69.26 0.103 7.37 420.68 8.97
9/17/2021 12:00:00 PM 20.71 69.278 0.103 7.38 438.17 8.89
9/17/2021 12:15:00 PM 20.77 69.386 0.103 7.36 440.38 9.01
9/17/2021 12:30:00 PM 20.79 69.422 0.103 7.38 485.69 8.95
9/17/2021 12:45:00 PM 20.81 69.458 0.103 7.39 423.38 8.91
9/17/2021 1:00:00 PM 20.86 69.548 0.103 7.39 392.47 8.96
9/17/2021 1:15:00 PM 20.91 69.638 0.103 7.4 387.87 9
9/17/2021 1:30:00 PM 20.88 69.584 0.104 7.44 445.07 8.89
9/17/2021 1:45:00 PM 21 69.8 0.103 7.43 417.77 9.02
9/17/2021 2:00:00 PM 20.99 69.782 0.104 7.44 396.73 8.93
9/17/2021 2:15:00 PM 21.05 69.89 0.103 7.42 422.55 8.92
9/17/2021 2:30:00 PM 21.05 69.89 0.104 7.41 405.49 8.93
9/17/2021 2:45:00 PM 21.09 69.962 0.103 7.4 436.87 8.95
9/17/2021 3:00:00 PM 21.11 69.998 0.104 7.43 448.57 8.9
9/17/2021 3:15:00 PM 21.1 69.98 0.105 7.41 419.09 8.84
9/17/2021 3:30:00 PM 21.19 70.142 0.103 7.41 472.54 8.91
9/17/2021 3:45:00 PM 21.14 70.052 0.104 7.38 589.48 8.84
9/17/2021 4:00:00 PM 21.21 70.17799 0.103 7.36 468.05 8.91
9/17/2021 4:15:00 PM 21.16 70.088 0.105 7.39 453.86 8.75
9/17/2021 4:30:00 PM 21.19 70.142 0.104 7.35 493.3 8.78
9/17/2021 4:45:00 PM 21.2 70.16 0.104 7.36 520.69 8.72
9/17/2021 5:00:00 PM 21.2 70.16 0.105 7.38 460.6 8.69
9/17/2021 5:15:00 PM 21.22 70.196 0.105 7.32 491.95 8.66
9/17/2021 5:30:00 PM 21.25 70.25 0.104 7.35 445.12 8.69
9/17/2021 5:45:00 PM 21.24 70.232 0.104 7.35 556.9 8.65
9/17/2021 6:00:00 PM 21.19 70.142 0.105 7.33 453.66 8.58
9/17/2021 6:15:00 PM 21.17 70.106 0.104 7.34 466.26 8.68
9/17/2021 6:30:00 PM 21.12 70.016 0.105 7.32 497.36 8.66
9/17/2021 6:45:00 PM 21.08 69.944 0.104 7.32 516.39 8.61
9/17/2021 7:00:00 PM 21.07 69.926 0.105 7.31 516.34 8.62
9/17/2021 7:15:00 PM 21.02 69.836 0.105 7.3 565.92 8.54
9/17/2021 7:30:00 PM 21.02 69.836 0.105 7.31 467.27 8.6
9/17/2021 7:45:00 PM 21.02 69.836 0.105 7.3 494.81 8.65
9/17/2021 8:00:00 PM 21.01 69.818 0.105 7.32 523.81 8.65
9/17/2021 8:15:00 PM 20.99 69.782 0.105 7.32 422.49 8.63
9/17/2021 8:30:00 PM 20.95 69.71 0.105 7.29 505.57 8.62
9/17/2021 8:45:00 PM 20.93 69.674 0.105 7.31 488.5 8.62
9/17/2021 9:00:00 PM 20.89 69.602 0.104 7.3 469.84 8.63
9/17/2021 9:15:00 PM 20.84 69.512 0.105 7.29 500.67 8.57
9/17/2021 9:30:00 PM 20.83 69.494 0.104 7.29 440.74 8.63
9/17/2021 9:45:00 PM 20.81 69.458 0.105 7.28 474.25 8.65
9/17/2021 10:00:00 PM 20.78 69.404 0.105 7.28 469.84 8.65
9/17/2021 10:15:00 PM 20.74 69.332 0.105 7.27 486.37 8.65
9/17/2021 10:30:00 PM 20.71 69.278 0.105 7.28 476.79 8.65
9/17/2021 10:45:00 PM 20.64 69.152 0.105 7.28 422.85 8.65
9/17/2021 11:00:00 PM 20.63 69.134 0.105 7.28 428.47 8.64
9/17/2021 11:15:00 PM 20.6 69.08 0.105 7.27 507.71 8.71
9/17/2021 11:30:00 PM 20.56 69.008 0.105 7.26 427.48 8.7
9/17/2021 11:45:00 PM 20.5 68.9 0.105 7.25 420.31 8.65
9/18/2021 12:00:00 AM 20.48 68.864 0.104 7.25 503.56 8.71
9/18/2021 12:15:00 AM 20.43 68.774 0.105 7.25 414.92 8.67
9/18/2021 12:30:00 AM 20.41 68.738 0.105 7.26 491.86 8.74
9/18/2021 12:45:00 AM 20.36 68.648 0.105 7.19 458.21 8.69
9/18/2021 1:00:00 AM 20.34 68.612 0.105 7.22 455.43 8.67
9/18/2021 1:15:00 AM 20.3 68.54 0.106 7.24 407.51 8.71
9/18/2021 1:30:00 AM 20.3 68.54 0.105 7.24 449.64 8.7
9/18/2021 1:45:00 AM 20.26 68.468 0.105 7.24 437.41 8.71
9/18/2021 2:00:00 AM 20.24 68.432 0.105 7.21 430.58 8.76
9/18/2021 2:15:00 AM 20.18 68.324 0.105 7.21 431.41 8.67
9/18/2021 2:30:00 AM 20.18 68.324 0.105 7.19 428.31 8.69
9/18/2021 2:45:00 AM 20.18 68.324 0.105 7.26 469.86 8.74
9/18/2021 3:00:00 AM 20.17 68.306 0.105 7.25 448.27 8.77
9/18/2021 3:15:00 AM 20.06 68.108 0.106 7.22 541.87 8.64
9/18/2021 3:30:00 AM 20.1 68.18 0.105 7.23 427.01 8.73
9/18/2021 3:45:00 AM 20.05 68.09 0.106 7.22 507.69 8.65
9/18/2021 4:00:00 AM 20.06 68.108 0.105 7.2 316.45 8.79
9/18/2021 4:15:00 AM 19.99 67.982 0.107 7.21 322 8.7
9/18/2021 4:30:00 AM 19.99 67.982 0.106 7.22 338.01 8.69
9/18/2021 4:45:00 AM 20 68 0.106 7.23 452.06 8.76
9/18/2021 5:00:00 AM 19.95 67.91 0.106 7.21 341.76 8.69
9/18/2021 5:15:00 AM 19.95 67.91 0.105 7.21 346.61 8.79
9/18/2021 5:30:00 AM 19.93 67.874 0.105 7.19 303.87 8.73
9/18/2021 5:45:00 AM 19.87 67.766 0.106 7.14 372.14 8.71
9/18/2021 6:00:00 AM 19.93 67.874 0.105 7.19 356.61 8.79
9/18/2021 6:15:00 AM 19.88 67.784 0.106 7.14 325.94 8.72
9/18/2021 6:30:00 AM 19.92 67.856 0.105 7.15 331.89 8.79
9/18/2021 6:45:00 AM 19.9 67.82 0.106 7.15 317.79 8.78
9/18/2021 7:00:00 AM 19.86 67.748 0.106 7.08 284.4 8.77
9/18/2021 7:15:00 AM 19.84 67.712 0.107 7.11 148.67 8.74
9/18/2021 7:30:00 AM 19.87 67.766 0.106 7.07 126.92 8.68
9/18/2021 7:45:00 AM 19.88 67.784 0.107 7.15 427.48 8.71
9/18/2021 8:00:00 AM 19.9 67.82 0.106 7.15 9.3 8.82
9/18/2021 8:15:00 AM 19.92 67.856 0.107 7.2 141.18 8.79
9/18/2021 8:30:00 AM 19.96 67.92799 0.106 7.17 54.06 8.88
9/18/2021 8:45:00 AM 19.87 67.766 0.108 7.06 22.51 8.67
9/18/2021 9:00:00 AM 19.97 67.946 0.107 7.19 20.26 8.77
9/18/2021 9:15:00 AM 19.98 67.964 0.107 7.17 19.17 8.83
9/18/2021 9:30:00 AM 20.05 68.09 0.106 7.19 12.43 8.91
9/18/2021 9:45:00 AM 20.08 68.144 0.107 7.2 9.01 8.79
9/18/2021 10:00:00 AM 20.1 68.18 0.108 7.2 62.05 8.83
9/18/2021 10:15:00 AM 20.19 68.342 0.106 7.19 13.4 8.9
9/18/2021 10:30:00 AM 20.22 68.396 0.107 7.19 21.09 8.8
9/18/2021 10:45:00 AM 20.28 68.504 0.108 7.23 15.95 8.88
9/18/2021 11:00:00 AM 20.4 68.72 0.106 7.34 14.04 8.95
9/18/2021 11:15:00 AM 20.44 68.792 0.106 7.29 24.46 8.92
9/18/2021 11:30:00 AM 20.47 68.846 0.107 7.27 17.12 8.9
9/18/2021 11:45:00 AM 20.7 69.26 0.106 7.34 20.13 8.97
9/18/2021 12:00:00 PM 20.77 69.386 0.106 7.29 8.56 8.98
9/18/2021 12:15:00 PM 20.83 69.494 0.106 7.33 13.17 8.97
9/18/2021 12:30:00 PM 20.93 69.674 0.106 7.36 63.56 8.9
9/18/2021 12:45:00 PM 21.02 69.836 0.107 7.37 16.31 8.92
9/18/2021 1:00:00 PM 21.09 69.962 0.106 7.37 8.95 8.92
9/18/2021 1:15:00 PM 21.13 70.034 0.107 7.3 12.47 8.87
9/18/2021 1:30:00 PM 21.22 70.196 0.107 7.39 13.06 8.91
9/18/2021 1:45:00 PM 21.25 70.25 0.107 7.33 19.56 8.91
9/18/2021 2:00:00 PM 21.29 70.32201 0.107 7.34 22.44 8.88
9/18/2021 2:15:00 PM 21.34 70.412 0.107 7.39 17.75 8.84
9/18/2021 2:30:00 PM 21.4 70.52 0.107 7.3 11.39 8.84
9/18/2021 2:45:00 PM 21.43 70.574 0.107 7.35 15.48 8.83
9/18/2021 3:00:00 PM 21.46 70.628 0.108 7.29 10.14 8.78
9/18/2021 3:15:00 PM 21.54 70.772 0.107 7.34 89.91 8.79
9/18/2021 3:30:00 PM 21.55 70.79 0.107 7.33 19.33 8.75
9/18/2021 3:45:00 PM 21.59 70.862 0.107 7.31 96.8 8.73
9/18/2021 4:00:00 PM 21.53 70.754 0.107 7.25 54.51 8.64
9/18/2021 4:15:00 PM 21.53 70.754 0.107 7.28 16.55 8.6
9/18/2021 4:30:00 PM 21.53 70.754 0.107 7.32 9.84 8.7
9/18/2021 4:45:00 PM 21.5 70.7 0.106 7.29 111.06 8.69
9/18/2021 5:00:00 PM 21.51 70.718 0.107 7.24 66.23 8.69
9/18/2021 5:15:00 PM 21.54 70.772 0.107 7.22 14.42 8.6
9/18/2021 5:30:00 PM 21.58 70.844 0.106 7.29 37.71 8.56
9/18/2021 5:45:00 PM 21.57 70.826 0.107 7.25 10.02 8.61
9/18/2021 6:00:00 PM 21.49 70.682 0.108 7.21 87.33 8.42
9/18/2021 6:15:00 PM 21.47 70.646 0.108 7.18 20.06 8.48
9/18/2021 6:30:00 PM 21.48 70.664 0.107 7.27 23.28 8.52
9/18/2021 6:45:00 PM 21.45 70.61 0.107 7.18 56.23 8.48
9/18/2021 7:00:00 PM 21.47 70.646 0.107 7.26 25.3 8.47
9/18/2021 7:15:00 PM 21.44 70.592 0.108 7.22 9.79 8.44
9/18/2021 7:30:00 PM 21.41 70.538 0.108 7.23 15.16 8.48
9/18/2021 7:45:00 PM 21.36 70.448 0.108 7.21 103.8 8.43
9/18/2021 8:00:00 PM 21.31 70.358 0.108 7.2 93.84 8.41
9/18/2021 8:15:00 PM 21.32 70.376 0.108 7.27 99.95 8.5
9/18/2021 8:30:00 PM 21.23 70.214 0.108 7.21 11.2 8.48
9/18/2021 8:45:00 PM 21.2 70.16 0.109 7.21 14.63 8.45
9/18/2021 9:00:00 PM 21.16 70.088 0.108 7.21 10.44 8.46
9/18/2021 9:15:00 PM 21.11 69.998 0.108 7.2 18.56 8.51
9/18/2021 9:30:00 PM 21.09 69.962 0.108 7.23 23.08 8.42
9/18/2021 9:45:00 PM 21.07 69.926 0.108 7.2 11.45 8.52
9/18/2021 10:00:00 PM 20.98 69.764 0.109 7.17 24.25 8.44
9/18/2021 10:15:00 PM 20.95 69.71 0.108 7.13 20.28 8.47
9/18/2021 10:30:00 PM 20.93 69.674 0.108 7.23 18.57 8.57
9/18/2021 10:45:00 PM 20.87 69.566 0.109 7.25 21.7 8.54
9/18/2021 11:00:00 PM 20.84 69.512 0.108 7.26 18.84 8.55
9/18/2021 11:15:00 PM 20.78 69.404 0.108 7.23 19.27 8.55
9/18/2021 11:30:00 PM 20.71 69.278 0.109 7.27 24.96 8.55
9/18/2021 11:45:00 PM 20.66 69.188 0.109 7.25 19.43 8.59
9/19/2021 12:00:00 AM 20.58 69.044 0.109 7.23 17.94 8.53
9/19/2021 12:15:00 AM 20.53 68.954 0.109 7.25 26.71 8.59
9/19/2021 12:30:00 AM 20.46 68.828 0.109 7.24 48.82 8.58
9/19/2021 12:45:00 AM 20.41 68.738 0.109 7.22 21.35 8.67
9/19/2021 1:00:00 AM 20.32 68.576 0.109 7.22 53.35 8.61
9/19/2021 1:15:00 AM 20.22 68.396 0.109 7.2 53.33 8.64
9/19/2021 1:30:00 AM 20.16 68.288 0.109 7.21 43.07 8.66
9/19/2021 1:45:00 AM 20.07 68.126 0.109 7.17 32.15 8.72
9/19/2021 2:00:00 AM 19.98 67.964 0.109 7.19 56.44 8.66
9/19/2021 2:15:00 AM 19.91 67.838 0.11 7.23 86.77 8.69
9/19/2021 2:30:00 AM 19.78 67.604 0.11 7.19 26.9 8.64
9/19/2021 2:45:00 AM 19.76 67.568 0.109 7.24 45.63 8.76
9/19/2021 3:00:00 AM 19.69 67.442 0.109 7.26 94.65 8.81
9/19/2021 3:15:00 AM 19.61 67.298 0.109 7.24 51.63 8.78
9/19/2021 3:30:00 AM 19.55 67.19 0.109 7.22 20.72 8.82
9/19/2021 3:45:00 AM 19.49 67.082 0.109 7.26 21.76 8.8
9/19/2021 4:00:00 AM 19.41 66.938 0.109 7.25 52.77 8.77
9/19/2021 4:15:00 AM 19.36 66.848 0.109 7.26 21.93 8.84
9/19/2021 4:30:00 AM 19.28 66.704 0.109 7.24 24.5 8.82
9/19/2021 4:45:00 AM 19.18 66.524 0.11 7.17 18.7 8.67
9/19/2021 5:00:00 AM 19.13 66.434 0.109 7.22 23.08 8.87
9/19/2021 5:15:00 AM 19.04 66.272 0.11 7.16 18.76 8.79
9/19/2021 5:30:00 AM 18.99 66.182 0.109 7.21 18.95 8.87
9/19/2021 5:45:00 AM 18.92 66.056 0.109 7.19 22.29 8.9
9/19/2021 6:00:00 AM 18.88 65.984 0.109 7.21 21.04 8.93
9/19/2021 6:15:00 AM 18.83 65.894 0.11 7.22 22.06 8.88
9/19/2021 6:30:00 AM 18.78 65.804 0.11 7.19 22.21 8.91
9/19/2021 6:45:00 AM 18.77 65.786 0.109 7.23 25.74 8.95
9/19/2021 7:00:00 AM 18.73 65.714 0.11 7.21 23.07 8.93
9/19/2021 7:15:00 AM 18.73 65.714 0.109 7.21 30.28 8.99
9/19/2021 7:30:00 AM 18.7 65.66 0.11 7.23 22.54 8.99
9/19/2021 7:45:00 AM 18.67 65.606 0.11 7.22 38.99 9.04
9/19/2021 8:00:00 AM 18.68 65.624 0.109 7.27 21.04 9.06
9/19/2021 8:15:00 AM 18.67 65.606 0.109 7.26 22.26 9.11
9/19/2021 8:30:00 AM 18.65 65.57 0.11 7.23 24.23 9.09
9/19/2021 8:45:00 AM 18.62 65.516 0.11 7.24 21.08 9.12
9/19/2021 9:00:00 AM 18.62 65.516 0.11 7.25 36.33 9.09
9/19/2021 9:15:00 AM 18.62 65.516 0.109 7.32 22.05 9.16
9/19/2021 9:30:00 AM 18.58 65.444 0.11 7.27 24.75 9.1
9/19/2021 9:45:00 AM 18.6 65.48 0.109 7.3 25.29 9.1
9/19/2021 10:00:00 AM 18.64 65.552 0.11 7.31 37.91 9.13
9/19/2021 10:15:00 AM 18.7 65.66 0.109 7.31 24.04 9.19
9/19/2021 10:30:00 AM 18.79 65.82201 0.109 7.32 27.93 9.24
9/19/2021 10:45:00 AM 18.84 65.912 0.11 7.3 25.88 9.22
9/19/2021 11:00:00 AM 18.96 66.128 0.109 7.35 34.32 9.3
9/19/2021 11:15:00 AM 19.05 66.29 0.109 7.36 28.98 9.28
9/19/2021 11:30:00 AM 19.15 66.47 0.11 7.38 29.1 9.27
9/19/2021 11:45:00 AM 19.24 66.632 0.109 7.39 27.96 9.26
9/19/2021 12:00:00 PM 19.3 66.74 0.11 7.37 26.38 9.24
9/19/2021 12:15:00 PM 19.37 66.866 0.11 7.35 26.48 9.24
9/19/2021 12:30:00 PM 19.41 66.938 0.11 7.38 27.34 9.24
9/19/2021 12:45:00 PM 19.43 66.974 0.11 7.34 30.02 9.23
9/19/2021 1:00:00 PM 19.46 67.028 0.111 7.4 30.77 9.19
9/19/2021 1:15:00 PM 19.46 67.028 0.112 7.32 27.23 9.07
9/19/2021 1:30:00 PM 19.53 67.154 0.112 7.39 27.81 9.2
9/19/2021 1:45:00 PM 19.57 67.226 0.112 7.34 27.17 9.17
9/19/2021 2:00:00 PM 19.58 67.244 0.112 7.25 29.55 9.18
9/19/2021 2:15:00 PM 19.63 67.334 0.112 7.34 16.07 9.14
9/19/2021 2:30:00 PM 19.7 67.46 0.112 7.32 15.82 9.2
9/19/2021 2:45:00 PM 19.76 67.568 0.112 7.36 15.6 9.14
9/19/2021 3:00:00 PM 19.82 67.676 0.112 7.34 16.01 9.19
9/19/2021 3:15:00 PM 19.84 67.712 0.112 7.39 20.95 9.08
9/19/2021 3:30:00 PM 19.84 67.712 0.113 7.39 17.86 9.07
9/19/2021 3:45:00 PM 19.88 67.784 0.112 7.35 15.59 9.05
9/19/2021 4:00:00 PM 19.9 67.82 0.112 7.39 15.2 9.03
9/19/2021 4:15:00 PM 19.85 67.73 0.112 7.33 14.95 8.94
9/19/2021 4:30:00 PM 19.86 67.748 0.112 7.34 17.27 8.94
9/19/2021 4:45:00 PM 19.83 67.694 0.113 7.33 16.57 8.85
9/19/2021 5:00:00 PM 19.81 67.658 0.113 7.29 16 8.79
9/19/2021 5:15:00 PM 19.85 67.73 0.112 7.32 15.1 8.86
9/19/2021 5:30:00 PM 19.79 67.622 0.113 7.26 16.44 8.85
9/19/2021 5:45:00 PM 19.75 67.55 0.113 7.28 17.37 8.82
9/19/2021 6:00:00 PM 19.73 67.514 0.112 7.26 17.67 8.88
9/19/2021 6:15:00 PM 19.68 67.424 0.113 7.3 16.38 8.82
9/19/2021 6:30:00 PM 19.6 67.28 0.113 7.28 17.5 8.84
9/19/2021 6:45:00 PM 19.54 67.172 0.113 7.29 16.32 8.83
9/19/2021 7:00:00 PM 19.44 66.992 0.113 7.27 17.78 8.8
9/19/2021 7:15:00 PM 19.34 66.812 0.114 7.19 16.33 8.79
9/19/2021 7:30:00 PM 19.27 66.686 0.113 7.23 13.44 8.82
9/19/2021 7:45:00 PM 19.19 66.542 0.113 7.24 14.42 8.85
9/19/2021 8:00:00 PM 19.12 66.416 0.113 7.26 16.11 8.86
9/19/2021 8:15:00 PM 19.01 66.218 0.113 7.21 15.61 8.85
9/19/2021 8:30:00 PM 18.94 66.092 0.113 7.22 17.41 8.87
9/19/2021 8:45:00 PM 18.88 65.984 0.112 7.22 19.9 8.9
9/19/2021 9:00:00 PM 18.78 65.804 0.113 7.22 19.06 8.83
9/19/2021 9:15:00 PM 18.75 65.75 0.113 7.24 21.79 8.9
9/19/2021 9:30:00 PM 18.68 65.624 0.112 7.24 21.16 8.93
9/19/2021 9:45:00 PM 18.61 65.498 0.112 7.23 24.21 8.94
9/19/2021 10:00:00 PM 18.49 65.282 0.113 7.07 34.42 8.9
9/19/2021 10:15:00 PM 18.43 65.174 0.113 7.07 32.88 8.89
9/19/2021 10:30:00 PM 18.38 65.084 0.112 7.15 36.32 8.93
9/19/2021 10:45:00 PM 18.31 64.958 0.112 7.1 35.67 8.95
9/19/2021 11:00:00 PM 18.25 64.85 0.112 7.13 39.84 9.03
9/19/2021 11:15:00 PM 18.18 64.724 0.112 7.16 36.75 9.03
9/19/2021 11:30:00 PM 18.11 64.598 0.112 7.16 34.82 9.02
9/19/2021 11:45:00 PM 18.05 64.49 0.112 7.18 22.93 9.09
9/20/2021 12:00:00 AM 17.99 64.382 0.112 7.2 38.57 9.07
9/20/2021 12:15:00 AM 17.91 64.238 0.112 7.18 36.13 9.06
9/20/2021 12:30:00 AM 17.81 64.058 0.114 7.14 41.25 8.99
9/20/2021 12:45:00 AM 17.76 63.968 0.113 7.09 37.4 9.04
9/20/2021 1:00:00 AM 17.69 63.842 0.113 7.15 50 9.07
9/20/2021 1:15:00 AM 17.64 63.752 0.112 7.15 54.72 9.15
9/20/2021 1:30:00 AM 17.6 63.68 0.113 7.15 50.64 9.16
9/20/2021 1:45:00 AM 17.54 63.572 0.112 7.12 39.76 9.17
9/20/2021 2:00:00 AM 17.45 63.41 0.113 7.13 46.7 9.13
9/20/2021 2:15:00 AM 17.37 63.266 0.113 7.06 53.5 9.03
9/20/2021 2:30:00 AM 17.34 63.212 0.113 7.14 56.23 9.18
9/20/2021 2:45:00 AM 17.27 63.086 0.113 7.04 54.56 9.13
9/20/2021 3:00:00 AM 17.24 63.032 0.113 7.07 51.25 9.18
9/20/2021 3:15:00 AM 17.2 62.96 0.113 7.1 41.38 9.06
9/20/2021 3:30:00 AM 17.14 62.852 0.113 7.1 37.7 9.23
9/20/2021 3:45:00 AM 17.11 62.798 0.113 7.16 60.66 9.26
9/20/2021 4:00:00 AM 17.06 62.708 0.114 7.17 40.99 9.11
9/20/2021 4:15:00 AM 17.03 62.654 0.113 7.09 50.55 9.21
9/20/2021 4:30:00 AM 17.03 62.654 0.112 7.13 65.85 9.31
9/20/2021 4:45:00 AM 16.98 62.564 0.113 7.09 47.23 9.26
9/20/2021 5:00:00 AM 16.93 62.474 0.113 7.15 42.92 9.23
9/20/2021 5:15:00 AM 16.91 62.438 0.113 7.17 52.45 9.31
9/20/2021 5:30:00 AM 16.87 62.366 0.113 7.12 68.29 9.32
9/20/2021 5:45:00 AM 16.82 62.276 0.113 7.09 37.15 9.18
9/20/2021 6:00:00 AM 16.77 62.186 0.113 7.16 69.43 9.29
9/20/2021 6:15:00 AM 16.71 62.078 0.114 7.05 71.12 9.18
9/20/2021 6:30:00 AM 16.66 61.988 0.114 7.02 73.59 9.26
9/20/2021 6:45:00 AM 16.65 61.97 0.113 7.1 70.36 9.34
9/20/2021 7:00:00 AM 16.61 61.898 0.113 7.13 72.46 9.34
9/20/2021 7:15:00 AM 16.59 61.862 0.113 7.09 87.56 9.32
9/20/2021 7:30:00 AM 16.55 61.79 0.113 7.08 83.79 9.42
9/20/2021 7:45:00 AM 16.54 61.772 0.113 7.16 80.34 9.46
9/20/2021 8:00:00 AM 16.53 61.754 0.113 7.21 79.32 9.43
9/20/2021 8:15:00 AM 16.53 61.754 0.113 7.22 81.89 9.49
9/20/2021 8:30:00 AM 16.52 61.736 0.114 7.14 76.57 9.48
9/20/2021 8:45:00 AM 16.52 61.736 0.113 7.22 92.54 9.59
9/20/2021 9:00:00 AM 16.54 61.772 0.113 7.11 78.41 9.69
9/20/2021 9:15:00 AM 16.58 61.844 0.113 7.25 78.41 9.72
9/20/2021 9:30:00 AM 16.57 61.826 0.113 7.23 77.2 9.6
9/20/2021 9:45:00 AM 16.61 61.898 0.113 7.28 79.34 9.62
9/20/2021 10:00:00 AM 16.65 61.97 0.114 7.28 78.91 9.44
9/20/2021 10:15:00 AM 16.76 62.168 0.113 7.25 81.49 9.59
9/20/2021 10:30:00 AM 16.87 62.366 0.113 7.25 82.65 9.65
9/20/2021 10:45:00 AM 17.04 62.672 0.113 7.28 79.71 9.66
9/20/2021 11:00:00 AM 17.17 62.906 0.113 7.33 85.49 9.58
9/20/2021 11:15:00 AM 17.37 63.266 0.113 7.32 79.8 9.62
9/20/2021 11:30:00 AM 17.57 63.626 0.113 7.33 85.84 9.63
9/20/2021 11:45:00 AM 17.75 63.95 0.113 7.3 80.71 9.67
9/20/2021 12:00:00 PM 17.92 64.256 0.113 7.41 87.08 9.6
9/20/2021 12:15:00 PM 18.05 64.49 0.113 7.38 85.36 9.55
9/20/2021 12:30:00 PM 18.14 64.652 0.113 7.34 84.72 9.61
9/20/2021 12:45:00 PM 18.33 64.994 0.094 7.56 8.23 9.58
9/20/2021 1:00:00 PM 18.42 65.156 0.102 7.61 4.81 9.67
9/20/2021 1:15:00 PM 18.55 65.39 0.1 7.7 4.35 9.68
9/20/2021 1:30:00 PM 18.6 65.48 0.1 7.58 3.89 9.57
9/20/2021 1:45:00 PM 18.65 65.57 0.102 7.38 3.78 9.49
9/20/2021 2:00:00 PM 18.79 65.82201 0.1 7.63 3.75 9.54
9/20/2021 2:15:00 PM 18.86 65.948 0.099 7.47 3.99 9.5
9/20/2021 2:30:00 PM 18.97 66.146 0.099 7.69 3.93 9.59
9/20/2021 2:45:00 PM 18.99 66.182 0.105 7.64 3.69 9.55
9/20/2021 3:00:00 PM 19.09 66.362 0.099 7.63 3.66 9.56
9/20/2021 3:15:00 PM 19.18 66.524 0.099 7.68 3.65 9.52
9/20/2021 3:30:00 PM 19.22 66.596 0.098 7.68 3.72 9.49
9/20/2021 3:45:00 PM 19.15 66.47 0.097 7.37 3.71 9.22
9/20/2021 4:00:00 PM 19.15 66.47 0.101 7.49 3.64 9.27
9/20/2021 4:15:00 PM 19.15 66.47 0.099 7.56 3.79 9.28
9/20/2021 4:30:00 PM 19.18 66.524 0.1 7.56 3.6 9.28
9/20/2021 4:45:00 PM 19.19 66.542 0.099 7.57 3.64 9.18
9/20/2021 5:00:00 PM 19.18 66.524 0.098 7.43 3.65 9.18
9/20/2021 5:15:00 PM 19.21 66.578 0.098 7.56 3.75 9.19
9/20/2021 5:30:00 PM 19.23 66.614 0.099 7.52 3.5 9.24
9/20/2021 5:45:00 PM 19.19 66.542 0.1 7.48 3.54 9.1
9/20/2021 6:00:00 PM 19.16 66.488 0.099 7.42 3.49 9.04
9/20/2021 6:15:00 PM 19.11 66.398 0.099 7.41 3.39 8.93
9/20/2021 6:30:00 PM 19.09 66.362 0.1 7.51 3.44 8.99
9/20/2021 6:45:00 PM 19.03 66.254 0.099 7.48 3.57 8.96
9/20/2021 7:00:00 PM 18.96 66.128 0.099 7.49 3.52 8.96
9/20/2021 7:15:00 PM 18.86 65.948 0.098 7.37 3.65 8.9
9/20/2021 7:30:00 PM 18.74 65.732 0.098 7.23 3.71 8.83
9/20/2021 7:45:00 PM 18.73 65.714 0.098 7.39 3.71 8.87
9/20/2021 8:00:00 PM 18.64 65.552 0.099 7.25 3.67 8.69
9/20/2021 8:15:00 PM 18.58 65.444 0.099 7.34 3.55 8.8
9/20/2021 8:30:00 PM 18.56 65.408 0.1 7.45 3.77 8.94
9/20/2021 8:45:00 PM 18.47 65.246 0.101 7.33 3.6 8.85
9/20/2021 9:00:00 PM 18.44 65.192 0.099 7.39 3.65 8.98
9/20/2021 9:15:00 PM 18.35 65.03 0.101 7.33 3.49 8.9
9/20/2021 9:30:00 PM 18.3 64.94 0.099 7.38 3.63 8.89
9/20/2021 9:45:00 PM 18.22 64.796 0.102 7.31 3.66 8.95
9/20/2021 10:00:00 PM 18.17 64.706 0.1 7.39 3.58 9.02
9/20/2021 10:15:00 PM 18.16 64.688 0.101 7.47 3.62 9.06
9/20/2021 10:30:00 PM 18.08 64.544 0.098 7.44 3.72 9.06
9/20/2021 10:45:00 PM 17.99 64.382 0.101 7.38 3.58 8.98
9/20/2021 11:00:00 PM 17.97 64.346 0.098 7.42 3.55 9.04
9/20/2021 11:15:00 PM 17.94 64.292 0.101 7.4 3.6 9.03
9/20/2021 11:30:00 PM 17.91 64.238 0.099 7.44 3.51 9.09
9/20/2021 11:45:00 PM 17.88 64.184 0.101 7.3 3.52 9.06
9/21/2021 12:00:00 AM 17.84 64.112 0.099 7.39 3.44 9.1
9/21/2021 12:15:00 AM 17.82 64.076 0.101 7.38 3.67 9.1
9/21/2021 12:30:00 AM 17.78 64.004 0.099 7.35 3.47 9.05
9/21/2021 12:45:00 AM 17.76 63.968 0.108 7.36 3.48 9.09
9/21/2021 1:00:00 AM 17.75 63.95 0.098 7.45 3.52 9.13
9/21/2021 1:15:00 AM 17.72 63.896 0.107 7.46 3.49 9.1
9/21/2021 1:30:00 AM 17.66 63.788 0.099 7.42 3.68 9.04
9/21/2021 1:45:00 AM 17.64 63.752 0.101 7.25 3.46 9.13
9/21/2021 2:00:00 AM 17.61 63.698 0.108 7.39 3.43 9.16
9/21/2021 2:15:00 AM 17.54 63.572 0.102 7.14 3.38 8.89
9/21/2021 2:30:00 AM 17.6 63.68 0.099 7.44 3.54 9.19
9/21/2021 2:45:00 AM 17.49 63.482 0.102 7.29 3.49 9.15
9/21/2021 3:00:00 AM 17.5 63.5 0.108 7.44 3.3 9.19
9/21/2021 3:15:00 AM 17.48 63.464 0.101 7.44 3.4 9.18
9/21/2021 3:30:00 AM 17.45 63.41 0.099 7.43 3.56 9.18
9/21/2021 3:45:00 AM 17.4 63.32 0.101 7.36 3.5 9.14
9/21/2021 4:00:00 AM 17.39 63.302 0.099 7.3 3.35 9.13
9/21/2021 4:15:00 AM 17.35 63.23 0.101 7.3 3.59 9.07
9/21/2021 4:30:00 AM 17.34 63.212 0.1 7.44 3.54 9.18
9/21/2021 4:45:00 AM 17.29 63.122 0.098 7.27 3.49 9.09
9/21/2021 5:00:00 AM 17.25 63.05 0.102 7.4 3.58 9.19
9/21/2021 5:15:00 AM 17.24 63.032 0.1 7.47 3.47 9.23
9/21/2021 5:30:00 AM 17.18 62.924 0.101 7.4 3.36 9.03
9/21/2021 5:45:00 AM 17.16 62.888 0.099 7.47 3.61 9.2
9/21/2021 6:00:00 AM 17.12 62.816 0.098 7.22 3.62 9.21
9/21/2021 6:15:00 AM 17.05 62.69 0.102 7.28 3.53 9.14
9/21/2021 6:30:00 AM 16.99 62.582 0.099 7.28 3.33 9.13
9/21/2021 6:45:00 AM 16.96 62.528 0.102 7.24 3.52 9.12
9/21/2021 7:00:00 AM 16.93 62.474 0.1 7.44 3.45 9.27
9/21/2021 7:15:00 AM 16.88 62.384 0.102 7.14 3.38 9.24
9/21/2021 7:30:00 AM 16.88 62.384 0.101 7.47 3.57 9.39
9/21/2021 7:45:00 AM 16.83 62.294 0.1 7.26 3.37 9.29
9/21/2021 8:00:00 AM 16.84 62.312 0.102 7.47 3.63 9.43
9/21/2021 8:15:00 AM 16.81 62.258 0.109 7.34 3.29 9.39
9/21/2021 8:30:00 AM 16.86 62.348 0.102 7.5 3.46 9.5
9/21/2021 8:45:00 AM 16.85 62.33 0.101 7.27 3.32 9.49
9/21/2021 9:00:00 AM 16.9 62.42 0.098 7.42 3.5 9.51
9/21/2021 9:15:00 AM 16.92 62.456 0.101 7.36 3.41 9.54
9/21/2021 9:30:00 AM 16.98 62.564 0.1 7.41 3.43 9.58
9/21/2021 9:45:00 AM 17.07 62.726 0.108 7.52 3.25 9.75
9/21/2021 10:00:00 AM 17.22 62.996 0.108 7.65 3.29 9.9
9/21/2021 10:15:00 AM 17.32 63.176 0.101 7.62 3.45 9.91
9/21/2021 10:30:00 AM 17.44 63.392 0.101 7.57 3.43 9.93
9/21/2021 10:45:00 AM 17.61 63.698 0.098 7.7 3.29 9.96
9/21/2021 11:00:00 AM 17.75 63.95 0.097 7.73 3.5 9.97
9/21/2021 11:15:00 AM 17.74 63.932 0.102 7.66 3.42 9.81
9/21/2021 11:30:00 AM 17.78 64.004 0.1 7.6 3.42 9.83
9/21/2021 11:45:00 AM 18.03 64.454 0.102 7.69 3.38 9.85
9/21/2021 12:00:00 PM 18.2 64.76 0.1 7.76 3.4 9.89
9/21/2021 12:15:00 PM 18.16 64.688 0.099 7.65 3.38 9.79
9/21/2021 12:30:00 PM 18.2 64.76 0.102 7.72 3.29 9.86
9/21/2021 12:45:00 PM 18.31 64.958 0.1 7.71 3.3 9.8
9/21/2021 1:00:00 PM 18.37 65.066 0.102 7.78 3.34 9.8
9/21/2021 1:15:00 PM 18.33 64.994 0.101 7.61 3.79 9.62
9/21/2021 1:30:00 PM 18.38 65.084 0.102 7.67 3.4 9.71
9/21/2021 1:45:00 PM 18.41 65.138 0.1 7.69 3.36 9.61
9/21/2021 2:00:00 PM 18.31 64.958 0.103 7.48 3.26 9.4
9/21/2021 2:15:00 PM 18.4 65.12 0.109 7.66 3.36 9.52
9/21/2021 2:30:00 PM 18.48 65.264 0.102 7.52 3.4 9.73
9/21/2021 2:45:00 PM 18.52 65.336 0.101 7.6 3.25 9.65
9/21/2021 3:00:00 PM 18.59 65.462 0.103 7.76 3.34 9.68
9/21/2021 3:15:00 PM 18.61 65.498 0.101 7.72 3.29 9.65
9/21/2021 3:30:00 PM 18.61 65.498 0.103 7.69 3.3 9.55
9/21/2021 3:45:00 PM 18.64 65.552 0.109 7.68 3.18 9.6
9/21/2021 4:00:00 PM 18.67 65.606 0.102 7.69 3.32 9.58
9/21/2021 4:15:00 PM 18.65 65.57 0.101 7.65 3.33 9.55
9/21/2021 4:30:00 PM 18.67 65.606 0.103 7.69 3.3 9.46
9/21/2021 4:45:00 PM 18.62 65.516 0.101 7.49 3.5 9.36
9/21/2021 5:00:00 PM 18.66 65.588 0.109 7.58 3.1 9.42
9/21/2021 5:15:00 PM 18.71 65.67799 0.101 7.7 3.31 9.39
9/21/2021 5:30:00 PM 18.69 65.642 0.103 7.67 3.3 9.36
9/21/2021 5:45:00 PM 18.65 65.57 0.101 7.57 3.42 9.3
9/21/2021 6:00:00 PM 18.61 65.498 0.104 7.56 3.25 9.21
9/21/2021 6:15:00 PM 18.61 65.498 0.101 7.46 3.26 9.13
9/21/2021 6:30:00 PM 18.57 65.426 0.104 7.5 3.26 8.98
9/21/2021 6:45:00 PM 18.56 65.408 0.101 7.52 3.44 9
9/21/2021 7:00:00 PM 18.5 65.3 0.104 7.51 3.28 9.01
9/21/2021 7:15:00 PM 18.47 65.246 0.101 7.45 3.13 8.93
9/21/2021 7:30:00 PM 18.42 65.156 0.104 7.45 3.37 8.9
9/21/2021 7:45:00 PM 18.41 65.138 0.101 7.43 3.31 8.91
9/21/2021 8:00:00 PM 18.4 65.12 0.105 7.46 3.53 8.92
9/21/2021 8:15:00 PM 18.36 65.048 0.102 7.46 3.42 8.95
9/21/2021 8:30:00 PM 18.31 64.958 0.105 7.45 3.42 8.91
9/21/2021 8:45:00 PM 18.3 64.94 0.103 7.42 3.32 8.91
9/21/2021 9:00:00 PM 18.29 64.922 0.105 7.45 3.28 8.96
9/21/2021 9:15:00 PM 18.26 64.868 0.102 7.44 3.27 8.97
9/21/2021 9:30:00 PM 18.22 64.796 0.105 7.43 3.35 8.96
9/21/2021 9:45:00 PM 18.19 64.742 0.102 7.41 3.55 8.95
9/21/2021 10:00:00 PM 18.17 64.706 0.105 7.43 3.35 8.94
9/21/2021 10:15:00 PM 18.13 64.634 0.104 7.39 3.55 8.78
9/21/2021 10:30:00 PM 18.12 64.616 0.104 7.47 3.71 8.99
9/21/2021 10:45:00 PM 18.09 64.562 0.102 7.44 3.37 8.97
9/21/2021 11:00:00 PM 18.06 64.508 0.104 7.41 3.47 9.02
9/21/2021 11:15:00 PM 18.03 64.454 0.102 7.43 3.35 9
9/21/2021 11:30:00 PM 17.99 64.382 0.104 7.27 3.66 8.98
9/21/2021 11:45:00 PM 17.99 64.382 0.102 7.44 3.2 8.99
9/22/2021 12:00:00 AM 17.97 64.346 0.104 7.44 3.34 9.04
9/22/2021 12:15:00 AM 17.95 64.31 0.103 7.38 3.5 8.99
9/22/2021 12:30:00 AM 17.95 64.31 0.104 7.39 3.5 9.01
9/22/2021 12:45:00 AM 17.91 64.238 0.102 7.38 3.35 8.9
9/22/2021 1:00:00 AM 17.94 64.292 0.1 7.42 3.65 9.02
9/22/2021 1:15:00 AM 17.92 64.256 0.102 7.44 3.36 8.96
9/22/2021 1:30:00 AM 17.95 64.31 0.102 7.45 3.38 9.04
9/22/2021 1:45:00 AM 17.95 64.31 0.103 7.47 3.35 9.04
9/22/2021 2:00:00 AM 17.94 64.292 0.102 7.44 3.28 9.02
9/22/2021 2:15:00 AM 17.9 64.22 0.111 7.39 3.23 9
9/22/2021 2:30:00 AM 17.94 64.292 0.102 7.41 3.32 9.01
9/22/2021 2:45:00 AM 17.9 64.22 0.104 7.33 3.55 9
9/22/2021 3:00:00 AM 17.91 64.238 0.103 7.41 3.23 8.93
9/22/2021 3:15:00 AM 17.91 64.238 0.101 7.41 3.29 8.92
9/22/2021 3:30:00 AM 17.9 64.22 0.104 7.39 3.24 8.88
9/22/2021 3:45:00 AM 17.91 64.238 0.102 7.38 3.37 9.01
9/22/2021 4:00:00 AM 17.89 64.202 0.105 7.35 3.75 8.94
9/22/2021 4:15:00 AM 17.92 64.256 0.102 7.43 3.26 8.98
9/22/2021 4:30:00 AM 17.91 64.238 0.105 7.39 3.31 8.95
9/22/2021 4:45:00 AM 17.91 64.238 0.103 7.4 3.41 8.98
9/22/2021 5:00:00 AM 17.92 64.256 0.105 7.42 3.35 8.99
9/22/2021 5:15:00 AM 17.94 64.292 0.103 7.46 3.35 9.01
9/22/2021 5:30:00 AM 17.94 64.292 0.105 7.45 3.28 9.02
9/22/2021 5:45:00 AM 17.93 64.274 0.104 7.44 3.34 8.99
9/22/2021 6:00:00 AM 17.93 64.274 0.102 7.46 3.3 9.01
9/22/2021 6:15:00 AM 17.9 64.22 0.105 7.37 3.31 8.96
9/22/2021 6:30:00 AM 17.95 64.31 0.103 7.49 3.45 9.01
9/22/2021 6:45:00 AM 17.94 64.292 0.105 7.46 3.72 9.01
9/22/2021 7:00:00 AM 17.93 64.274 0.111 7.42 3.17 9
9/22/2021 7:15:00 AM 17.93 64.274 0.103 7.47 3.3 9
9/22/2021 7:30:00 AM 17.96 64.328 0.102 7.47 3.37 9.02
9/22/2021 7:45:00 AM 17.94 64.292 0.105 7.41 3.28 9.06
9/22/2021 8:00:00 AM 17.96 64.328 0.104 7.46 3.33 9.05
9/22/2021 8:15:00 AM 17.98 64.364 0.101 7.46 3.24 9.14
9/22/2021 8:30:00 AM 17.99 64.382 0.105 7.47 3.34 9.12
9/22/2021 8:45:00 AM 18.05 64.49 0.104 7.51 3.34 9.24
9/22/2021 9:00:00 AM 18.07 64.526 0.105 7.5 3.22 9.28
9/22/2021 9:15:00 AM 18.11 64.598 0.103 7.51 3.34 9.24
9/22/2021 9:30:00 AM 18.14 64.652 0.105 7.5 3.21 9.2
9/22/2021 9:45:00 AM 18.2 64.76 0.103 7.57 3.16 9.41
9/22/2021 10:00:00 AM 18.22 64.796 0.106 7.55 3.33 9.31
9/22/2021 10:15:00 AM 18.23 64.814 0.103 7.48 3.14 9.2
9/22/2021 10:30:00 AM 18.29 64.922 0.104 7.57 3.28 9.23
9/22/2021 10:45:00 AM 18.26 64.868 0.104 7.52 3.28 9.15
9/22/2021 11:00:00 AM 18.34 65.012 0.111 7.57 3.04 9.24
9/22/2021 11:15:00 AM 18.37 65.066 0.102 7.57 3.13 9.28
9/22/2021 11:30:00 AM 18.41 65.138 0.102 7.58 3.25 9.34
9/22/2021 11:45:00 AM 18.45 65.21 0.105 7.47 3.21 9.37
9/22/2021 12:00:00 PM 18.48 65.264 0.103 7.57 3.27 9.39
9/22/2021 12:15:00 PM 18.54 65.372 0.106 7.62 3.2 9.42
9/22/2021 12:30:00 PM 18.62 65.516 0.111 7.67 3.06 9.46
9/22/2021 12:45:00 PM 18.63 65.534 0.106 7.61 3.21 9.39
9/22/2021 1:00:00 PM 18.71 65.67799 0.103 7.69 3.25 9.42
9/22/2021 1:15:00 PM 18.71 65.67799 0.106 7.65 3.14 9.36
9/22/2021 1:30:00 PM 18.75 65.75 0.104 7.53 2.96 9.32
9/22/2021 1:45:00 PM 18.8 65.84 0.105 7.62 3.27 9.32
9/22/2021 2:00:00 PM 18.83 65.894 0.103 7.66 3.11 9.28
9/22/2021 2:15:00 PM 18.78 65.804 0.106 7.47 3.17 9.13
9/22/2021 2:30:00 PM 18.84 65.912 0.103 7.59 3.03 9.22
9/22/2021 2:45:00 PM 18.9 66.02 0.106 7.67 3.03 9.31
9/22/2021 3:00:00 PM 18.92 66.056 0.104 7.59 3.07 9.29
9/22/2021 3:15:00 PM 18.95 66.11 0.106 7.57 3.27 9.33
9/22/2021 3:30:00 PM 18.97 66.146 0.103 7.65 3.09 9.33
9/22/2021 3:45:00 PM 18.98 66.164 0.106 7.6 3.22 9.29
9/22/2021 4:00:00 PM 19.06 66.308 0.104 7.73 3.17 9.28
9/22/2021 4:15:00 PM 19.04 66.272 0.105 7.68 3.11 9.25
9/22/2021 4:30:00 PM 19.03 66.254 0.104 7.56 3.13 9.12
9/22/2021 4:45:00 PM 18.99 66.182 0.103 7.53 3.29 9.03
9/22/2021 5:00:00 PM 19.01 66.218 0.106 7.58 3.03 9.01
9/22/2021 5:15:00 PM 19.02 66.236 0.104 7.54 3.08 8.94
9/22/2021 5:30:00 PM 19.03 66.254 0.106 7.56 3.11 8.86
9/22/2021 5:45:00 PM 19.01 66.218 0.104 7.5 3.11 8.91
9/22/2021 6:00:00 PM 19.01 66.218 0.106 7.55 3.2 8.87
9/22/2021 6:15:00 PM 18.96 66.128 0.104 7.48 2.99 8.87
9/22/2021 6:30:00 PM 18.99 66.182 0.107 7.55 3.09 8.86
9/22/2021 6:45:00 PM 18.94 66.092 0.104 7.37 3.06 8.74
9/22/2021 7:00:00 PM 18.93 66.074 0.107 7.45 3.09 8.73
9/22/2021 7:15:00 PM 18.91 66.038 0.105 7.46 3.19 8.71
9/22/2021 7:30:00 PM 18.91 66.038 0.107 7.5 3.24 8.74
9/22/2021 7:45:00 PM 18.88 65.984 0.105 7.45 3.02 8.76
9/22/2021 8:00:00 PM 18.88 65.984 0.107 7.38 3.16 8.73
9/22/2021 8:15:00 PM 18.86 65.948 0.104 7.42 3.04 8.68
9/22/2021 8:30:00 PM 18.84 65.912 0.107 7.39 3.3 8.7
9/22/2021 8:45:00 PM 18.82 65.876 0.105 7.34 3.2 8.74
9/22/2021 9:00:00 PM 18.84 65.912 0.107 7.49 3.12 8.77
9/22/2021 9:15:00 PM 18.82 65.876 0.105 7.47 4.16 8.78
9/22/2021 9:30:00 PM 18.81 65.858 0.108 7.44 3.5 8.74
9/22/2021 9:45:00 PM 18.79 65.82201 0.106 7.47 3.11 8.7
9/22/2021 10:00:00 PM 18.78 65.804 0.109 7.32 3.14 8.67
9/22/2021 10:15:00 PM 18.82 65.876 0.108 7.49 3.22 8.71
9/22/2021 10:30:00 PM 18.76 65.768 0.109 7.31 3.31 8.67
9/22/2021 10:45:00 PM 18.82 65.876 0.107 7.5 3.14 8.77
9/22/2021 11:00:00 PM 18.81 65.858 0.106 7.44 3.23 8.73
9/22/2021 11:15:00 PM 18.81 65.858 0.109 7.51 3.21 8.75
9/22/2021 11:30:00 PM 18.76 65.768 0.108 7.3 3.06 8.7
9/22/2021 11:45:00 PM 18.79 65.82201 0.11 7.45 3.08 8.74
9/23/2021 12:00:00 AM 18.79 65.82201 0.109 7.41 3.14 8.75
9/23/2021 12:15:00 AM 18.79 65.82201 0.109 7.45 3.05 8.74
9/23/2021 12:30:00 AM 18.79 65.82201 0.108 7.49 3.17 8.75
9/23/2021 12:45:00 AM 18.77 65.786 0.107 7.44 3.4 8.76
9/23/2021 1:00:00 AM 18.81 65.858 0.106 7.49 3.35 8.76
9/23/2021 1:15:00 AM 18.79 65.82201 0.107 7.44 3.32 8.74
9/23/2021 1:30:00 AM 18.78 65.804 0.107 7.44 3.15 8.75
9/23/2021 1:45:00 AM 18.81 65.858 0.108 7.5 3.04 8.73
9/23/2021 2:00:00 AM 18.8 65.84 0.109 7.49 3.27 8.74
9/23/2021 2:15:00 AM 18.79 65.82201 0.108 7.46 3.21 8.69
9/23/2021 2:30:00 AM 18.78 65.804 0.107 7.48 3.2 8.77
9/23/2021 2:45:00 AM 18.81 65.858 0.107 7.51 3.14 8.74
9/23/2021 3:00:00 AM 18.8 65.84 0.111 7.48 3.3 8.74
9/23/2021 3:15:00 AM 18.75 65.75 0.109 7.37 3.18 8.67
9/23/2021 3:30:00 AM 18.82 65.876 0.109 7.5 3.34 8.76
9/23/2021 3:45:00 AM 18.83 65.894 0.108 7.51 3.44 8.73
9/23/2021 4:00:00 AM 18.83 65.894 0.107 7.52 3.16 8.76
9/23/2021 4:15:00 AM 18.8 65.84 0.111 7.44 3.38 8.72
9/23/2021 4:30:00 AM 18.8 65.84 0.11 7.46 3.4 8.7
9/23/2021 4:45:00 AM 18.79 65.82201 0.112 7.49 3.21 8.75
9/23/2021 5:00:00 AM 18.79 65.82201 0.11 7.51 3.11 8.76
9/23/2021 5:15:00 AM 18.78 65.804 0.112 7.48 3.15 8.75
9/23/2021 5:30:00 AM 18.77 65.786 0.11 7.49 3.11 8.7
9/23/2021 5:45:00 AM 18.76 65.768 0.108 7.46 3.15 8.73
9/23/2021 6:00:00 AM 18.73 65.714 0.112 7.41 3.34 8.73
9/23/2021 6:15:00 AM 18.72 65.696 0.11 7.39 3.21 8.67
9/23/2021 6:30:00 AM 18.72 65.696 0.111 7.42 3.19 8.7
9/23/2021 6:45:00 AM 18.74 65.732 0.117 7.47 3.26 8.76
9/23/2021 7:00:00 AM 18.7 65.66 0.11 7.47 3.08 8.71
9/23/2021 7:15:00 AM 18.69 65.642 0.111 7.35 3.15 8.66
9/23/2021 7:30:00 AM 18.72 65.696 0.109 7.49 3.23 8.78
9/23/2021 7:45:00 AM 18.74 65.732 0.109 7.51 3.23 8.86
9/23/2021 8:00:00 AM 18.77 65.786 0.108 7.53 3.19 8.95
9/23/2021 8:15:00 AM 18.74 65.732 0.117 7.41 3.19 8.93
9/23/2021 8:30:00 AM 18.78 65.804 0.117 7.51 2.93 9.01
9/23/2021 8:45:00 AM 18.74 65.732 0.111 7.49 3.05 8.93
9/23/2021 9:00:00 AM 18.75 65.75 0.11 7.48 2.99 8.89
9/23/2021 9:15:00 AM 18.76 65.768 0.109 7.53 3.13 8.87
9/23/2021 9:30:00 AM 18.78 65.804 0.108 7.56 3.12 8.88
9/23/2021 9:45:00 AM 18.78 65.804 0.117 7.48 3.02 8.95
9/23/2021 10:00:00 AM 18.8 65.84 0.11 7.55 3.14 8.98
9/23/2021 10:15:00 AM 18.81 65.858 0.11 7.54 2.99 8.97
9/23/2021 10:30:00 AM 18.78 65.804 0.108 7.45 3.2 8.9
9/23/2021 10:45:00 AM 18.84 65.912 0.106 7.5 3.76 8.87
9/23/2021 11:00:00 AM 18.84 65.912 0.107 7.49 3.87 8.84
9/23/2021 11:15:00 AM 18.82 65.876 0.104 7.49 4.44 8.79
9/23/2021 11:30:00 AM 18.74 65.732 0.104 7.39 4.72 8.78
9/23/2021 11:45:00 AM 18.64 65.552 0.096 7.39 6.08 8.77
9/23/2021 12:00:00 PM 18.61 65.498 0.097 7.4 8.1 8.85
9/23/2021 12:15:00 PM 18.54 65.372 0.096 7.39 8.79 8.84
9/23/2021 12:30:00 PM 18.53 65.354 0.096 7.41 11.39 8.89
9/23/2021 12:45:00 PM 18.49 65.282 0.095 7.43 17.34 8.92
9/23/2021 1:00:00 PM 18.46 65.228 0.096 7.41 16.44 8.94
9/23/2021 1:15:00 PM 18.44 65.192 0.091 7.45 22.87 9.03
9/23/2021 1:30:00 PM 18.39 65.102 0.089 7.39 27.21 9.03
9/23/2021 1:45:00 PM 18.42 65.156 0.063 7.34 28.72 9.02
9/23/2021 2:00:00 PM 18.42 65.156 0.084 7.4 133.49 9.04
9/23/2021 2:15:00 PM 18.37 65.066 0.079 7.35 45.07 9.03
9/23/2021 2:30:00 PM 18.31 64.958 0.078 7.34 52.74 9.01
9/23/2021 2:45:00 PM 18.29 64.922 0.076 7.38 463.72 9.09
9/23/2021 3:00:00 PM 18.26 64.868 0.075 7.29 25.52 9.08
9/23/2021 3:15:00 PM 18.25 64.85 0.076 7.33 48.4 9.04
9/23/2021 3:30:00 PM 18.25 64.85 0.078 7.32 21.18 9.05
9/23/2021 3:45:00 PM 18.27 64.886 0.078 7.3 19.77 9.09
9/23/2021 4:00:00 PM 18.3 64.94 0.08 7.38 18.2 9.12
9/23/2021 4:15:00 PM 18.31 64.958 0.083 7.36 14.12 9.01
9/23/2021 4:30:00 PM 18.38 65.084 0.084 7.42 15.1 9.08
9/23/2021 4:45:00 PM 18.46 65.228 0.084 7.44 14.22 9.12
9/23/2021 5:00:00 PM 18.52 65.336 0.086 7.39 15.25 9.07
9/23/2021 5:15:00 PM 18.61 65.498 0.086 7.43 14.59 9.04
9/23/2021 5:30:00 PM 18.74 65.732 0.086 7.45 23.54 9.05
9/23/2021 5:45:00 PM 18.85 65.93 0.087 7.43 14.65 9.03
9/23/2021 6:00:00 PM 18.96 66.128 0.087 7.39 16.78 9
9/23/2021 6:15:00 PM 19.07 66.326 0.087 7.42 15.06 8.98
9/23/2021 6:30:00 PM 19.13 66.434 0.086 7.46 15.27 8.96
9/23/2021 6:45:00 PM 19.18 66.524 0.085 7.46 53.43 8.96
9/23/2021 7:00:00 PM 19.19 66.542 0.088 7.36 14.04 8.92
9/23/2021 7:15:00 PM 19.24 66.632 0.087 7.47 16.71 8.94
9/23/2021 7:30:00 PM 19.26 66.668 0.089 7.48 13.27 8.95
9/23/2021 7:45:00 PM 19.26 66.668 0.087 7.46 14.68 8.94
9/23/2021 8:00:00 PM 19.24 66.632 0.088 7.42 14.84 8.92
9/23/2021 8:15:00 PM 19.23 66.614 0.086 7.47 450.13 8.96
9/23/2021 8:30:00 PM 19.19 66.542 0.089 7.48 13.3 8.95
9/23/2021 8:45:00 PM 19.16 66.488 0.088 7.45 12.63 8.97
9/23/2021 9:00:00 PM 19.1 66.38 0.089 7.45 13.75 8.96
9/23/2021 9:15:00 PM 19.06 66.308 0.088 7.45 12.61 8.99
9/23/2021 9:30:00 PM 19.02 66.236 0.089 7.45 12.39 9
9/23/2021 9:45:00 PM 18.94 66.092 0.093 7.44 12.67 9.01
9/23/2021 10:00:00 PM 18.9 66.02 0.089 7.46 11.92 9.04
9/23/2021 10:15:00 PM 18.82 65.876 0.088 7.48 11.69 9.04
9/23/2021 10:30:00 PM 18.75 65.75 0.089 7.41 11.28 9.02
9/23/2021 10:45:00 PM 18.71 65.67799 0.094 7.45 11.39 9.05
9/23/2021 11:00:00 PM 18.66 65.588 0.094 7.45 10.17 9.07
9/23/2021 11:15:00 PM 18.6 65.48 0.087 7.48 9.84 9.07
9/23/2021 11:30:00 PM 18.53 65.354 0.089 7.47 10.02 9.07
9/23/2021 11:45:00 PM 18.49 65.282 0.089 7.44 10.82 9.11
9/24/2021 12:00:00 AM 18.44 65.192 0.089 7.41 10.1 9.11
9/24/2021 12:15:00 AM 18.37 65.066 0.088 7.41 10.76 9.11
9/24/2021 12:30:00 AM 18.3 64.94 0.09 7.37 9.7 9.07
9/24/2021 12:45:00 AM 18.26 64.868 0.088 7.47 9.96 9.14
9/24/2021 1:00:00 AM 18.2 64.76 0.089 7.43 9.34 9.15
9/24/2021 1:15:00 AM 18.14 64.652 0.089 7.39 9.35 9.14
9/24/2021 1:30:00 AM 18.1 64.58 0.09 7.5 9.7 9.2
9/24/2021 1:45:00 AM 18.04 64.472 0.088 7.47 10.3 9.2
9/24/2021 2:00:00 AM 17.98 64.364 0.09 7.42 9.06 9.18
9/24/2021 2:15:00 AM 17.94 64.292 0.088 7.43 9.31 9.22
9/24/2021 2:30:00 AM 17.9 64.22 0.09 7.47 11.73 9.23
9/24/2021 2:45:00 AM 17.86 64.148 0.088 7.45 8.59 9.21
9/24/2021 3:00:00 AM 17.8 64.04 0.09 7.44 9.04 9.23
9/24/2021 3:15:00 AM 17.76 63.968 0.088 7.46 8.89 9.22
9/24/2021 3:30:00 AM 17.71 63.878 0.095 7.37 8.66 9.19
9/24/2021 3:45:00 AM 17.68 63.824 0.088 7.42 8.63 9.23
9/24/2021 4:00:00 AM 17.62 63.716 0.09 7.31 8.24 9.2
9/24/2021 4:15:00 AM 17.59 63.662 0.088 7.43 8.62 9.21
9/24/2021 4:30:00 AM 17.56 63.608 0.091 7.42 8.49 9.26
9/24/2021 4:45:00 AM 17.51 63.518 0.089 7.37 8.26 9.23
9/24/2021 5:00:00 AM 17.47 63.446 0.09 7.4 8.38 9.27
9/24/2021 5:15:00 AM 17.45 63.41 0.09 7.4 8.34 9.27
9/24/2021 5:30:00 AM 17.41 63.338 0.088 7.38 8.58 9.3
9/24/2021 5:45:00 AM 17.38 63.284 0.091 7.41 8.33 9.31
9/24/2021 6:00:00 AM 17.35 63.23 0.089 7.46 8.68 9.33
9/24/2021 6:15:00 AM 17.32 63.176 0.092 7.39 8.22 9.31
9/24/2021 6:30:00 AM 17.29 63.122 0.089 7.43 8.06 9.34
9/24/2021 6:45:00 AM 17.24 63.032 0.091 7.37 8.47 9.31
9/24/2021 7:00:00 AM 17.25 63.05 0.089 7.34 8.37 9.36
9/24/2021 7:15:00 AM 17.22 62.996 0.096 7.42 8.25 9.32
9/24/2021 7:30:00 AM 17.2 62.96 0.091 7.41 8.54 9.33
9/24/2021 7:45:00 AM 17.17 62.906 0.091 7.41 8.2 9.34
9/24/2021 8:00:00 AM 17.17 62.906 0.09 7.31 7.98 9.33
9/24/2021 8:15:00 AM 17.19 62.942 0.09 7.43 7.98 9.37
9/24/2021 8:30:00 AM 17.18 62.924 0.09 7.32 7.79 9.25
9/24/2021 8:45:00 AM 17.22 62.996 0.088 7.44 8.01 9.37
9/24/2021 9:00:00 AM 17.25 63.05 0.088 7.38 7.81 9.39
9/24/2021 9:15:00 AM 17.24 63.032 0.089 7.4 7.57 9.36
9/24/2021 9:30:00 AM 17.32 63.176 0.091 7.39 7.75 9.36
9/24/2021 9:45:00 AM 17.36 63.248 0.09 7.44 7.84 9.38
9/24/2021 10:00:00 AM 17.42 63.356 0.09 7.43 7.93 9.33
9/24/2021 10:15:00 AM 17.47 63.446 0.09 7.38 8.08 9.33
9/24/2021 10:30:00 AM 17.56 63.608 0.088 7.45 7.74 9.36
9/24/2021 10:45:00 AM 17.62 63.716 0.091 7.36 7.99 9.35
9/24/2021 11:00:00 AM 17.69 63.842 0.09 7.44 7.35 9.38
9/24/2021 11:15:00 AM 17.76 63.968 0.096 7.42 7.32 9.32
9/24/2021 11:30:00 AM 17.86 64.148 0.089 7.38 7.53 9.35
9/24/2021 11:45:00 AM 17.9 64.22 0.09 7.43 7.22 9.32
9/24/2021 12:00:00 PM 17.94 64.292 0.09 7.45 7.46 9.29
9/24/2021 12:15:00 PM 17.98 64.364 0.09 7.48 7.34 9.34
9/24/2021 12:30:00 PM 18.09 64.562 0.089 7.5 7.59 9.34
9/24/2021 12:45:00 PM 18.11 64.598 0.089 7.46 7.37 9.27
9/24/2021 1:00:00 PM 18.14 64.652 0.09 7.39 7.39 9.25
9/24/2021 1:15:00 PM 18.19 64.742 0.089 7.36 7.3 9.22
9/24/2021 1:30:00 PM 18.26 64.868 0.095 7.46 7.49 9.26
9/24/2021 1:45:00 PM 18.33 64.994 0.09 7.45 7.43 9.22
9/24/2021 2:00:00 PM 18.37 65.066 0.09 7.34 7.4 9.19
9/24/2021 2:15:00 PM 18.4 65.12 0.092 7.41 7.32 9.14
9/24/2021 2:30:00 PM 18.44 65.192 0.09 7.41 7.49 9.18
9/24/2021 2:45:00 PM 18.48 65.264 0.089 7.39 7.17 9.09
9/24/2021 3:00:00 PM 18.56 65.408 0.089 7.4 7.45 9.12
9/24/2021 3:15:00 PM 18.55 65.39 0.09 7.34 7.41 9.07
9/24/2021 3:30:00 PM 18.6 65.48 0.089 7.36 7.37 9.07
9/24/2021 3:45:00 PM 18.62 65.516 0.09 7.38 7.35 9.13
9/24/2021 4:00:00 PM 18.61 65.498 0.091 7.35 7.16 8.95
9/24/2021 4:15:00 PM 18.69 65.642 0.089 7.36 7.17 9.07
9/24/2021 4:30:00 PM 18.66 65.588 0.096 7.4 7.27 9.07
9/24/2021 4:45:00 PM 18.72 65.696 0.087 7.3 7.36 8.98
9/24/2021 5:00:00 PM 18.79 65.82201 0.09 7.36 7.51 9.03
9/24/2021 5:15:00 PM 18.78 65.804 0.089 7.26 7.06 8.96
9/24/2021 5:30:00 PM 18.77 65.786 0.091 7.32 7.34 8.98
9/24/2021 5:45:00 PM 18.81 65.858 0.088 7.42 7.18 9.04
9/24/2021 6:00:00 PM 18.77 65.786 0.09 7.33 7.4 8.98
9/24/2021 6:15:00 PM 18.71 65.67799 0.089 7.29 7.15 8.97
9/24/2021 6:30:00 PM 18.64 65.552 0.092 7.16 7.25 8.82
9/24/2021 6:45:00 PM 18.64 65.552 0.09 7.34 7.17 8.98
9/24/2021 7:00:00 PM 18.63 65.534 0.091 7.28 7.16 9.03
9/24/2021 7:15:00 PM 18.61 65.498 0.095 7.45 7.34 9.04
9/24/2021 7:30:00 PM 18.56 65.408 0.095 7.33 7.21 8.98
9/24/2021 7:45:00 PM 18.54 65.372 0.089 7.42 8.05 9.07
9/24/2021 8:00:00 PM 18.5 65.3 0.09 7.39 7.8 9.07
9/24/2021 8:15:00 PM 18.41 65.138 0.089 7.28 7.3 9.03
9/24/2021 8:30:00 PM 18.38 65.084 0.091 7.39 7.36 9.05
9/24/2021 8:45:00 PM 18.32 64.976 0.089 7.37 7.51 9.05
9/24/2021 9:00:00 PM 18.34 65.012 0.091 7.42 7.21 9.14
9/24/2021 9:15:00 PM 18.27 64.886 0.089 7.4 7.03 9.11
9/24/2021 9:30:00 PM 18.17 64.706 0.091 7.3 7.17 9.03
9/24/2021 9:45:00 PM 18.17 64.706 0.095 7.32 6.81 9.06
9/24/2021 10:00:00 PM 18.07 64.526 0.089 7.31 7.19 9.1
9/24/2021 10:15:00 PM 18.06 64.508 0.091 7.31 7.09 9.1
9/24/2021 10:30:00 PM 17.99 64.382 0.09 7.31 6.75 9.1
9/24/2021 10:45:00 PM 17.94 64.292 0.09 7.34 6.69 9.17
9/24/2021 11:00:00 PM 17.85 64.13 0.089 7.37 6.86 9.19
9/24/2021 11:15:00 PM 17.72 63.896 0.091 7.26 6.66 9.09
9/24/2021 11:30:00 PM 17.7 63.86 0.09 7.31 7.22 9.16
9/24/2021 11:45:00 PM 17.62 63.716 0.095 7.36 7.03 9.17
9/25/2021 12:00:00 AM 17.54 63.572 0.095 7.25 6.66 9.15
9/25/2021 12:15:00 AM 17.48 63.464 0.091 7.32 7.01 9.19
9/25/2021 12:30:00 AM 17.46 63.428 0.09 7.27 6.8 9.24
9/25/2021 12:45:00 AM 17.45 63.41 0.089 7.4 7.09 9.3
9/25/2021 1:00:00 AM 17.35 63.23 0.09 7.27 6.57 9.14
9/25/2021 1:15:00 AM 17.34 63.212 0.089 7.26 6.85 9.28
9/25/2021 1:30:00 AM 17.31 63.158 0.088 7.25 6.74 9.29
9/25/2021 1:45:00 AM 17.26 63.068 0.091 7.24 6.54 9.21
9/25/2021 2:00:00 AM 17.25 63.05 0.089 7.42 7.25 9.29
9/25/2021 2:15:00 AM 17.16 62.888 0.09 7.14 6.84 9.17
9/25/2021 2:30:00 AM 17.2 62.96 0.089 7.35 6.99 9.28
9/25/2021 2:45:00 AM 17.13 62.834 0.089 7.26 12 9.18
9/25/2021 3:00:00 AM 17.14 62.852 0.09 7.23 25.21 9.31
9/25/2021 3:15:00 AM 17.11 62.798 0.091 7.14 6.98 9.23
9/25/2021 3:30:00 AM 17.06 62.708 0.096 7.23 8.25 9.2
9/25/2021 3:45:00 AM 17.05 62.69 0.092 7.24 7.05 9.09
9/25/2021 4:00:00 AM 17.06 62.708 0.089 7.25 6.86 9.29
9/25/2021 4:15:00 AM 17.02 62.636 0.091 7.16 6.29 9.22
9/25/2021 4:30:00 AM 16.98 62.564 0.091 7.12 6.71 9.19
9/25/2021 4:45:00 AM 16.97 62.546 0.09 7.23 11.19 9.27
9/25/2021 5:00:00 AM 16.98 62.564 0.091 7.41 12.05 9.39
9/25/2021 5:15:00 AM 16.91 62.438 0.089 7.19 6.44 9.13
9/25/2021 5:30:00 AM 16.9 62.42 0.092 7.34 6.54 9.42
9/25/2021 5:45:00 AM 16.85 62.33 0.09 7.16 6.33 9.31
9/25/2021 6:00:00 AM 16.83 62.294 0.09 7.28 6.3 9.4
9/25/2021 6:15:00 AM 16.8 62.24 0.09 7.29 6.36 9.43
9/25/2021 6:30:00 AM 16.76 62.168 0.089 7.27 6.55 9.39
9/25/2021 6:45:00 AM 16.72 62.096 0.091 7.34 6.33 9.39
9/25/2021 7:00:00 AM 16.69 62.042 0.09 7.31 6.56 9.43
9/25/2021 7:15:00 AM 16.66 61.988 0.089 7.43 6.39 9.51
9/25/2021 7:30:00 AM 16.62 61.916 0.096 7.34 6.22 9.48
9/25/2021 7:45:00 AM 16.61 61.898 0.089 7.42 6.54 9.53
9/25/2021 8:00:00 AM 16.58 61.844 0.092 7.29 6.35 9.48
9/25/2021 8:15:00 AM 16.57 61.826 0.09 7.34 6.25 9.53
9/25/2021 8:30:00 AM 16.57 61.826 0.096 7.36 6.01 9.55
9/25/2021 8:45:00 AM 16.57 61.826 0.09 7.31 6.41 9.55
9/25/2021 9:00:00 AM 16.58 61.844 0.096 7.37 6 9.56
9/25/2021 9:15:00 AM 16.59 61.862 0.09 7.43 6.08 9.61
9/25/2021 9:30:00 AM 16.59 61.862 0.093 7.4 6.4 9.54
9/25/2021 9:45:00 AM 16.61 61.898 0.096 7.37 5.97 9.6
9/25/2021 10:00:00 AM 16.63 61.934 0.093 7.26 6.15 9.52
9/25/2021 10:15:00 AM 16.69 62.042 0.089 7.42 5.99 9.66
9/25/2021 10:30:00 AM 16.76 62.168 0.091 7.29 6 9.61
9/25/2021 10:45:00 AM 16.82 62.276 0.09 7.33 5.81 9.56
9/25/2021 11:00:00 AM 16.93 62.474 0.091 7.36 5.98 9.53
9/25/2021 11:15:00 AM 17.02 62.636 0.09 7.29 5.85 9.49
9/25/2021 11:30:00 AM 17.18 62.924 0.09 7.37 5.84 9.58
9/25/2021 11:45:00 AM 17.31 63.158 0.091 7.41 5.77 9.56
9/25/2021 12:00:00 PM 17.33 63.194 0.096 7.27 6 9.38
9/25/2021 12:15:00 PM 17.36 63.248 0.091 7.29 6 9.44
9/25/2021 12:30:00 PM 17.53 63.554 0.09 7.32 5.68 9.45
9/25/2021 12:45:00 PM 17.59 63.662 0.092 7.48 6.27 9.43
9/25/2021 1:00:00 PM 17.66 63.788 0.09 7.31 5.92 9.41
9/25/2021 1:15:00 PM 17.78 64.004 0.089 7.42 5.85 9.44
9/25/2021 1:30:00 PM 17.9 64.22 0.092 7.39 6.06 9.4
9/25/2021 1:45:00 PM 17.98 64.364 0.09 7.44 5.86 9.41
9/25/2021 2:00:00 PM 18.03 64.454 0.091 7.55 6.08 9.39
9/25/2021 2:15:00 PM 18.12 64.616 0.09 7.44 5.76 9.4
9/25/2021 2:30:00 PM 18.18 64.724 0.091 7.37 6.04 9.29
9/25/2021 2:45:00 PM 18.32 64.976 0.089 7.39 5.9 9.33
9/25/2021 3:00:00 PM 18.36 65.048 0.088 7.62 5.82 9.4
9/25/2021 3:15:00 PM 18.42 65.156 0.091 7.46 5.92 9.31
9/25/2021 3:30:00 PM 18.46 65.228 0.09 7.41 6.11 9.26
9/25/2021 3:45:00 PM 18.37 65.066 0.093 7.29 5.89 9.17
9/25/2021 4:00:00 PM 18.48 65.264 0.09 7.44 5.92 9.24
9/25/2021 4:15:00 PM 18.53 65.354 0.091 7.49 6.13 9.2
9/25/2021 4:30:00 PM 18.45 65.21 0.092 7.32 5.67 9.12
9/25/2021 4:45:00 PM 18.48 65.264 0.09 7.48 5.83 9.14
9/25/2021 5:00:00 PM 18.46 65.228 0.089 7.41 5.96 9.11
9/25/2021 5:15:00 PM 18.41 65.138 0.096 7.34 6.42 9.1
9/25/2021 5:30:00 PM 18.38 65.084 0.09 7.4 5.93 9.15
9/25/2021 5:45:00 PM 18.32 64.976 0.091 7.46 5.66 9.16
9/25/2021 6:00:00 PM 18.28 64.904 0.095 7.44 5.71 9.12
9/25/2021 6:15:00 PM 18.22 64.796 0.09 7.44 5.68 9.13
9/25/2021 6:30:00 PM 18.13 64.634 0.09 7.41 5.55 9.08
9/25/2021 6:45:00 PM 18.12 64.616 0.091 7.42 5.98 9.07
9/25/2021 7:00:00 PM 18 64.4 0.091 7.29 5.48 8.98
9/25/2021 7:15:00 PM 17.95 64.31 0.091 7.06 5.79 8.92
9/25/2021 7:30:00 PM 17.94 64.292 0.09 7.34 6 9.11
9/25/2021 7:45:00 PM 17.89 64.202 0.096 7.3 4.83 9.1
9/25/2021 8:00:00 PM 17.82 64.076 0.092 7.19 6.53 8.99
9/25/2021 8:15:00 PM 17.82 64.076 0.09 7.32 5.82 9.09
9/25/2021 8:30:00 PM 17.81 64.058 0.092 7.39 5.8 9.15
9/25/2021 8:45:00 PM 17.8 64.04 0.091 7.33 5.79 9.07
9/25/2021 9:00:00 PM 17.77 63.986 0.091 7.3 5.93 9.05
9/25/2021 9:15:00 PM 17.77 63.986 0.091 7.36 5.77 9.09
9/25/2021 9:30:00 PM 17.74 63.932 0.093 7.31 5.79 9.09
9/25/2021 9:45:00 PM 17.71 63.878 0.092 7.35 5.74 9.11
9/25/2021 10:00:00 PM 17.64 63.752 0.094 7.22 5.77 9.06
9/25/2021 10:15:00 PM 17.63 63.734 0.092 7.34 5.76 9.16
9/25/2021 10:30:00 PM 17.56 63.608 0.09 7.38 6.1 9.13
9/25/2021 10:45:00 PM 17.47 63.446 0.093 7.43 5.73 9.21
9/25/2021 11:00:00 PM 17.41 63.338 0.091 7.42 5.73 9.18
9/25/2021 11:15:00 PM 17.33 63.194 0.092 7.28 5.83 9.19
9/25/2021 11:30:00 PM 17.29 63.122 0.09 7.45 5.62 9.24
9/25/2021 11:45:00 PM 17.24 63.032 0.092 7.43 6 9.26
9/26/2021 12:00:00 AM 17.2 62.96 0.09 7.45 6.16 9.28
9/26/2021 12:15:00 AM 17.15 62.87 0.093 7.27 5.69 9.14
9/26/2021 12:30:00 AM 17.17 62.906 0.09 7.39 5.67 9.27
9/26/2021 12:45:00 AM 17.16 62.888 0.098 7.24 5.78 9.16
9/26/2021 1:00:00 AM 17.18 62.924 0.09 7.44 5.45 9.26
9/26/2021 1:15:00 AM 17.17 62.906 0.093 7.21 5.86 9.2
9/26/2021 1:30:00 AM 17.19 62.942 0.09 7.35 5.6 9.22
9/26/2021 1:45:00 AM 17.19 62.942 0.093 7.33 6.16 9.23
9/26/2021 2:00:00 AM 17.19 62.942 0.091 7.41 5.88 9.24
9/26/2021 2:15:00 AM 17.16 62.888 0.093 7.25 5.66 9.13
9/26/2021 2:30:00 AM 17.18 62.924 0.092 7.31 5.71 9.25
9/26/2021 2:45:00 AM 17.19 62.942 0.09 7.48 5.7 9.33
9/26/2021 3:00:00 AM 17.13 62.834 0.098 7.26 5.61 9.08
9/26/2021 3:15:00 AM 17.16 62.888 0.089 7.43 5.43 9.27
9/26/2021 3:30:00 AM 17.15 62.87 0.091 7.39 5.84 9.27
9/26/2021 3:45:00 AM 17.14 62.852 0.091 7.43 6.04 9.29
9/26/2021 4:00:00 AM 17.13 62.834 0.097 7.4 5.48 9.28
9/26/2021 4:15:00 AM 17.12 62.816 0.098 7.25 8.8 9.23
9/26/2021 4:30:00 AM 17.1 62.78 0.092 7.32 5.73 9.24
9/26/2021 4:45:00 AM 17.08 62.744 0.094 7.31 197.5 9.23
9/26/2021 5:00:00 AM 17.09 62.762 0.092 7.35 5.55 9.16
9/26/2021 5:15:00 AM 17.08 62.744 0.09 7.37 11.27 9.24
9/26/2021 5:30:00 AM 17.03 62.654 0.097 7.32 9.35 9.19
9/26/2021 5:45:00 AM 17.03 62.654 0.091 7.39 6.62 9.29
9/26/2021 6:00:00 AM 17.01 62.618 0.092 7.49 6 9.32
9/26/2021 6:15:00 AM 16.98 62.564 0.09 7.44 5.95 9.32
9/26/2021 6:30:00 AM 16.94 62.492 0.093 7.34 5.78 9.29
9/26/2021 6:45:00 AM 16.87 62.366 0.091 7.38 6.86 9.27
9/26/2021 7:00:00 AM 16.83 62.294 0.092 7.36 5.89 9.31
9/26/2021 7:15:00 AM 16.78 62.204 0.091 7.46 12.51 9.37
9/26/2021 7:30:00 AM 16.72 62.096 0.09 7.35 5.77 9.37
9/26/2021 7:45:00 AM 16.69 62.042 0.09 7.48 5.77 9.42
9/26/2021 8:00:00 AM 16.6 61.88 0.092 7.02 6.46 9.19
9/26/2021 8:15:00 AM 16.64 61.952 0.091 7.23 5.88 9.3
9/26/2021 8:30:00 AM 16.63 61.934 0.091 7.48 9.3 9.44
9/26/2021 8:45:00 AM 16.6 61.88 0.09 7.45 6.12 9.42
9/26/2021 9:00:00 AM 16.59 61.862 0.091 7.28 10.72 9.36
9/26/2021 9:15:00 AM 16.59 61.862 0.091 7.43 5.72 9.49
9/26/2021 9:30:00 AM 16.61 61.898 0.09 7.49 5.51 9.5
9/26/2021 9:45:00 AM 16.64 61.952 0.09 7.21 5.34 9.41
9/26/2021 10:00:00 AM 16.68 62.024 0.09 7.42 5.59 9.49
9/26/2021 10:15:00 AM 16.73 62.114 0.092 7.42 5.44 9.37
9/26/2021 10:30:00 AM 16.84 62.312 0.092 7.39 5.29 9.49
9/26/2021 10:45:00 AM 16.89 62.402 0.093 7.38 5.4 9.47
9/26/2021 11:00:00 AM 16.99 62.582 0.092 7.36 5.49 9.51
9/26/2021 11:15:00 AM 17.07 62.726 0.092 7.44 5.59 9.53
9/26/2021 11:30:00 AM 17.17 62.906 0.091 7.46 5.64 9.58
9/26/2021 11:45:00 AM 17.17 62.906 0.093 7.37 5.59 9.57
9/26/2021 12:00:00 PM 17.22 62.996 0.097 7.36 5.51 9.35
9/26/2021 12:15:00 PM 17.25 63.05 0.091 7.39 5.5 9.47
9/26/2021 12:30:00 PM 17.32 63.176 0.093 7.35 5.24 9.45
9/26/2021 12:45:00 PM 17.35 63.23 0.092 7.49 5.46 9.49
9/26/2021 1:00:00 PM 17.4 63.32 0.093 7.58 5.28 9.53
9/26/2021 1:15:00 PM 17.49 63.482 0.098 7.53 5.09 9.54
9/26/2021 1:30:00 PM 17.46 63.428 0.098 7.3 5.23 9.36
9/26/2021 1:45:00 PM 17.59 63.662 0.091 7.57 5.21 9.5
9/26/2021 2:00:00 PM 17.53 63.554 0.093 7.38 5.43 9.39
9/26/2021 2:15:00 PM 17.54 63.572 0.091 7.38 7.27 9.33
9/26/2021 2:30:00 PM 17.5 63.5 0.095 7.23 5.56 9.2
9/26/2021 2:45:00 PM 17.72 63.896 0.092 7.47 26.74 9.42
9/26/2021 3:00:00 PM 17.65 63.77 0.093 7.48 5.43 9.26
9/26/2021 3:15:00 PM 17.7 63.86 0.093 7.47 5.3 9.41
9/26/2021 3:30:00 PM 17.69 63.842 0.092 7.54 5.32 9.39
9/26/2021 3:45:00 PM 17.73 63.914 0.091 7.54 5.46 9.35
9/26/2021 4:00:00 PM 17.71 63.878 0.091 7.25 5.04 9.25
9/26/2021 4:15:00 PM 17.71 63.878 0.091 7.49 12.39 9.31
9/26/2021 4:30:00 PM 17.73 63.914 0.092 7.54 5.3 9.3
9/26/2021 4:45:00 PM 17.74 63.932 0.092 7.47 5.51 9.18
9/26/2021 5:00:00 PM 17.74 63.932 0.092 7.31 5.66 9.07
9/26/2021 5:15:00 PM 17.77 63.986 0.094 7.45 5.3 9.21
9/26/2021 5:30:00 PM 17.78 64.004 0.093 7.43 5.26 9.18
9/26/2021 5:45:00 PM 17.71 63.878 0.093 7.36 5.25 9.07
9/26/2021 6:00:00 PM 17.72 63.896 0.092 7.46 5.23 9.18
9/26/2021 6:15:00 PM 17.61 63.698 0.095 7.34 5.39 9.07
9/26/2021 6:30:00 PM 17.59 63.662 0.093 7.39 5.02 9.15
9/26/2021 6:45:00 PM 17.54 63.572 0.094 7.44 5.19 9.17
9/26/2021 7:00:00 PM 17.49 63.482 0.093 7.49 5.25 9.2
9/26/2021 7:15:00 PM 17.41 63.338 0.094 7.42 5.18 9.16
9/26/2021 7:30:00 PM 17.35 63.23 0.093 7.35 5.31 9.05
9/26/2021 7:45:00 PM 17.3 63.14 0.099 7.45 5.26 9.14
9/26/2021 8:00:00 PM 17.24 63.032 0.094 7.28 5.54 9.08
9/26/2021 8:15:00 PM 17.2 62.96 0.093 7.38 5.38 9.17
9/26/2021 8:30:00 PM 17.13 62.834 0.092 7.36 5.2 9.2
9/26/2021 8:45:00 PM 17.08 62.744 0.094 7.42 5.12 9.25
9/26/2021 9:00:00 PM 17.02 62.636 0.092 7.38 5.22 9.21
9/26/2021 9:15:00 PM 16.94 62.492 0.094 7.42 5.32 9.24
9/26/2021 9:30:00 PM 16.88 62.384 0.092 7.32 4.93 9.27
9/26/2021 9:45:00 PM 16.85 62.33 0.094 7.45 5.5 9.34
9/26/2021 10:00:00 PM 16.77 62.186 0.094 7.42 5.14 9.3
9/26/2021 10:15:00 PM 16.69 62.042 0.092 7.39 4.91 9.25
9/26/2021 10:30:00 PM 16.64 61.952 0.099 7.41 4.98 9.3
9/26/2021 10:45:00 PM 16.61 61.898 0.099 7.41 5.03 9.34
9/26/2021 11:00:00 PM 16.56 61.808 0.092 7.36 5.21 9.26
9/26/2021 11:15:00 PM 16.54 61.772 0.095 7.4 4.86 9.35
9/26/2021 11:30:00 PM 16.54 61.772 0.093 7.4 5.13 9.38
9/26/2021 11:45:00 PM 16.51 61.718 0.095 7.44 4.83 9.41
9/27/2021 12:00:00 AM 16.47 61.646 0.094 7.39 5.11 9.39
9/27/2021 12:15:00 AM 16.44 61.592 0.093 7.4 5.21 9.4
9/27/2021 12:30:00 AM 16.42 61.556 0.095 7.43 5 9.42
9/27/2021 12:45:00 AM 16.39 61.502 0.093 7.41 5.04 9.42
9/27/2021 1:00:00 AM 16.37 61.466 0.094 7.42 89.53 9.41
9/27/2021 1:15:00 AM 16.36 61.448 0.093 7.43 5.01 9.45
9/27/2021 1:30:00 AM 16.32 61.376 0.092 7.4 4.87 9.42
9/27/2021 1:45:00 AM 16.31 61.358 0.099 7.42 4.97 9.44
9/27/2021 2:00:00 AM 16.3 61.34 0.093 7.44 5.2 9.44
9/27/2021 2:15:00 AM 16.29 61.322 0.095 7.45 4.88 9.44
9/27/2021 2:30:00 AM 16.24 61.232 0.094 7.41 5.58 9.44
9/27/2021 2:45:00 AM 16.22 61.196 0.094 7.39 5.8 9.34
9/27/2021 3:00:00 AM 16.22 61.196 0.093 7.45 5.05 9.48
9/27/2021 3:15:00 AM 16.19 61.142 0.093 7.32 4.92 9.38
9/27/2021 3:30:00 AM 16.18 61.124 0.095 7.42 4.9 9.48
9/27/2021 3:45:00 AM 16.16 61.088 0.093 7.43 4.77 9.47
9/27/2021 4:00:00 AM 16.14 61.052 0.095 7.43 4.85 9.45
9/27/2021 4:15:00 AM 16.12 61.016 0.094 7.44 5.01 9.47
9/27/2021 4:30:00 AM 16.1 60.98 0.099 7.4 4.76 9.48
9/27/2021 4:45:00 AM 16.1 60.98 0.092 7.39 5.47 9.46
9/27/2021 5:00:00 AM 16.1 60.98 0.094 7.44 5.12 9.43
9/27/2021 5:15:00 AM 16.08 60.944 0.094 7.31 4.96 9.41
9/27/2021 5:30:00 AM 16.1 60.98 0.094 7.37 4.77 9.47
9/27/2021 5:45:00 AM 16.08 60.944 0.094 7.26 4.57 9.37
9/27/2021 6:00:00 AM 16.1 60.98 0.094 7.43 5 9.5
9/27/2021 6:15:00 AM 16.1 60.98 0.093 7.42 4.73 9.5
9/27/2021 6:30:00 AM 16.13 61.034 0.092 7.5 5.01 9.54
9/27/2021 6:45:00 AM 16.08 60.944 0.096 7.38 5.08 9.35
9/27/2021 7:00:00 AM 16.13 61.034 0.093 7.47 4.62 9.52
9/27/2021 7:15:00 AM 16.1 60.98 0.095 7.41 4.53 9.49
9/27/2021 7:30:00 AM 16.13 61.034 0.093 7.46 4.92 9.51
9/27/2021 7:45:00 AM 16.11 60.998 0.096 7.32 4.95 9.49
9/27/2021 8:00:00 AM 16.14 61.052 0.094 7.39 4.49 9.49
9/27/2021 8:15:00 AM 16.17 61.106 0.095 7.35 4.74 9.36
9/27/2021 8:30:00 AM 16.2 61.16 0.094 7.46 4.68 9.56
9/27/2021 8:45:00 AM 16.22 61.196 0.092 7.46 4.56 9.58
9/27/2021 9:00:00 AM 16.25 61.25 0.095 7.49 4.55 9.6
9/27/2021 9:15:00 AM 16.3 61.34 0.094 7.47 4.51 9.62
9/27/2021 9:30:00 AM 16.36 61.448 0.1 7.39 4.29 9.64
9/27/2021 9:45:00 AM 16.41 61.538 0.095 7.48 4.41 9.63
9/27/2021 10:00:00 AM 16.5 61.7 0.096 7.52 4.5 9.69
9/27/2021 10:15:00 AM 16.64 61.952 0.093 7.55 4.47 9.73
9/27/2021 10:30:00 AM 16.76 62.168 0.095 7.42 4.39 9.62
9/27/2021 10:45:00 AM 16.85 62.33 0.093 7.56 4.69 9.71
9/27/2021 11:00:00 AM 16.86 62.348 0.1 7.49 4.99 9.58
9/27/2021 11:15:00 AM 16.96 62.528 0.095 7.55 4.83 9.66
9/27/2021 11:30:00 AM 17.03 62.654 0.094 7.51 4.33 9.68
9/27/2021 11:45:00 AM 17.17 62.906 0.095 7.56 4.62 9.68
9/27/2021 12:00:00 PM 17.29 63.122 0.1 7.52 4.16 9.66
9/27/2021 12:15:00 PM 17.41 63.338 0.094 7.6 4.39 9.67
9/27/2021 12:30:00 PM 17.45 63.41 0.094 7.57 4.25 9.65
9/27/2021 12:45:00 PM 17.54 63.572 0.093 7.6 4.34 9.65
9/27/2021 1:00:00 PM 17.68 63.824 0.094 7.6 4.23 9.61
9/27/2021 1:15:00 PM 17.81 64.058 0.096 7.55 4.29 9.53
9/27/2021 1:30:00 PM 17.91 64.238 0.094 7.64 4.24 9.58
9/27/2021 1:45:00 PM 17.96 64.328 0.093 7.63 4.32 9.54
9/27/2021 2:00:00 PM 18.04 64.472 0.093 7.58 4.28 9.52
9/27/2021 2:15:00 PM 18.09 64.562 0.095 7.61 4.28 9.48
9/27/2021 2:30:00 PM 18.15 64.67 0.094 7.46 4.26 9.48
9/27/2021 2:45:00 PM 18.2 64.76 0.095 7.57 4.08 9.47
9/27/2021 3:00:00 PM 18.24 64.832 0.094 7.47 4.25 9.39
9/27/2021 3:15:00 PM 18.26 64.868 0.093 7.52 4.32 9.3
9/27/2021 3:30:00 PM 18.33 64.994 0.095 7.6 4.42 9.39
9/27/2021 3:45:00 PM 18.35 65.03 0.094 7.56 4.66 9.37
9/27/2021 4:00:00 PM 18.35 65.03 0.095 7.6 4.41 9.33
9/27/2021 4:15:00 PM 18.35 65.03 0.094 7.54 4.35 9.23
9/27/2021 4:30:00 PM 18.39 65.102 0.093 7.56 4.16 9.32
9/27/2021 4:45:00 PM 18.38 65.084 0.095 7.55 4.22 9.27
9/27/2021 5:00:00 PM 18.37 65.066 0.095 7.49 4.18 9.24
9/27/2021 5:15:00 PM 18.34 65.012 0.096 7.41 4.24 9.09
9/27/2021 5:30:00 PM 18.31 64.958 0.095 7.48 4.19 9.11
9/27/2021 5:45:00 PM 18.29 64.922 0.094 7.5 4.86 9.1
9/27/2021 6:00:00 PM 18.24 64.832 0.093 7.48 4.42 9.13
9/27/2021 6:15:00 PM 18.18 64.724 0.095 7.45 4.33 9.06
9/27/2021 6:30:00 PM 18.13 64.634 0.096 7.31 4.2 8.89
9/27/2021 6:45:00 PM 18.11 64.598 0.096 7.4 4.1 8.97
9/27/2021 7:00:00 PM 18.06 64.508 0.095 7.43 19.47 9.01
9/27/2021 7:15:00 PM 18.04 64.472 0.098 7.42 4.48 9
9/27/2021 7:30:00 PM 18 64.4 0.096 7.43 4.17 8.99
9/27/2021 7:45:00 PM 17.94 64.292 0.103 7.22 4.08 8.95
9/27/2021 8:00:00 PM 17.89 64.202 0.097 7.26 4.21 8.95
9/27/2021 8:15:00 PM 17.85 64.13 0.096 7.31 4.17 8.91
9/27/2021 8:30:00 PM 17.86 64.148 0.096 7.46 4.48 9.04
9/27/2021 8:45:00 PM 17.82 64.076 0.096 7.44 4.27 9.04
9/27/2021 9:00:00 PM 17.79 64.022 0.096 7.45 4.38 9.05
9/27/2021 9:15:00 PM 17.71 63.878 0.096 7.39 5.31 8.97
9/27/2021 9:30:00 PM 17.67 63.806 0.097 7.38 4.14 9.02
9/27/2021 9:45:00 PM 17.64 63.752 0.095 7.42 4.2 9.04
9/27/2021 10:00:00 PM 17.57 63.626 0.095 7.39 4.05 9.07
9/27/2021 10:15:00 PM 17.52 63.536 0.095 7.37 4.17 9.04
9/27/2021 10:30:00 PM 17.51 63.518 0.096 7.42 4.18 9.12
9/27/2021 10:45:00 PM 17.46 63.428 0.096 7.41 4.23 9.04
9/27/2021 11:00:00 PM 17.42 63.356 0.096 7.39 4.08 9.09
9/27/2021 11:15:00 PM 17.38 63.284 0.095 7.41 4.38 9.11
9/27/2021 11:30:00 PM 17.34 63.212 0.095 7.41 4.18 9.1
9/27/2021 11:45:00 PM 17.31 63.158 0.095 7.36 4.04 9.07
9/28/2021 12:00:00 AM 17.27 63.086 0.097 7.41 4.15 9.14
9/28/2021 12:15:00 AM 17.23 63.014 0.096 7.39 4.22 9.14
9/28/2021 12:30:00 AM 17.17 62.906 0.099 7.24 4.18 9
9/28/2021 12:45:00 AM 17.17 62.906 0.096 7.39 4.06 9.12
9/28/2021 1:00:00 AM 17.13 62.834 0.097 7.34 4.11 9.13
9/28/2021 1:15:00 AM 17.11 62.798 0.096 7.39 3.92 9.15
9/28/2021 1:30:00 AM 17.06 62.708 0.098 7.33 4 9.06
9/28/2021 1:45:00 AM 17.05 62.69 0.097 7.37 3.92 9.14
9/28/2021 2:00:00 AM 17 62.6 0.099 7.32 4.03 9.06
9/28/2021 2:15:00 AM 16.96 62.528 0.098 7.22 4.1 9.06
9/28/2021 2:30:00 AM 16.95 62.51 0.099 7.33 3.93 9.12
9/28/2021 2:45:00 AM 16.97 62.546 0.097 7.41 3.92 9.19
9/28/2021 3:00:00 AM 16.89 62.402 0.106 7.16 3.89 8.98
9/28/2021 3:15:00 AM 16.9 62.42 0.097 7.33 4.02 9.14
9/28/2021 3:30:00 AM 16.87 62.366 0.097 7.21 3.98 8.97
9/28/2021 3:45:00 AM 16.84 62.312 0.099 7.32 4.04 9.06
9/28/2021 4:00:00 AM 16.83 62.294 0.098 7.14 3.89 9.01
9/28/2021 4:15:00 AM 16.81 62.258 0.099 7.34 3.85 9.07
9/28/2021 4:30:00 AM 16.81 62.258 0.098 7.31 4 9.11
9/28/2021 4:45:00 AM 16.75 62.15 0.1 7.15 3.95 8.98
9/28/2021 5:00:00 AM 16.75 62.15 0.105 7.34 3.89 9.08
9/28/2021 5:15:00 AM 16.7 62.06 0.101 7.2 3.77 9.01
9/28/2021 5:30:00 AM 16.69 62.042 0.099 7.27 3.84 9.08
9/28/2021 5:45:00 AM 16.67 62.006 0.1 7.24 3.89 9.08
9/28/2021 6:00:00 AM 16.67 62.006 0.099 7.34 3.82 9.15
9/28/2021 6:15:00 AM 16.62 61.916 0.099 7.23 3.76 9.16
9/28/2021 6:30:00 AM 16.58 61.844 0.105 7.27 3.74 8.93
9/28/2021 6:45:00 AM 16.55 61.79 0.1 7.25 4.36 8.9
9/28/2021 7:00:00 AM 16.44 61.592 0.101 6.91 3.84 9
9/28/2021 7:15:00 AM 16.52 61.736 0.1 7.34 4.29 9.18
9/28/2021 7:30:00 AM 16.48 61.664 0.101 7.19 3.72 9.04
9/28/2021 7:45:00 AM 16.49 61.682 0.098 7.19 4.03 9.13
9/28/2021 8:00:00 AM 16.48 61.664 0.101 7.26 3.72 9.16
9/28/2021 8:15:00 AM 16.52 61.736 0.1 7.4 3.85 9.36
9/28/2021 8:30:00 AM 16.51 61.718 0.102 7.3 3.84 9.34
9/28/2021 8:45:00 AM 16.52 61.736 0.1 7.36 3.66 9.31
9/28/2021 9:00:00 AM 16.54 61.772 0.101 7.22 3.68 9.37
9/28/2021 9:15:00 AM 16.52 61.736 0.101 7.25 3.53 9.16
9/28/2021 9:30:00 AM 16.53 61.754 0.099 7.35 3.91 9.28
9/28/2021 9:45:00 AM 16.56 61.808 0.098 7.4 4.02 9.36
9/28/2021 10:00:00 AM 16.56 61.808 0.099 7.34 3.95 9.32
9/28/2021 10:15:00 AM 16.52 61.736 0.106 7.32 4.32 9.25
9/28/2021 10:30:00 AM 16.55 61.79 0.106 7.35 4.17 9.33
9/28/2021 10:45:00 AM 16.45 61.61 0.101 7.07 4.2 9.06
9/28/2021 11:00:00 AM 16.56 61.808 0.099 7.22 3.91 9.29
9/28/2021 11:15:00 AM 16.64 61.952 0.097 7.4 3.91 9.47
9/28/2021 11:30:00 AM 16.55 61.79 0.104 7.11 3.78 9.13
9/28/2021 11:45:00 AM 16.67 62.006 0.099 7.35 3.72 9.32
9/28/2021 12:00:00 PM 16.68 62.024 0.102 7.11 3.78 9.27
9/28/2021 12:15:00 PM 16.69 62.042 0.101 7.13 3.57 9.15
9/28/2021 12:30:00 PM 16.79 62.222 0.097 7.41 3.7 9.48
9/28/2021 12:45:00 PM 16.79 62.222 0.101 7.37 3.68 9.26
9/28/2021 1:00:00 PM 16.83 62.294 0.1 7.36 3.71 9.43
9/28/2021 1:15:00 PM 16.81 62.258 0.101 7.33 3.55 9.37
9/28/2021 1:30:00 PM 16.83 62.294 0.099 7.36 3.59 9.3
9/28/2021 1:45:00 PM 16.85 62.33 0.098 7.39 3.65 9.45
9/28/2021 2:00:00 PM 16.85 62.33 0.1 7.4 3.68 9.41
9/28/2021 2:15:00 PM 16.83 62.294 0.099 7.31 3.75 9.27
9/28/2021 2:30:00 PM 16.8 62.24 0.103 7.11 3.68 9.12
9/28/2021 2:45:00 PM 16.87 62.366 0.1 7.26 3.82 9.39
9/28/2021 3:00:00 PM 16.9 62.42 0.101 7.46 3.67 9.52
9/28/2021 3:15:00 PM 16.91 62.438 0.099 7.47 3.64 9.52
9/28/2021 3:30:00 PM 16.91 62.438 0.101 7.36 3.66 9.47
9/28/2021 3:45:00 PM 16.95 62.51 0.099 7.31 3.71 9.51
9/28/2021 4:00:00 PM 16.92 62.456 0.098 7.14 3.54 9.34
9/28/2021 4:15:00 PM 16.97 62.546 0.101 7.45 3.64 9.47
9/28/2021 4:30:00 PM 16.96 62.528 0.099 7.47 3.67 9.38
9/28/2021 4:45:00 PM 16.95 62.51 0.106 7.33 3.61 9.43
9/28/2021 5:00:00 PM 16.94 62.492 0.1 7.39 3.65 9.43
9/28/2021 5:15:00 PM 16.93 62.474 0.101 7.23 3.79 9.28
9/28/2021 5:30:00 PM 16.93 62.474 0.1 7.32 3.7 9.36
9/28/2021 5:45:00 PM 16.89 62.402 0.1 7.37 3.55 9.41
9/28/2021 6:00:00 PM 16.87 62.366 0.099 7.41 3.7 9.34
9/28/2021 6:15:00 PM 16.79 62.222 0.1 7.29 3.63 9.22
9/28/2021 6:30:00 PM 16.82 62.276 0.102 7.32 3.82 9.16
9/28/2021 6:45:00 PM 16.74 62.132 0.1 7.23 3.65 9.15
9/28/2021 7:00:00 PM 16.76 62.168 0.101 7.29 3.84 9.15
9/28/2021 7:15:00 PM 16.63 61.934 0.1 7.16 3.78 9.07
9/28/2021 7:30:00 PM 16.62 61.916 0.102 7.18 3.93 9.1
9/28/2021 7:45:00 PM 16.53 61.754 0.106 7.14 3.76 9.07
9/28/2021 8:00:00 PM 16.48 61.664 0.101 7.38 3.89 9.22
9/28/2021 8:15:00 PM 16.39 61.502 0.099 7.37 3.77 9.23
9/28/2021 8:30:00 PM 16.34 61.412 0.1 7.41 3.61 9.33
9/28/2021 8:45:00 PM 16.25 61.25 0.099 7.19 3.78 9.26
9/28/2021 9:00:00 PM 16.14 61.052 0.101 7.13 3.73 9.05
9/28/2021 9:15:00 PM 16.08 60.944 0.098 7.38 3.78 9.33
9/28/2021 9:30:00 PM 16.04 60.872 0.102 7.19 3.75 9.14
9/28/2021 9:45:00 PM 15.98 60.764 0.098 7.37 3.62 9.37
9/28/2021 10:00:00 PM 15.92 60.656 0.1 7.34 3.78 9.28
9/28/2021 10:15:00 PM 15.88 60.584 0.098 7.25 3.61 9.35
9/28/2021 10:30:00 PM 15.83 60.494 0.105 7.28 3.74 9.31
9/28/2021 10:45:00 PM 15.75 60.35 0.099 7.16 3.72 9.29
9/28/2021 11:00:00 PM 15.73 60.314 0.1 7.29 3.96 9.25
9/28/2021 11:15:00 PM 15.66 60.188 0.098 7.26 3.7 9.42
9/28/2021 11:30:00 PM 15.61 60.098 0.1 7.36 3.83 9.47
9/28/2021 11:45:00 PM 15.55 59.99 0.099 7.34 4.05 9.46
9/29/2021 12:00:00 AM 15.51 59.918 0.1 7.33 3.97 9.42
9/29/2021 12:15:00 AM 15.47 59.846 0.099 7.18 3.89 9.38
9/29/2021 12:30:00 AM 15.4 59.72 0.1 7.35 3.79 9.49
9/29/2021 12:45:00 AM 15.37 59.666 0.098 7.22 3.94 9.47
9/29/2021 1:00:00 AM 15.33 59.594 0.099 7.39 3.83 9.58
9/29/2021 1:15:00 AM 15.27 59.486 0.098 7.28 3.69 9.42
9/29/2021 1:30:00 AM 15.21 59.378 0.097 7.26 3.73 9.49
9/29/2021 1:45:00 AM 15.15 59.27 0.1 7.29 3.88 9.58
9/29/2021 2:00:00 AM 15.06 59.108 0.097 7.34 3.74 9.55
9/29/2021 2:15:00 AM 15 59 0.101 7.25 3.73 9.41
9/29/2021 2:30:00 AM 14.91 58.838 0.098 7.38 3.86 9.68
9/29/2021 2:45:00 AM 14.86 58.748 0.098 7.16 3.75 9.49
9/29/2021 3:00:00 AM 14.79 58.622 0.1 7.27 3.66 9.54
9/29/2021 3:15:00 AM 14.72 58.496 0.099 7.28 3.68 9.52
9/29/2021 3:30:00 AM 14.65 58.37 0.105 7.38 3.64 9.66
9/29/2021 3:45:00 AM 14.59 58.262 0.097 7.35 3.93 9.69
9/29/2021 4:00:00 AM 14.53 58.154 0.099 7.36 3.71 9.75
9/29/2021 4:15:00 AM 14.45 58.01 0.105 7.18 3.6 9.62
9/29/2021 4:30:00 AM 14.4 57.92 0.099 7.38 4.02 9.77
9/29/2021 4:45:00 AM 14.31 57.758 0.099 7.35 3.73 9.8
9/29/2021 5:00:00 AM 14.3 57.74 0.105 7.12 3.68 9.62
9/29/2021 5:15:00 AM 14.23 57.614 0.106 7.28 3.66 9.74
9/29/2021 5:30:00 AM 14.2 57.56 0.098 7.3 3.91 9.61
9/29/2021 5:45:00 AM 14.15 57.47 0.099 7.39 3.89 9.83
9/29/2021 6:00:00 AM 14.1 57.38 0.099 7.32 3.7 9.85
9/29/2021 6:15:00 AM 14.08 57.344 0.1 7.33 3.94 9.82
9/29/2021 6:30:00 AM 14.08 57.344 0.098 7.31 4.07 9.63
9/29/2021 6:45:00 AM 14.05 57.29 0.1 7.29 3.82 9.8
9/29/2021 7:00:00 AM 14.02 57.236 0.098 7.23 3.55 9.68
9/29/2021 7:15:00 AM 13.96 57.128 0.098 7.24 3.8 9.7
9/29/2021 7:30:00 AM 13.88 56.984 0.101 7.32 3.73 9.9
9/29/2021 7:45:00 AM 13.87 56.966 0.099 7.35 3.74 9.88
9/29/2021 8:00:00 AM 13.88 56.984 0.105 7.37 3.68 9.96
9/29/2021 8:15:00 AM 13.86 56.948 0.099 7.38 3.81 10.01
9/29/2021 8:30:00 AM 13.88 56.984 0.097 7.38 3.68 10
9/29/2021 8:45:00 AM 13.9 57.02 0.106 7.26 3.5 10.02
9/29/2021 9:00:00 AM 13.87 56.966 0.099 7.31 3.62 10.06
9/29/2021 9:15:00 AM 13.89 57.002 0.1 7.4 3.57 10.07
9/29/2021 9:30:00 AM 13.91 57.038 0.099 7.26 3.46 9.82
9/29/2021 9:45:00 AM 13.96 57.128 0.098 7.34 3.6 9.9
9/29/2021 10:00:00 AM 13.97 57.146 0.098 7.4 3.58 10.15
9/29/2021 10:15:00 AM 14.07 57.326 0.098 7.42 3.52 10.17
9/29/2021 10:30:00 AM 14.13 57.434 0.099 7.35 3.78 10.18
9/29/2021 10:45:00 AM 14.28 57.704 0.098 7.39 3.55 10.19
9/29/2021 11:00:00 AM 14.34 57.812 0.098 7.45 3.58 10.03
9/29/2021 11:15:00 AM 14.52 58.136 0.099 7.37 3.62 10.36
9/29/2021 11:30:00 AM 14.61 58.298 0.099 7.5 3.42 10.29
9/29/2021 11:45:00 AM 14.79 58.622 0.099 7.44 3.46 10.36
9/29/2021 12:00:00 PM 14.81 58.658 0.099 7.36 3.46 10.05
9/29/2021 12:15:00 PM 14.92 58.856 0.099 7.5 3.4 10.2
9/29/2021 12:30:00 PM 15.02 59.036 0.105 7.54 3.48 10.23
9/29/2021 12:45:00 PM 15.13 59.234 0.099 7.55 3.62 10.23
9/29/2021 1:00:00 PM 15.17 59.306 0.097 7.52 3.45 10.15
9/29/2021 1:15:00 PM 15.26 59.468 0.1 7.48 3.49 9.99
9/29/2021 1:30:00 PM 15.44 59.792 0.099 7.51 3.43 10.14
9/29/2021 1:45:00 PM 15.39 59.702 0.1 7.45 3.61 9.82
9/29/2021 2:00:00 PM 15.41 59.738 0.099 7.47 3.43 10
9/29/2021 2:15:00 PM 15.6 60.08 0.098 7.48 3.61 10.02
9/29/2021 2:30:00 PM 15.6 60.08 0.1 7.5 3.55 9.98
9/29/2021 2:45:00 PM 15.53 59.954 0.098 7.49 3.59 10.01
9/29/2021 3:00:00 PM 15.51 59.918 0.1 7.48 3.64 9.87
9/29/2021 3:15:00 PM 15.57 60.026 0.098 7.49 3.62 10
9/29/2021 3:30:00 PM 15.6 60.08 0.1 7.49 3.64 9.94
9/29/2021 3:45:00 PM 15.69 60.242 0.1 7.54 3.56 10
9/29/2021 4:00:00 PM 15.67 60.206 0.1 7.54 3.74 9.89
9/29/2021 4:15:00 PM 15.65 60.17 0.099 7.51 3.66 9.84
9/29/2021 4:30:00 PM 15.61 60.098 0.099 7.26 3.57 9.76
9/29/2021 4:45:00 PM 15.62 60.116 0.1 7.42 3.51 9.79
9/29/2021 5:00:00 PM 15.61 60.098 0.099 7.43 3.58 9.73
9/29/2021 5:15:00 PM 15.6 60.08 0.1 7.49 3.53 9.75
9/29/2021 5:30:00 PM 15.59 60.062 0.106 7.41 3.58 9.61
9/29/2021 5:45:00 PM 15.57 60.026 0.097 7.44 3.63 9.59
9/29/2021 6:00:00 PM 15.54 59.972 0.101 7.41 3.67 9.7
9/29/2021 6:15:00 PM 15.51 59.918 0.1 7.26 3.62 9.41
9/29/2021 6:30:00 PM 15.5 59.9 0.101 7.37 3.61 9.56
9/29/2021 6:45:00 PM 15.46 59.828 0.099 7.29 3.59 9.4
9/29/2021 7:00:00 PM 15.47 59.846 0.1 7.42 3.64 9.55
9/29/2021 7:15:00 PM 15.44 59.792 0.1 7.39 3.62 9.54
9/29/2021 7:30:00 PM 15.41 59.738 0.101 7.38 3.76 9.5
9/29/2021 7:45:00 PM 15.36 59.648 0.099 7.34 5.43 9.45
9/29/2021 8:00:00 PM 15.36 59.648 0.101 7.39 4 9.54
9/29/2021 8:15:00 PM 15.32 59.576 0.1 7.24 3.81 9.47
9/29/2021 8:30:00 PM 15.27 59.486 0.108 7.19 3.54 9.25
9/29/2021 8:45:00 PM 15.28 59.504 0.099 7.34 3.58 9.42
9/29/2021 9:00:00 PM 15.27 59.486 0.102 7.3 3.78 9.43
9/29/2021 9:15:00 PM 15.24 59.432 0.1 7.32 3.68 9.5
9/29/2021 9:30:00 PM 15.23 59.414 0.101 7.33 3.72 9.53
9/29/2021 9:45:00 PM 15.2 59.36 0.1 7.32 3.67 9.56
9/29/2021 10:00:00 PM 15.17 59.306 0.099 7.23 3.57 9.46
9/29/2021 10:15:00 PM 15.17 59.306 0.101 7.38 3.6 9.57
9/29/2021 10:30:00 PM 15.16 59.288 0.101 7.35 3.5 9.61
9/29/2021 10:45:00 PM 15.13 59.234 0.101 7.34 3.59 9.53
9/29/2021 11:00:00 PM 15.11 59.198 0.101 7.36 3.55 9.58
9/29/2021 11:15:00 PM 15.1 59.18 0.101 7.36 3.56 9.6
9/29/2021 11:30:00 PM 15.09 59.162 0.101 7.39 3.51 9.61
9/29/2021 11:45:00 PM 15.05 59.09 0.101 7.28 3.51 9.46
9/30/2021 12:00:00 AM 15.05 59.09 0.101 7.35 3.7 9.61
9/30/2021 12:15:00 AM 15.03 59.054 0.101 7.31 3.53 9.58
9/30/2021 12:30:00 AM 15.02 59.036 0.101 7.35 3.51 9.57
9/30/2021 12:45:00 AM 15.01 59.018 0.101 7.34 3.61 9.61
9/30/2021 1:00:00 AM 14.99 58.982 0.101 7.34 3.49 9.51
9/30/2021 1:15:00 AM 15 59 0.102 7.28 3.82 9.61
9/30/2021 1:30:00 AM 14.97 58.946 0.101 7.28 3.73 9.49
9/30/2021 1:45:00 AM 14.98 58.964 0.099 7.36 3.53 9.55
9/30/2021 2:00:00 AM 14.94 58.892 0.102 7.37 4.01 9.6
9/30/2021 2:15:00 AM 14.91 58.838 0.101 7.32 3.53 9.59
9/30/2021 2:30:00 AM 14.85 58.73 0.102 7.28 3.81 9.58
9/30/2021 2:45:00 AM 14.83 58.694 0.1 7.37 3.76 9.62
9/30/2021 3:00:00 AM 14.78 58.604 0.102 7.31 3.44 9.68
9/30/2021 3:15:00 AM 14.73 58.514 0.101 7.34 3.53 9.67
9/30/2021 3:30:00 AM 14.68 58.424 0.102 7.37 3.45 9.69
9/30/2021 3:45:00 AM 14.63 58.334 0.101 7.37 3.65 9.72
9/30/2021 4:00:00 AM 14.57 58.226 0.1 7.36 3.53 9.73
9/30/2021 4:15:00 AM 14.53 58.154 0.104 7.39 3.48 9.77
9/30/2021 4:30:00 AM 14.5 58.1 0.102 7.38 3.3 9.72
9/30/2021 4:45:00 AM 14.45 58.01 0.102 7.36 3.42 9.74
9/30/2021 5:00:00 AM 14.45 58.01 0.101 7.3 3.42 9.71
9/30/2021 5:15:00 AM 14.42 57.956 0.102 7.36 3.58 9.74
9/30/2021 5:30:00 AM 14.41 57.938 0.1 7.33 3.5 9.75
9/30/2021 5:45:00 AM 14.39 57.902 0.108 7.34 3.28 9.78
9/30/2021 6:00:00 AM 14.38 57.884 0.104 7.08 3.43 9.27
9/30/2021 6:15:00 AM 14.37 57.866 0.101 7.3 3.47 9.79
9/30/2021 6:30:00 AM 14.36 57.848 0.103 7.38 3.42 9.85
9/30/2021 6:45:00 AM 14.34 57.812 0.102 7.33 3.45 9.73
9/30/2021 7:00:00 AM 14.32 57.776 0.103 7.35 3.73 9.8
9/30/2021 7:15:00 AM 14.31 57.758 0.102 7.4 3.39 9.84
9/30/2021 7:30:00 AM 14.28 57.704 0.103 7.37 3.48 9.8
9/30/2021 7:45:00 AM 14.28 57.704 0.102 7.45 3.44 9.91
9/30/2021 8:00:00 AM 14.23 57.614 0.1 7.34 3.44 9.9
9/30/2021 8:15:00 AM 14.22 57.596 0.104 7.22 3.48 9.64
9/30/2021 8:30:00 AM 14.23 57.614 0.102 7.4 3.51 9.98
9/30/2021 8:45:00 AM 14.21 57.578 0.103 7.4 3.51 9.99
9/30/2021 9:00:00 AM 14.21 57.578 0.102 7.37 3.38 10
9/30/2021 9:15:00 AM 14.21 57.578 0.103 7.37 3.31 10.03
9/30/2021 9:30:00 AM 14.25 57.65 0.101 7.44 3.33 10.14
9/30/2021 9:45:00 AM 14.27 57.686 0.102 7.48 3.32 10.22
9/30/2021 10:00:00 AM 14.3 57.74